<?xml version="1.0" encoding="UTF-8" standalone="no" ?>
<gpx xmlns="http://www.topografix.com/GPX/1/1" xmlns:xsi="http://www.w3.org/2001/XMLSchema-instance" xsi:schemaLocation="http://www.topografix.com/GPX/1/1 http://www.topografix.com/GPX/1/1/gpx.xsd" version="1.1" creator="VisuGPX - https://www.visugpx.com">
  <metadata>
    <name>LACANAU DU 2-10-16</name>
    <desc><![CDATA[Parcours VTT entre MIOS, LACANAU. Parcours sympa même si je ne l'ai fait cette fois là.]]></desc>
  </metadata>
  <trk>
    <name><![CDATA[2016-10-02T07:38:11Z]]></name>
    <trkseg>
      <trkpt lat="44.60607" lon="-0.93949">
        <ele>9.7506104</ele>
        <time>2016-10-02T07:38:11Z</time>
      </trkpt>
      <trkpt lat="44.60615" lon="-0.9396">
        <ele>8.7891846</ele>
        <time>2016-10-02T07:38:17Z</time>
      </trkpt>
      <trkpt lat="44.60623" lon="-0.93969">
        <ele>8.3085938</ele>
        <time>2016-10-02T07:38:21Z</time>
      </trkpt>
      <trkpt lat="44.60626" lon="-0.93967">
        <ele>8.7891846</ele>
        <time>2016-10-02T07:38:23Z</time>
      </trkpt>
      <trkpt lat="44.60635" lon="-0.93962">
        <ele>9.2698975</ele>
        <time>2016-10-02T07:38:27Z</time>
      </trkpt>
      <trkpt lat="44.60642" lon="-0.93948">
        <ele>10.711792</ele>
        <time>2016-10-02T07:38:32Z</time>
      </trkpt>
      <trkpt lat="44.6065" lon="-0.9394">
        <ele>10.711792</ele>
        <time>2016-10-02T07:38:36Z</time>
      </trkpt>
      <trkpt lat="44.60668" lon="-0.93923">
        <ele>10.711792</ele>
        <time>2016-10-02T07:38:43Z</time>
      </trkpt>
      <trkpt lat="44.60676" lon="-0.93905">
        <ele>10.2312012</ele>
        <time>2016-10-02T07:38:49Z</time>
      </trkpt>
      <trkpt lat="44.60678" lon="-0.93892">
        <ele>10.2312012</ele>
        <time>2016-10-02T07:38:52Z</time>
      </trkpt>
      <trkpt lat="44.60699" lon="-0.93879">
        <ele>10.711792</ele>
        <time>2016-10-02T07:38:58Z</time>
      </trkpt>
      <trkpt lat="44.60719" lon="-0.9387">
        <ele>11.6732178</ele>
        <time>2016-10-02T07:39:04Z</time>
      </trkpt>
      <trkpt lat="44.60741" lon="-0.93888">
        <ele>10.711792</ele>
        <time>2016-10-02T07:39:12Z</time>
      </trkpt>
      <trkpt lat="44.60756" lon="-0.93882">
        <ele>10.711792</ele>
        <time>2016-10-02T07:39:16Z</time>
      </trkpt>
      <trkpt lat="44.60787" lon="-0.93866">
        <ele>10.711792</ele>
        <time>2016-10-02T07:39:25Z</time>
      </trkpt>
      <trkpt lat="44.60802" lon="-0.93867">
        <ele>12.1538086</ele>
        <time>2016-10-02T07:39:30Z</time>
      </trkpt>
      <trkpt lat="44.60832" lon="-0.93869">
        <ele>11.6732178</ele>
        <time>2016-10-02T07:39:38Z</time>
      </trkpt>
      <trkpt lat="44.60859" lon="-0.9387">
        <ele>11.6732178</ele>
        <time>2016-10-02T07:39:45Z</time>
      </trkpt>
      <trkpt lat="44.60878" lon="-0.93875">
        <ele>11.6732178</ele>
        <time>2016-10-02T07:39:50Z</time>
      </trkpt>
      <trkpt lat="44.60887" lon="-0.93864">
        <ele>12.1538086</ele>
        <time>2016-10-02T07:39:53Z</time>
      </trkpt>
      <trkpt lat="44.60906" lon="-0.93824">
        <ele>14.5570068</ele>
        <time>2016-10-02T07:40:02Z</time>
      </trkpt>
      <trkpt lat="44.60923" lon="-0.93799">
        <ele>14.076416</ele>
        <time>2016-10-02T07:40:09Z</time>
      </trkpt>
      <trkpt lat="44.60946" lon="-0.93788">
        <ele>13.5958252</ele>
        <time>2016-10-02T07:40:15Z</time>
      </trkpt>
      <trkpt lat="44.60955" lon="-0.93785">
        <ele>13.5958252</ele>
        <time>2016-10-02T07:40:17Z</time>
      </trkpt>
      <trkpt lat="44.60966" lon="-0.93771">
        <ele>13.5958252</ele>
        <time>2016-10-02T07:40:21Z</time>
      </trkpt>
      <trkpt lat="44.60966" lon="-0.93759">
        <ele>13.5958252</ele>
        <time>2016-10-02T07:40:23Z</time>
      </trkpt>
      <trkpt lat="44.6096" lon="-0.9371">
        <ele>15.0377197</ele>
        <time>2016-10-02T07:40:32Z</time>
      </trkpt>
      <trkpt lat="44.60958" lon="-0.9369">
        <ele>15.0377197</ele>
        <time>2016-10-02T07:40:37Z</time>
      </trkpt>
      <trkpt lat="44.60973" lon="-0.9368">
        <ele>15.5184326</ele>
        <time>2016-10-02T07:40:42Z</time>
      </trkpt>
      <trkpt lat="44.60996" lon="-0.93673">
        <ele>14.5570068</ele>
        <time>2016-10-02T07:40:48Z</time>
      </trkpt>
      <trkpt lat="44.61033" lon="-0.93662">
        <ele>12.1538086</ele>
        <time>2016-10-02T07:40:57Z</time>
      </trkpt>
      <trkpt lat="44.61069" lon="-0.93652">
        <ele>9.7506104</ele>
        <time>2016-10-02T07:41:05Z</time>
      </trkpt>
      <trkpt lat="44.61095" lon="-0.93647">
        <ele>8.3085938</ele>
        <time>2016-10-02T07:41:10Z</time>
      </trkpt>
      <trkpt lat="44.61106" lon="-0.93645">
        <ele>7.8278809</ele>
        <time>2016-10-02T07:41:12Z</time>
      </trkpt>
      <trkpt lat="44.61155" lon="-0.93634">
        <ele>7.8278809</ele>
        <time>2016-10-02T07:41:21Z</time>
      </trkpt>
      <trkpt lat="44.61203" lon="-0.93624">
        <ele>7.347168</ele>
        <time>2016-10-02T07:41:30Z</time>
      </trkpt>
      <trkpt lat="44.61238" lon="-0.9362">
        <ele>7.347168</ele>
        <time>2016-10-02T07:41:37Z</time>
      </trkpt>
      <trkpt lat="44.61277" lon="-0.9362">
        <ele>9.7506104</ele>
        <time>2016-10-02T07:41:45Z</time>
      </trkpt>
      <trkpt lat="44.61317" lon="-0.93625">
        <ele>11.1925049</ele>
        <time>2016-10-02T07:41:54Z</time>
      </trkpt>
      <trkpt lat="44.6136" lon="-0.93629">
        <ele>12.1538086</ele>
        <time>2016-10-02T07:42:03Z</time>
      </trkpt>
      <trkpt lat="44.61384" lon="-0.93631">
        <ele>12.6343994</ele>
        <time>2016-10-02T07:42:08Z</time>
      </trkpt>
      <trkpt lat="44.61417" lon="-0.93634">
        <ele>13.1151123</ele>
        <time>2016-10-02T07:42:15Z</time>
      </trkpt>
      <trkpt lat="44.61462" lon="-0.93639">
        <ele>12.6343994</ele>
        <time>2016-10-02T07:42:24Z</time>
      </trkpt>
      <trkpt lat="44.61497" lon="-0.93644">
        <ele>12.6343994</ele>
        <time>2016-10-02T07:42:32Z</time>
      </trkpt>
      <trkpt lat="44.61536" lon="-0.93647">
        <ele>12.1538086</ele>
        <time>2016-10-02T07:42:39Z</time>
      </trkpt>
      <trkpt lat="44.6158" lon="-0.93653">
        <ele>11.6732178</ele>
        <time>2016-10-02T07:42:47Z</time>
      </trkpt>
      <trkpt lat="44.61618" lon="-0.9365">
        <ele>11.1925049</ele>
        <time>2016-10-02T07:42:54Z</time>
      </trkpt>
      <trkpt lat="44.61658" lon="-0.93628">
        <ele>11.6732178</ele>
        <time>2016-10-02T07:43:02Z</time>
      </trkpt>
      <trkpt lat="44.61692" lon="-0.93606">
        <ele>12.6343994</ele>
        <time>2016-10-02T07:43:09Z</time>
      </trkpt>
      <trkpt lat="44.61736" lon="-0.93578">
        <ele>14.076416</ele>
        <time>2016-10-02T07:43:18Z</time>
      </trkpt>
      <trkpt lat="44.61786" lon="-0.93546">
        <ele>14.076416</ele>
        <time>2016-10-02T07:43:28Z</time>
      </trkpt>
      <trkpt lat="44.61835" lon="-0.93516">
        <ele>15.0377197</ele>
        <time>2016-10-02T07:43:38Z</time>
      </trkpt>
      <trkpt lat="44.61868" lon="-0.93495">
        <ele>15.5184326</ele>
        <time>2016-10-02T07:43:45Z</time>
      </trkpt>
      <trkpt lat="44.61912" lon="-0.93467">
        <ele>15.9990234</ele>
        <time>2016-10-02T07:43:55Z</time>
      </trkpt>
      <trkpt lat="44.61933" lon="-0.93452">
        <ele>16.9604492</ele>
        <time>2016-10-02T07:44:01Z</time>
      </trkpt>
      <trkpt lat="44.6196" lon="-0.93426">
        <ele>17.9217529</ele>
        <time>2016-10-02T07:44:08Z</time>
      </trkpt>
      <trkpt lat="44.61985" lon="-0.93396">
        <ele>17.9217529</ele>
        <time>2016-10-02T07:44:15Z</time>
      </trkpt>
      <trkpt lat="44.62024" lon="-0.93353">
        <ele>18.8830566</ele>
        <time>2016-10-02T07:44:25Z</time>
      </trkpt>
      <trkpt lat="44.62055" lon="-0.93317">
        <ele>18.4023438</ele>
        <time>2016-10-02T07:44:33Z</time>
      </trkpt>
      <trkpt lat="44.62088" lon="-0.93281">
        <ele>17.4411621</ele>
        <time>2016-10-02T07:44:41Z</time>
      </trkpt>
      <trkpt lat="44.62128" lon="-0.93236">
        <ele>17.4411621</ele>
        <time>2016-10-02T07:44:51Z</time>
      </trkpt>
      <trkpt lat="44.62164" lon="-0.93196">
        <ele>17.9217529</ele>
        <time>2016-10-02T07:45:00Z</time>
      </trkpt>
      <trkpt lat="44.622" lon="-0.93154">
        <ele>18.4023438</ele>
        <time>2016-10-02T07:45:09Z</time>
      </trkpt>
      <trkpt lat="44.62213" lon="-0.93141">
        <ele>18.4023438</ele>
        <time>2016-10-02T07:45:12Z</time>
      </trkpt>
      <trkpt lat="44.6224" lon="-0.93109">
        <ele>18.4023438</ele>
        <time>2016-10-02T07:45:19Z</time>
      </trkpt>
      <trkpt lat="44.62277" lon="-0.93066">
        <ele>18.4023438</ele>
        <time>2016-10-02T07:45:28Z</time>
      </trkpt>
      <trkpt lat="44.62324" lon="-0.93013">
        <ele>18.8830566</ele>
        <time>2016-10-02T07:45:39Z</time>
      </trkpt>
      <trkpt lat="44.62369" lon="-0.92966">
        <ele>19.3637695</ele>
        <time>2016-10-02T07:45:49Z</time>
      </trkpt>
      <trkpt lat="44.62403" lon="-0.92939">
        <ele>19.3637695</ele>
        <time>2016-10-02T07:45:56Z</time>
      </trkpt>
      <trkpt lat="44.62447" lon="-0.92919">
        <ele>18.8830566</ele>
        <time>2016-10-02T07:46:04Z</time>
      </trkpt>
      <trkpt lat="44.62502" lon="-0.92897">
        <ele>19.8443604</ele>
        <time>2016-10-02T07:46:14Z</time>
      </trkpt>
      <trkpt lat="44.62534" lon="-0.92883">
        <ele>19.8443604</ele>
        <time>2016-10-02T07:46:20Z</time>
      </trkpt>
      <trkpt lat="44.62576" lon="-0.92865">
        <ele>20.3249512</ele>
        <time>2016-10-02T07:46:28Z</time>
      </trkpt>
      <trkpt lat="44.62621" lon="-0.92846">
        <ele>20.3249512</ele>
        <time>2016-10-02T07:46:36Z</time>
      </trkpt>
      <trkpt lat="44.62671" lon="-0.92825">
        <ele>18.4023438</ele>
        <time>2016-10-02T07:46:45Z</time>
      </trkpt>
      <trkpt lat="44.62721" lon="-0.92804">
        <ele>17.4411621</ele>
        <time>2016-10-02T07:46:54Z</time>
      </trkpt>
      <trkpt lat="44.62762" lon="-0.92789">
        <ele>17.4411621</ele>
        <time>2016-10-02T07:47:01Z</time>
      </trkpt>
      <trkpt lat="44.62807" lon="-0.92769">
        <ele>18.4023438</ele>
        <time>2016-10-02T07:47:09Z</time>
      </trkpt>
      <trkpt lat="44.62847" lon="-0.92748">
        <ele>18.8830566</ele>
        <time>2016-10-02T07:47:16Z</time>
      </trkpt>
      <trkpt lat="44.62893" lon="-0.92727">
        <ele>19.3637695</ele>
        <time>2016-10-02T07:47:24Z</time>
      </trkpt>
      <trkpt lat="44.6293" lon="-0.92711">
        <ele>19.8443604</ele>
        <time>2016-10-02T07:47:31Z</time>
      </trkpt>
      <trkpt lat="44.62977" lon="-0.92686">
        <ele>19.3637695</ele>
        <time>2016-10-02T07:47:40Z</time>
      </trkpt>
      <trkpt lat="44.63016" lon="-0.92656">
        <ele>20.8056641</ele>
        <time>2016-10-02T07:47:48Z</time>
      </trkpt>
      <trkpt lat="44.63063" lon="-0.92615">
        <ele>23.2089844</ele>
        <time>2016-10-02T07:47:58Z</time>
      </trkpt>
      <trkpt lat="44.63107" lon="-0.92583">
        <ele>25.6123047</ele>
        <time>2016-10-02T07:48:07Z</time>
      </trkpt>
      <trkpt lat="44.63162" lon="-0.92547">
        <ele>26.0928955</ele>
        <time>2016-10-02T07:48:18Z</time>
      </trkpt>
      <trkpt lat="44.63182" lon="-0.92534">
        <ele>25.6123047</ele>
        <time>2016-10-02T07:48:22Z</time>
      </trkpt>
      <trkpt lat="44.63214" lon="-0.92515">
        <ele>23.6895752</ele>
        <time>2016-10-02T07:48:28Z</time>
      </trkpt>
      <trkpt lat="44.63257" lon="-0.92488">
        <ele>21.7669678</ele>
        <time>2016-10-02T07:48:35Z</time>
      </trkpt>
      <trkpt lat="44.63313" lon="-0.92462">
        <ele>19.8443604</ele>
        <time>2016-10-02T07:48:43Z</time>
      </trkpt>
      <trkpt lat="44.63357" lon="-0.92446">
        <ele>19.8443604</ele>
        <time>2016-10-02T07:48:50Z</time>
      </trkpt>
      <trkpt lat="44.63384" lon="-0.92437">
        <ele>19.3637695</ele>
        <time>2016-10-02T07:48:55Z</time>
      </trkpt>
      <trkpt lat="44.63418" lon="-0.92423">
        <ele>19.3637695</ele>
        <time>2016-10-02T07:49:02Z</time>
      </trkpt>
      <trkpt lat="44.63423" lon="-0.92421">
        <ele>19.8443604</ele>
        <time>2016-10-02T07:49:03Z</time>
      </trkpt>
      <trkpt lat="44.63428" lon="-0.92403">
        <ele>19.3637695</ele>
        <time>2016-10-02T07:49:07Z</time>
      </trkpt>
      <trkpt lat="44.63427" lon="-0.92344">
        <ele>18.4023438</ele>
        <time>2016-10-02T07:49:16Z</time>
      </trkpt>
      <trkpt lat="44.63429" lon="-0.9233">
        <ele>18.4023438</ele>
        <time>2016-10-02T07:49:18Z</time>
      </trkpt>
      <trkpt lat="44.6343" lon="-0.92274">
        <ele>16.9604492</ele>
        <time>2016-10-02T07:49:26Z</time>
      </trkpt>
      <trkpt lat="44.63432" lon="-0.9226">
        <ele>16.9604492</ele>
        <time>2016-10-02T07:49:28Z</time>
      </trkpt>
      <trkpt lat="44.63433" lon="-0.92232">
        <ele>15.9990234</ele>
        <time>2016-10-02T07:49:32Z</time>
      </trkpt>
      <trkpt lat="44.63435" lon="-0.92212">
        <ele>15.9990234</ele>
        <time>2016-10-02T07:49:35Z</time>
      </trkpt>
      <trkpt lat="44.63438" lon="-0.92177">
        <ele>15.5184326</ele>
        <time>2016-10-02T07:49:40Z</time>
      </trkpt>
      <trkpt lat="44.6344" lon="-0.92143">
        <ele>18.4023438</ele>
        <time>2016-10-02T07:49:45Z</time>
      </trkpt>
      <trkpt lat="44.63443" lon="-0.92101">
        <ele>18.8830566</ele>
        <time>2016-10-02T07:49:51Z</time>
      </trkpt>
      <trkpt lat="44.63446" lon="-0.92068">
        <ele>18.4023438</ele>
        <time>2016-10-02T07:49:56Z</time>
      </trkpt>
      <trkpt lat="44.63447" lon="-0.92037">
        <ele>18.4023438</ele>
        <time>2016-10-02T07:50:00Z</time>
      </trkpt>
      <trkpt lat="44.63444" lon="-0.91986">
        <ele>19.3637695</ele>
        <time>2016-10-02T07:50:07Z</time>
      </trkpt>
      <trkpt lat="44.63441" lon="-0.9196">
        <ele>19.8443604</ele>
        <time>2016-10-02T07:50:11Z</time>
      </trkpt>
      <trkpt lat="44.63438" lon="-0.91948">
        <ele>19.8443604</ele>
        <time>2016-10-02T07:50:13Z</time>
      </trkpt>
      <trkpt lat="44.63437" lon="-0.91934">
        <ele>19.8443604</ele>
        <time>2016-10-02T07:50:15Z</time>
      </trkpt>
      <trkpt lat="44.63433" lon="-0.91886">
        <ele>20.3249512</ele>
        <time>2016-10-02T07:50:22Z</time>
      </trkpt>
      <trkpt lat="44.63429" lon="-0.91846">
        <ele>20.3249512</ele>
        <time>2016-10-02T07:50:28Z</time>
      </trkpt>
      <trkpt lat="44.63422" lon="-0.91792">
        <ele>19.8443604</ele>
        <time>2016-10-02T07:50:36Z</time>
      </trkpt>
      <trkpt lat="44.63416" lon="-0.9173">
        <ele>19.8443604</ele>
        <time>2016-10-02T07:50:45Z</time>
      </trkpt>
      <trkpt lat="44.6341" lon="-0.91683">
        <ele>20.8056641</ele>
        <time>2016-10-02T07:50:52Z</time>
      </trkpt>
      <trkpt lat="44.63406" lon="-0.91664">
        <ele>21.286377</ele>
        <time>2016-10-02T07:50:55Z</time>
      </trkpt>
      <trkpt lat="44.63396" lon="-0.91639">
        <ele>22.7282715</ele>
        <time>2016-10-02T07:50:59Z</time>
      </trkpt>
      <trkpt lat="44.63391" lon="-0.91604">
        <ele>22.7282715</ele>
        <time>2016-10-02T07:51:04Z</time>
      </trkpt>
      <trkpt lat="44.63386" lon="-0.91548">
        <ele>21.7669678</ele>
        <time>2016-10-02T07:51:12Z</time>
      </trkpt>
      <trkpt lat="44.63383" lon="-0.9152">
        <ele>22.2475586</ele>
        <time>2016-10-02T07:51:16Z</time>
      </trkpt>
      <trkpt lat="44.63379" lon="-0.9148">
        <ele>21.7669678</ele>
        <time>2016-10-02T07:51:22Z</time>
      </trkpt>
      <trkpt lat="44.63371" lon="-0.91412">
        <ele>21.7669678</ele>
        <time>2016-10-02T07:51:32Z</time>
      </trkpt>
      <trkpt lat="44.63366" lon="-0.91365">
        <ele>21.7669678</ele>
        <time>2016-10-02T07:51:39Z</time>
      </trkpt>
      <trkpt lat="44.6336" lon="-0.91317">
        <ele>22.7282715</ele>
        <time>2016-10-02T07:51:46Z</time>
      </trkpt>
      <trkpt lat="44.63356" lon="-0.91275">
        <ele>22.7282715</ele>
        <time>2016-10-02T07:51:52Z</time>
      </trkpt>
      <trkpt lat="44.63355" lon="-0.91269">
        <ele>22.7282715</ele>
        <time>2016-10-02T07:51:53Z</time>
      </trkpt>
      <trkpt lat="44.63352" lon="-0.91242">
        <ele>22.7282715</ele>
        <time>2016-10-02T07:51:57Z</time>
      </trkpt>
      <trkpt lat="44.6335" lon="-0.91223">
        <ele>22.7282715</ele>
        <time>2016-10-02T07:52:00Z</time>
      </trkpt>
      <trkpt lat="44.63346" lon="-0.91181">
        <ele>23.2089844</ele>
        <time>2016-10-02T07:52:07Z</time>
      </trkpt>
      <trkpt lat="44.63343" lon="-0.91153">
        <ele>23.2089844</ele>
        <time>2016-10-02T07:52:12Z</time>
      </trkpt>
      <trkpt lat="44.63339" lon="-0.91122">
        <ele>25.1317139</ele>
        <time>2016-10-02T07:52:19Z</time>
      </trkpt>
      <trkpt lat="44.63335" lon="-0.91097">
        <ele>25.1317139</ele>
        <time>2016-10-02T07:52:25Z</time>
      </trkpt>
      <trkpt lat="44.63334" lon="-0.91083">
        <ele>25.1317139</ele>
        <time>2016-10-02T07:52:29Z</time>
      </trkpt>
      <trkpt lat="44.63332" lon="-0.91071">
        <ele>24.1702881</ele>
        <time>2016-10-02T07:52:33Z</time>
      </trkpt>
      <trkpt lat="44.63329" lon="-0.9105">
        <ele>24.1702881</ele>
        <time>2016-10-02T07:52:37Z</time>
      </trkpt>
      <trkpt lat="44.63321" lon="-0.91016">
        <ele>23.2089844</ele>
        <time>2016-10-02T07:52:43Z</time>
      </trkpt>
      <trkpt lat="44.63315" lon="-0.91">
        <ele>23.2089844</ele>
        <time>2016-10-02T07:52:46Z</time>
      </trkpt>
      <trkpt lat="44.63296" lon="-0.90951">
        <ele>22.7282715</ele>
        <time>2016-10-02T07:52:55Z</time>
      </trkpt>
      <trkpt lat="44.63294" lon="-0.90947">
        <ele>22.7282715</ele>
        <time>2016-10-02T07:52:56Z</time>
      </trkpt>
      <trkpt lat="44.63276" lon="-0.90904">
        <ele>22.7282715</ele>
        <time>2016-10-02T07:53:04Z</time>
      </trkpt>
      <trkpt lat="44.63272" lon="-0.90894">
        <ele>22.7282715</ele>
        <time>2016-10-02T07:53:06Z</time>
      </trkpt>
      <trkpt lat="44.63248" lon="-0.90833">
        <ele>22.7282715</ele>
        <time>2016-10-02T07:53:17Z</time>
      </trkpt>
      <trkpt lat="44.63229" lon="-0.90785">
        <ele>23.2089844</ele>
        <time>2016-10-02T07:53:26Z</time>
      </trkpt>
      <trkpt lat="44.63222" lon="-0.9077">
        <ele>23.6895752</ele>
        <time>2016-10-02T07:53:29Z</time>
      </trkpt>
      <trkpt lat="44.63212" lon="-0.90747">
        <ele>25.1317139</ele>
        <time>2016-10-02T07:53:34Z</time>
      </trkpt>
      <trkpt lat="44.63194" lon="-0.90703">
        <ele>25.6123047</ele>
        <time>2016-10-02T07:53:43Z</time>
      </trkpt>
      <trkpt lat="44.63187" lon="-0.90687">
        <ele>25.6123047</ele>
        <time>2016-10-02T07:53:46Z</time>
      </trkpt>
      <trkpt lat="44.63178" lon="-0.90665">
        <ele>25.6123047</ele>
        <time>2016-10-02T07:53:50Z</time>
      </trkpt>
      <trkpt lat="44.6317" lon="-0.90644">
        <ele>25.6123047</ele>
        <time>2016-10-02T07:53:54Z</time>
      </trkpt>
      <trkpt lat="44.63157" lon="-0.90614">
        <ele>26.0928955</ele>
        <time>2016-10-02T07:54:00Z</time>
      </trkpt>
      <trkpt lat="44.63139" lon="-0.90569">
        <ele>27.0543213</ele>
        <time>2016-10-02T07:54:09Z</time>
      </trkpt>
      <trkpt lat="44.63133" lon="-0.90552">
        <ele>27.0543213</ele>
        <time>2016-10-02T07:54:12Z</time>
      </trkpt>
      <trkpt lat="44.63116" lon="-0.90504">
        <ele>29.9381104</ele>
        <time>2016-10-02T07:54:21Z</time>
      </trkpt>
      <trkpt lat="44.63111" lon="-0.90487">
        <ele>28.9769287</ele>
        <time>2016-10-02T07:54:24Z</time>
      </trkpt>
      <trkpt lat="44.63095" lon="-0.90445">
        <ele>29.9381104</ele>
        <time>2016-10-02T07:54:32Z</time>
      </trkpt>
      <trkpt lat="44.63085" lon="-0.90413">
        <ele>29.4575195</ele>
        <time>2016-10-02T07:54:38Z</time>
      </trkpt>
      <trkpt lat="44.63073" lon="-0.9038">
        <ele>28.9769287</ele>
        <time>2016-10-02T07:54:44Z</time>
      </trkpt>
      <trkpt lat="44.6307" lon="-0.90368">
        <ele>28.9769287</ele>
        <time>2016-10-02T07:54:46Z</time>
      </trkpt>
      <trkpt lat="44.63052" lon="-0.9032">
        <ele>28.0155029</ele>
        <time>2016-10-02T07:54:55Z</time>
      </trkpt>
      <trkpt lat="44.6304" lon="-0.90282">
        <ele>27.5349121</ele>
        <time>2016-10-02T07:55:02Z</time>
      </trkpt>
      <trkpt lat="44.63031" lon="-0.90254">
        <ele>27.5349121</ele>
        <time>2016-10-02T07:55:07Z</time>
      </trkpt>
      <trkpt lat="44.63017" lon="-0.90212">
        <ele>27.0543213</ele>
        <time>2016-10-02T07:55:14Z</time>
      </trkpt>
      <trkpt lat="44.62997" lon="-0.90153">
        <ele>28.4962158</ele>
        <time>2016-10-02T07:55:24Z</time>
      </trkpt>
      <trkpt lat="44.62977" lon="-0.90095">
        <ele>28.4962158</ele>
        <time>2016-10-02T07:55:34Z</time>
      </trkpt>
      <trkpt lat="44.6297" lon="-0.90077">
        <ele>29.9381104</ele>
        <time>2016-10-02T07:55:37Z</time>
      </trkpt>
      <trkpt lat="44.62955" lon="-0.90031">
        <ele>29.9381104</ele>
        <time>2016-10-02T07:55:45Z</time>
      </trkpt>
      <trkpt lat="44.62943" lon="-0.89995">
        <ele>29.9381104</ele>
        <time>2016-10-02T07:55:51Z</time>
      </trkpt>
      <trkpt lat="44.62945" lon="-0.89971">
        <ele>29.9381104</ele>
        <time>2016-10-02T07:55:55Z</time>
      </trkpt>
      <trkpt lat="44.62959" lon="-0.89951">
        <ele>30.4188232</ele>
        <time>2016-10-02T07:55:59Z</time>
      </trkpt>
      <trkpt lat="44.62993" lon="-0.89924">
        <ele>31.380127</ele>
        <time>2016-10-02T07:56:07Z</time>
      </trkpt>
      <trkpt lat="44.63025" lon="-0.89908">
        <ele>31.8607178</ele>
        <time>2016-10-02T07:56:14Z</time>
      </trkpt>
      <trkpt lat="44.63037" lon="-0.89889">
        <ele>31.8607178</ele>
        <time>2016-10-02T07:56:18Z</time>
      </trkpt>
      <trkpt lat="44.63034" lon="-0.89871">
        <ele>31.380127</ele>
        <time>2016-10-02T07:56:21Z</time>
      </trkpt>
      <trkpt lat="44.63028" lon="-0.8986">
        <ele>31.380127</ele>
        <time>2016-10-02T07:56:23Z</time>
      </trkpt>
      <trkpt lat="44.63021" lon="-0.8985">
        <ele>31.8607178</ele>
        <time>2016-10-02T07:56:26Z</time>
      </trkpt>
      <trkpt lat="44.6302" lon="-0.89834">
        <ele>31.8607178</ele>
        <time>2016-10-02T07:56:31Z</time>
      </trkpt>
      <trkpt lat="44.63025" lon="-0.8982">
        <ele>30.8995361</ele>
        <time>2016-10-02T07:56:34Z</time>
      </trkpt>
      <trkpt lat="44.6305" lon="-0.89785">
        <ele>30.4188232</ele>
        <time>2016-10-02T07:56:41Z</time>
      </trkpt>
      <trkpt lat="44.63074" lon="-0.8975">
        <ele>30.4188232</ele>
        <time>2016-10-02T07:56:47Z</time>
      </trkpt>
      <trkpt lat="44.63109" lon="-0.89699">
        <ele>31.380127</ele>
        <time>2016-10-02T07:56:55Z</time>
      </trkpt>
      <trkpt lat="44.63133" lon="-0.89663">
        <ele>31.380127</ele>
        <time>2016-10-02T07:57:00Z</time>
      </trkpt>
      <trkpt lat="44.63179" lon="-0.89593">
        <ele>30.8995361</ele>
        <time>2016-10-02T07:57:10Z</time>
      </trkpt>
      <trkpt lat="44.63223" lon="-0.89529">
        <ele>30.4188232</ele>
        <time>2016-10-02T07:57:19Z</time>
      </trkpt>
      <trkpt lat="44.63252" lon="-0.89486">
        <ele>30.8995361</ele>
        <time>2016-10-02T07:57:25Z</time>
      </trkpt>
      <trkpt lat="44.63274" lon="-0.89453">
        <ele>30.8995361</ele>
        <time>2016-10-02T07:57:30Z</time>
      </trkpt>
      <trkpt lat="44.63322" lon="-0.89381">
        <ele>30.8995361</ele>
        <time>2016-10-02T07:57:41Z</time>
      </trkpt>
      <trkpt lat="44.63378" lon="-0.89297">
        <ele>30.4188232</ele>
        <time>2016-10-02T07:57:54Z</time>
      </trkpt>
      <trkpt lat="44.63433" lon="-0.89213">
        <ele>31.380127</ele>
        <time>2016-10-02T07:58:07Z</time>
      </trkpt>
      <trkpt lat="44.63471" lon="-0.89158">
        <ele>30.8995361</ele>
        <time>2016-10-02T07:58:16Z</time>
      </trkpt>
      <trkpt lat="44.6352" lon="-0.89083">
        <ele>31.380127</ele>
        <time>2016-10-02T07:58:28Z</time>
      </trkpt>
      <trkpt lat="44.63562" lon="-0.89021">
        <ele>31.380127</ele>
        <time>2016-10-02T07:58:38Z</time>
      </trkpt>
      <trkpt lat="44.63569" lon="-0.89009">
        <ele>31.380127</ele>
        <time>2016-10-02T07:58:40Z</time>
      </trkpt>
      <trkpt lat="44.63594" lon="-0.88975">
        <ele>31.380127</ele>
        <time>2016-10-02T07:58:46Z</time>
      </trkpt>
      <trkpt lat="44.63633" lon="-0.88925">
        <ele>32.3415527</ele>
        <time>2016-10-02T07:58:55Z</time>
      </trkpt>
      <trkpt lat="44.63673" lon="-0.88875">
        <ele>32.8222656</ele>
        <time>2016-10-02T07:59:04Z</time>
      </trkpt>
      <trkpt lat="44.63709" lon="-0.88832">
        <ele>33.3028564</ele>
        <time>2016-10-02T07:59:12Z</time>
      </trkpt>
      <trkpt lat="44.63754" lon="-0.8879">
        <ele>31.8607178</ele>
        <time>2016-10-02T07:59:21Z</time>
      </trkpt>
      <trkpt lat="44.63786" lon="-0.88759">
        <ele>31.380127</ele>
        <time>2016-10-02T07:59:27Z</time>
      </trkpt>
      <trkpt lat="44.63826" lon="-0.88721">
        <ele>30.8995361</ele>
        <time>2016-10-02T07:59:35Z</time>
      </trkpt>
      <trkpt lat="44.6388" lon="-0.88671">
        <ele>30.8995361</ele>
        <time>2016-10-02T07:59:46Z</time>
      </trkpt>
      <trkpt lat="44.63921" lon="-0.88627">
        <ele>30.8995361</ele>
        <time>2016-10-02T07:59:55Z</time>
      </trkpt>
      <trkpt lat="44.63952" lon="-0.88592">
        <ele>30.8995361</ele>
        <time>2016-10-02T08:00:02Z</time>
      </trkpt>
      <trkpt lat="44.63992" lon="-0.88547">
        <ele>30.4188232</ele>
        <time>2016-10-02T08:00:11Z</time>
      </trkpt>
      <trkpt lat="44.64037" lon="-0.88497">
        <ele>29.9381104</ele>
        <time>2016-10-02T08:00:21Z</time>
      </trkpt>
      <trkpt lat="44.64058" lon="-0.88472">
        <ele>31.380127</ele>
        <time>2016-10-02T08:00:26Z</time>
      </trkpt>
      <trkpt lat="44.64072" lon="-0.88452">
        <ele>32.3415527</ele>
        <time>2016-10-02T08:00:30Z</time>
      </trkpt>
      <trkpt lat="44.64085" lon="-0.88449">
        <ele>31.8607178</ele>
        <time>2016-10-02T08:00:34Z</time>
      </trkpt>
      <trkpt lat="44.64088" lon="-0.88457">
        <ele>31.380127</ele>
        <time>2016-10-02T08:00:36Z</time>
      </trkpt>
      <trkpt lat="44.64098" lon="-0.88493">
        <ele>29.9381104</ele>
        <time>2016-10-02T08:00:43Z</time>
      </trkpt>
      <trkpt lat="44.64108" lon="-0.88533">
        <ele>29.4575195</ele>
        <time>2016-10-02T08:00:49Z</time>
      </trkpt>
      <trkpt lat="44.64114" lon="-0.88552">
        <ele>28.9769287</ele>
        <time>2016-10-02T08:00:52Z</time>
      </trkpt>
      <trkpt lat="44.64126" lon="-0.88597">
        <ele>28.9769287</ele>
        <time>2016-10-02T08:00:59Z</time>
      </trkpt>
      <trkpt lat="44.64141" lon="-0.8865">
        <ele>28.9769287</ele>
        <time>2016-10-02T08:01:07Z</time>
      </trkpt>
      <trkpt lat="44.64156" lon="-0.8871">
        <ele>30.4188232</ele>
        <time>2016-10-02T08:01:16Z</time>
      </trkpt>
      <trkpt lat="44.64164" lon="-0.88742">
        <ele>29.9381104</ele>
        <time>2016-10-02T08:01:21Z</time>
      </trkpt>
      <trkpt lat="44.64178" lon="-0.88794">
        <ele>28.9769287</ele>
        <time>2016-10-02T08:01:29Z</time>
      </trkpt>
      <trkpt lat="44.64195" lon="-0.88856">
        <ele>28.4962158</ele>
        <time>2016-10-02T08:01:38Z</time>
      </trkpt>
      <trkpt lat="44.6421" lon="-0.88913">
        <ele>29.9381104</ele>
        <time>2016-10-02T08:01:46Z</time>
      </trkpt>
      <trkpt lat="44.64231" lon="-0.88994">
        <ele>31.380127</ele>
        <time>2016-10-02T08:01:57Z</time>
      </trkpt>
      <trkpt lat="44.64256" lon="-0.89088">
        <ele>31.8607178</ele>
        <time>2016-10-02T08:02:10Z</time>
      </trkpt>
      <trkpt lat="44.64271" lon="-0.89144">
        <ele>31.8607178</ele>
        <time>2016-10-02T08:02:18Z</time>
      </trkpt>
      <trkpt lat="44.64285" lon="-0.89193">
        <ele>31.8607178</ele>
        <time>2016-10-02T08:02:25Z</time>
      </trkpt>
      <trkpt lat="44.64295" lon="-0.8923">
        <ele>30.8995361</ele>
        <time>2016-10-02T08:02:30Z</time>
      </trkpt>
      <trkpt lat="44.64305" lon="-0.89266">
        <ele>30.4188232</ele>
        <time>2016-10-02T08:02:35Z</time>
      </trkpt>
      <trkpt lat="44.64315" lon="-0.893">
        <ele>29.4575195</ele>
        <time>2016-10-02T08:02:40Z</time>
      </trkpt>
      <trkpt lat="44.64317" lon="-0.89307">
        <ele>29.4575195</ele>
        <time>2016-10-02T08:02:41Z</time>
      </trkpt>
      <trkpt lat="44.64335" lon="-0.8937">
        <ele>28.4962158</ele>
        <time>2016-10-02T08:02:50Z</time>
      </trkpt>
      <trkpt lat="44.64336" lon="-0.89376">
        <ele>28.4962158</ele>
        <time>2016-10-02T08:02:51Z</time>
      </trkpt>
      <trkpt lat="44.64338" lon="-0.89388">
        <ele>28.4962158</ele>
        <time>2016-10-02T08:02:54Z</time>
      </trkpt>
      <trkpt lat="44.64338" lon="-0.89391">
        <ele>28.4962158</ele>
        <time>2016-10-02T08:02:58Z</time>
      </trkpt>
      <trkpt lat="44.64343" lon="-0.89396">
        <ele>29.9381104</ele>
        <time>2016-10-02T08:03:22Z</time>
      </trkpt>
      <trkpt lat="44.64354" lon="-0.89415">
        <ele>28.4962158</ele>
        <time>2016-10-02T08:03:28Z</time>
      </trkpt>
      <trkpt lat="44.64368" lon="-0.89439">
        <ele>28.0155029</ele>
        <time>2016-10-02T08:03:33Z</time>
      </trkpt>
      <trkpt lat="44.64385" lon="-0.89466">
        <ele>26.0928955</ele>
        <time>2016-10-02T08:03:38Z</time>
      </trkpt>
      <trkpt lat="44.64394" lon="-0.89484">
        <ele>26.0928955</ele>
        <time>2016-10-02T08:03:41Z</time>
      </trkpt>
      <trkpt lat="44.64423" lon="-0.89535">
        <ele>26.5736084</ele>
        <time>2016-10-02T08:03:50Z</time>
      </trkpt>
      <trkpt lat="44.6444" lon="-0.89562">
        <ele>25.6123047</ele>
        <time>2016-10-02T08:03:55Z</time>
      </trkpt>
      <trkpt lat="44.64468" lon="-0.89616">
        <ele>27.0543213</ele>
        <time>2016-10-02T08:04:04Z</time>
      </trkpt>
      <trkpt lat="44.64494" lon="-0.89657">
        <ele>24.1702881</ele>
        <time>2016-10-02T08:04:11Z</time>
      </trkpt>
      <trkpt lat="44.64522" lon="-0.89707">
        <ele>23.2089844</ele>
        <time>2016-10-02T08:04:19Z</time>
      </trkpt>
      <trkpt lat="44.64543" lon="-0.89743">
        <ele>22.7282715</ele>
        <time>2016-10-02T08:04:25Z</time>
      </trkpt>
      <trkpt lat="44.64546" lon="-0.8975">
        <ele>22.2475586</ele>
        <time>2016-10-02T08:04:26Z</time>
      </trkpt>
      <trkpt lat="44.64553" lon="-0.89762">
        <ele>21.286377</ele>
        <time>2016-10-02T08:04:28Z</time>
      </trkpt>
      <trkpt lat="44.64576" lon="-0.89801">
        <ele>20.8056641</ele>
        <time>2016-10-02T08:04:35Z</time>
      </trkpt>
      <trkpt lat="44.64585" lon="-0.89821">
        <ele>22.2475586</ele>
        <time>2016-10-02T08:04:39Z</time>
      </trkpt>
      <trkpt lat="44.6459" lon="-0.89831">
        <ele>24.1702881</ele>
        <time>2016-10-02T08:04:45Z</time>
      </trkpt>
      <trkpt lat="44.64592" lon="-0.89837">
        <ele>27.5349121</ele>
        <time>2016-10-02T08:04:53Z</time>
      </trkpt>
      <trkpt lat="44.64597" lon="-0.89843">
        <ele>28.0155029</ele>
        <time>2016-10-02T08:04:58Z</time>
      </trkpt>
      <trkpt lat="44.64597" lon="-0.89843">
        <ele>28.0155029</ele>
        <time>2016-10-02T08:04:59Z</time>
      </trkpt>
      <trkpt lat="44.64605" lon="-0.89847">
        <ele>28.0155029</ele>
        <time>2016-10-02T08:05:07Z</time>
      </trkpt>
      <trkpt lat="44.64619" lon="-0.89848">
        <ele>28.0155029</ele>
        <time>2016-10-02T08:05:10Z</time>
      </trkpt>
      <trkpt lat="44.64654" lon="-0.89849">
        <ele>28.4962158</ele>
        <time>2016-10-02T08:05:16Z</time>
      </trkpt>
      <trkpt lat="44.64683" lon="-0.89851">
        <ele>28.4962158</ele>
        <time>2016-10-02T08:05:21Z</time>
      </trkpt>
      <trkpt lat="44.64731" lon="-0.89853">
        <ele>28.4962158</ele>
        <time>2016-10-02T08:05:29Z</time>
      </trkpt>
      <trkpt lat="44.64777" lon="-0.89856">
        <ele>27.5349121</ele>
        <time>2016-10-02T08:05:37Z</time>
      </trkpt>
      <trkpt lat="44.64815" lon="-0.89864">
        <ele>26.0928955</ele>
        <time>2016-10-02T08:05:44Z</time>
      </trkpt>
      <trkpt lat="44.64828" lon="-0.89868">
        <ele>25.1317139</ele>
        <time>2016-10-02T08:05:48Z</time>
      </trkpt>
      <trkpt lat="44.6484" lon="-0.89871">
        <ele>23.6895752</ele>
        <time>2016-10-02T08:05:55Z</time>
      </trkpt>
      <trkpt lat="44.64858" lon="-0.89878">
        <ele>22.7282715</ele>
        <time>2016-10-02T08:06:00Z</time>
      </trkpt>
      <trkpt lat="44.64899" lon="-0.89893">
        <ele>20.8056641</ele>
        <time>2016-10-02T08:06:08Z</time>
      </trkpt>
      <trkpt lat="44.64926" lon="-0.89903">
        <ele>20.3249512</ele>
        <time>2016-10-02T08:06:12Z</time>
      </trkpt>
      <trkpt lat="44.64964" lon="-0.89922">
        <ele>17.4411621</ele>
        <time>2016-10-02T08:06:17Z</time>
      </trkpt>
      <trkpt lat="44.6497" lon="-0.89925">
        <ele>16.9604492</ele>
        <time>2016-10-02T08:06:18Z</time>
      </trkpt>
      <trkpt lat="44.64984" lon="-0.89928">
        <ele>16.4797363</ele>
        <time>2016-10-02T08:06:20Z</time>
      </trkpt>
      <trkpt lat="44.65019" lon="-0.89921">
        <ele>14.5570068</ele>
        <time>2016-10-02T08:06:25Z</time>
      </trkpt>
      <trkpt lat="44.65053" lon="-0.89896">
        <ele>12.6343994</ele>
        <time>2016-10-02T08:06:31Z</time>
      </trkpt>
      <trkpt lat="44.65081" lon="-0.89874">
        <ele>14.076416</ele>
        <time>2016-10-02T08:06:36Z</time>
      </trkpt>
      <trkpt lat="44.65108" lon="-0.89854">
        <ele>15.9990234</ele>
        <time>2016-10-02T08:06:41Z</time>
      </trkpt>
      <trkpt lat="44.6514" lon="-0.89831">
        <ele>19.3637695</ele>
        <time>2016-10-02T08:06:47Z</time>
      </trkpt>
      <trkpt lat="44.65144" lon="-0.89828">
        <ele>19.3637695</ele>
        <time>2016-10-02T08:06:48Z</time>
      </trkpt>
      <trkpt lat="44.6517" lon="-0.8982">
        <ele>21.7669678</ele>
        <time>2016-10-02T08:06:53Z</time>
      </trkpt>
      <trkpt lat="44.65175" lon="-0.89821">
        <ele>21.7669678</ele>
        <time>2016-10-02T08:06:54Z</time>
      </trkpt>
      <trkpt lat="44.65189" lon="-0.89823">
        <ele>22.7282715</ele>
        <time>2016-10-02T08:06:57Z</time>
      </trkpt>
      <trkpt lat="44.65203" lon="-0.8983">
        <ele>23.2089844</ele>
        <time>2016-10-02T08:07:00Z</time>
      </trkpt>
      <trkpt lat="44.65211" lon="-0.89835">
        <ele>24.1702881</ele>
        <time>2016-10-02T08:07:02Z</time>
      </trkpt>
      <trkpt lat="44.65222" lon="-0.89846">
        <ele>24.1702881</ele>
        <time>2016-10-02T08:07:05Z</time>
      </trkpt>
      <trkpt lat="44.65236" lon="-0.89853">
        <ele>25.6123047</ele>
        <time>2016-10-02T08:07:09Z</time>
      </trkpt>
      <trkpt lat="44.65273" lon="-0.89858">
        <ele>27.5349121</ele>
        <time>2016-10-02T08:07:19Z</time>
      </trkpt>
      <trkpt lat="44.65289" lon="-0.89861">
        <ele>28.0155029</ele>
        <time>2016-10-02T08:07:24Z</time>
      </trkpt>
      <trkpt lat="44.65297" lon="-0.89852">
        <ele>27.5349121</ele>
        <time>2016-10-02T08:07:28Z</time>
      </trkpt>
      <trkpt lat="44.65303" lon="-0.8983">
        <ele>28.0155029</ele>
        <time>2016-10-02T08:07:33Z</time>
      </trkpt>
      <trkpt lat="44.65305" lon="-0.89793">
        <ele>29.4575195</ele>
        <time>2016-10-02T08:07:40Z</time>
      </trkpt>
      <trkpt lat="44.65304" lon="-0.89769">
        <ele>29.9381104</ele>
        <time>2016-10-02T08:07:45Z</time>
      </trkpt>
      <trkpt lat="44.65301" lon="-0.89743">
        <ele>30.8995361</ele>
        <time>2016-10-02T08:07:50Z</time>
      </trkpt>
      <trkpt lat="44.65297" lon="-0.89721">
        <ele>31.380127</ele>
        <time>2016-10-02T08:07:55Z</time>
      </trkpt>
      <trkpt lat="44.65288" lon="-0.89701">
        <ele>30.4188232</ele>
        <time>2016-10-02T08:07:59Z</time>
      </trkpt>
      <trkpt lat="44.65285" lon="-0.89697">
        <ele>29.9381104</ele>
        <time>2016-10-02T08:08:01Z</time>
      </trkpt>
      <trkpt lat="44.6528" lon="-0.89684">
        <ele>30.8995361</ele>
        <time>2016-10-02T08:08:07Z</time>
      </trkpt>
      <trkpt lat="44.65273" lon="-0.89688">
        <ele>27.5349121</ele>
        <time>2016-10-02T08:08:10Z</time>
      </trkpt>
      <trkpt lat="44.65261" lon="-0.89689">
        <ele>25.6123047</ele>
        <time>2016-10-02T08:08:14Z</time>
      </trkpt>
      <trkpt lat="44.65252" lon="-0.89671">
        <ele>24.651001</ele>
        <time>2016-10-02T08:08:19Z</time>
      </trkpt>
      <trkpt lat="44.6525" lon="-0.89665">
        <ele>24.1702881</ele>
        <time>2016-10-02T08:08:21Z</time>
      </trkpt>
      <trkpt lat="44.65242" lon="-0.89646">
        <ele>23.6895752</ele>
        <time>2016-10-02T08:08:27Z</time>
      </trkpt>
      <trkpt lat="44.65237" lon="-0.89631">
        <ele>21.7669678</ele>
        <time>2016-10-02T08:08:31Z</time>
      </trkpt>
      <trkpt lat="44.65238" lon="-0.89603">
        <ele>22.2475586</ele>
        <time>2016-10-02T08:08:38Z</time>
      </trkpt>
      <trkpt lat="44.65239" lon="-0.89598">
        <ele>21.286377</ele>
        <time>2016-10-02T08:08:40Z</time>
      </trkpt>
      <trkpt lat="44.65242" lon="-0.8959">
        <ele>22.2475586</ele>
        <time>2016-10-02T08:08:45Z</time>
      </trkpt>
      <trkpt lat="44.65243" lon="-0.89589">
        <ele>19.8443604</ele>
        <time>2016-10-02T08:08:48Z</time>
      </trkpt>
      <trkpt lat="44.65248" lon="-0.8959">
        <ele>14.076416</ele>
        <time>2016-10-02T08:08:56Z</time>
      </trkpt>
      <trkpt lat="44.65249" lon="-0.89583">
        <ele>15.0377197</ele>
        <time>2016-10-02T08:09:00Z</time>
      </trkpt>
      <trkpt lat="44.65242" lon="-0.89566">
        <ele>17.4411621</ele>
        <time>2016-10-02T08:09:06Z</time>
      </trkpt>
      <trkpt lat="44.65237" lon="-0.89555">
        <ele>25.6123047</ele>
        <time>2016-10-02T08:09:11Z</time>
      </trkpt>
      <trkpt lat="44.65238" lon="-0.89553">
        <ele>26.0928955</ele>
        <time>2016-10-02T08:09:12Z</time>
      </trkpt>
      <trkpt lat="44.65244" lon="-0.89536">
        <ele>23.2089844</ele>
        <time>2016-10-02T08:09:20Z</time>
      </trkpt>
      <trkpt lat="44.65248" lon="-0.89529">
        <ele>26.5736084</ele>
        <time>2016-10-02T08:09:24Z</time>
      </trkpt>
      <trkpt lat="44.65254" lon="-0.8952">
        <ele>26.5736084</ele>
        <time>2016-10-02T08:09:30Z</time>
      </trkpt>
      <trkpt lat="44.65259" lon="-0.89515">
        <ele>26.0928955</ele>
        <time>2016-10-02T08:09:34Z</time>
      </trkpt>
      <trkpt lat="44.65265" lon="-0.89505">
        <ele>25.6123047</ele>
        <time>2016-10-02T08:09:40Z</time>
      </trkpt>
      <trkpt lat="44.65268" lon="-0.89494">
        <ele>22.2475586</ele>
        <time>2016-10-02T08:09:46Z</time>
      </trkpt>
      <trkpt lat="44.6527" lon="-0.89487">
        <ele>21.286377</ele>
        <time>2016-10-02T08:09:50Z</time>
      </trkpt>
      <trkpt lat="44.65273" lon="-0.89481">
        <ele>20.8056641</ele>
        <time>2016-10-02T08:09:54Z</time>
      </trkpt>
      <trkpt lat="44.65276" lon="-0.89471">
        <ele>18.8830566</ele>
        <time>2016-10-02T08:09:59Z</time>
      </trkpt>
      <trkpt lat="44.65276" lon="-0.89469">
        <ele>19.3637695</ele>
        <time>2016-10-02T08:10:00Z</time>
      </trkpt>
      <trkpt lat="44.65283" lon="-0.89464">
        <ele>19.3637695</ele>
        <time>2016-10-02T08:10:05Z</time>
      </trkpt>
      <trkpt lat="44.65289" lon="-0.8945">
        <ele>18.8830566</ele>
        <time>2016-10-02T08:10:10Z</time>
      </trkpt>
      <trkpt lat="44.6529" lon="-0.89447">
        <ele>18.8830566</ele>
        <time>2016-10-02T08:10:11Z</time>
      </trkpt>
      <trkpt lat="44.65297" lon="-0.89434">
        <ele>20.8056641</ele>
        <time>2016-10-02T08:10:15Z</time>
      </trkpt>
      <trkpt lat="44.653" lon="-0.89425">
        <ele>23.2089844</ele>
        <time>2016-10-02T08:10:19Z</time>
      </trkpt>
      <trkpt lat="44.65301" lon="-0.89413">
        <ele>29.4575195</ele>
        <time>2016-10-02T08:10:25Z</time>
      </trkpt>
      <trkpt lat="44.65309" lon="-0.894">
        <ele>30.8995361</ele>
        <time>2016-10-02T08:10:30Z</time>
      </trkpt>
      <trkpt lat="44.65314" lon="-0.89391">
        <ele>28.0155029</ele>
        <time>2016-10-02T08:10:34Z</time>
      </trkpt>
      <trkpt lat="44.6532" lon="-0.89383">
        <ele>27.5349121</ele>
        <time>2016-10-02T08:10:38Z</time>
      </trkpt>
      <trkpt lat="44.65323" lon="-0.89375">
        <ele>28.4962158</ele>
        <time>2016-10-02T08:10:41Z</time>
      </trkpt>
      <trkpt lat="44.65323" lon="-0.89373">
        <ele>27.5349121</ele>
        <time>2016-10-02T08:10:43Z</time>
      </trkpt>
      <trkpt lat="44.65327" lon="-0.89369">
        <ele>26.5736084</ele>
        <time>2016-10-02T08:10:49Z</time>
      </trkpt>
      <trkpt lat="44.65334" lon="-0.89369">
        <ele>28.9769287</ele>
        <time>2016-10-02T08:10:59Z</time>
      </trkpt>
      <trkpt lat="44.6533" lon="-0.89374">
        <ele>27.0543213</ele>
        <time>2016-10-02T08:11:08Z</time>
      </trkpt>
      <trkpt lat="44.65328" lon="-0.89362">
        <ele>32.3415527</ele>
        <time>2016-10-02T08:11:17Z</time>
      </trkpt>
      <trkpt lat="44.65323" lon="-0.8935">
        <ele>35.2254639</ele>
        <time>2016-10-02T08:11:22Z</time>
      </trkpt>
      <trkpt lat="44.65328" lon="-0.89343">
        <ele>30.8995361</ele>
        <time>2016-10-02T08:11:27Z</time>
      </trkpt>
      <trkpt lat="44.65335" lon="-0.89335">
        <ele>29.4575195</ele>
        <time>2016-10-02T08:11:33Z</time>
      </trkpt>
      <trkpt lat="44.65335" lon="-0.89333">
        <ele>29.4575195</ele>
        <time>2016-10-02T08:11:34Z</time>
      </trkpt>
      <trkpt lat="44.65345" lon="-0.8932">
        <ele>27.5349121</ele>
        <time>2016-10-02T08:11:42Z</time>
      </trkpt>
      <trkpt lat="44.65346" lon="-0.89315">
        <ele>29.9381104</ele>
        <time>2016-10-02T08:11:46Z</time>
      </trkpt>
      <trkpt lat="44.65342" lon="-0.89309">
        <ele>29.9381104</ele>
        <time>2016-10-02T08:11:50Z</time>
      </trkpt>
      <trkpt lat="44.65341" lon="-0.89303">
        <ele>28.4962158</ele>
        <time>2016-10-02T08:11:53Z</time>
      </trkpt>
      <trkpt lat="44.65335" lon="-0.893">
        <ele>25.6123047</ele>
        <time>2016-10-02T08:11:58Z</time>
      </trkpt>
      <trkpt lat="44.6533" lon="-0.89311">
        <ele>22.2475586</ele>
        <time>2016-10-02T08:12:03Z</time>
      </trkpt>
      <trkpt lat="44.65326" lon="-0.89316">
        <ele>19.8443604</ele>
        <time>2016-10-02T08:12:07Z</time>
      </trkpt>
      <trkpt lat="44.65324" lon="-0.89331">
        <ele>17.9217529</ele>
        <time>2016-10-02T08:12:12Z</time>
      </trkpt>
      <trkpt lat="44.65321" lon="-0.89335">
        <ele>19.3637695</ele>
        <time>2016-10-02T08:12:13Z</time>
      </trkpt>
      <trkpt lat="44.65319" lon="-0.89348">
        <ele>17.9217529</ele>
        <time>2016-10-02T08:12:18Z</time>
      </trkpt>
      <trkpt lat="44.65314" lon="-0.8936">
        <ele>15.0377197</ele>
        <time>2016-10-02T08:12:24Z</time>
      </trkpt>
      <trkpt lat="44.6531" lon="-0.89367">
        <ele>14.076416</ele>
        <time>2016-10-02T08:12:27Z</time>
      </trkpt>
      <trkpt lat="44.653" lon="-0.89373">
        <ele>16.4797363</ele>
        <time>2016-10-02T08:12:34Z</time>
      </trkpt>
      <trkpt lat="44.65287" lon="-0.89375">
        <ele>29.9381104</ele>
        <time>2016-10-02T08:12:52Z</time>
      </trkpt>
      <trkpt lat="44.65279" lon="-0.89365">
        <ele>27.5349121</ele>
        <time>2016-10-02T08:13:09Z</time>
      </trkpt>
      <trkpt lat="44.65277" lon="-0.89344">
        <ele>27.5349121</ele>
        <time>2016-10-02T08:13:15Z</time>
      </trkpt>
      <trkpt lat="44.65277" lon="-0.89341">
        <ele>27.0543213</ele>
        <time>2016-10-02T08:13:16Z</time>
      </trkpt>
      <trkpt lat="44.65277" lon="-0.89327">
        <ele>30.4188232</ele>
        <time>2016-10-02T08:13:20Z</time>
      </trkpt>
      <trkpt lat="44.65281" lon="-0.89313">
        <ele>30.8995361</ele>
        <time>2016-10-02T08:13:26Z</time>
      </trkpt>
      <trkpt lat="44.65278" lon="-0.8931">
        <ele>30.8995361</ele>
        <time>2016-10-02T08:13:28Z</time>
      </trkpt>
      <trkpt lat="44.65277" lon="-0.89297">
        <ele>25.6123047</ele>
        <time>2016-10-02T08:13:34Z</time>
      </trkpt>
      <trkpt lat="44.65279" lon="-0.89292">
        <ele>24.651001</ele>
        <time>2016-10-02T08:13:36Z</time>
      </trkpt>
      <trkpt lat="44.6529" lon="-0.89281">
        <ele>23.2089844</ele>
        <time>2016-10-02T08:13:42Z</time>
      </trkpt>
      <trkpt lat="44.65292" lon="-0.89279">
        <ele>23.6895752</ele>
        <time>2016-10-02T08:13:43Z</time>
      </trkpt>
      <trkpt lat="44.65299" lon="-0.89273">
        <ele>23.6895752</ele>
        <time>2016-10-02T08:13:47Z</time>
      </trkpt>
      <trkpt lat="44.65311" lon="-0.89268">
        <ele>20.8056641</ele>
        <time>2016-10-02T08:13:52Z</time>
      </trkpt>
      <trkpt lat="44.65321" lon="-0.89259">
        <ele>21.286377</ele>
        <time>2016-10-02T08:13:58Z</time>
      </trkpt>
      <trkpt lat="44.65329" lon="-0.89243">
        <ele>32.3415527</ele>
        <time>2016-10-02T08:14:06Z</time>
      </trkpt>
      <trkpt lat="44.65327" lon="-0.89241">
        <ele>30.4188232</ele>
        <time>2016-10-02T08:14:13Z</time>
      </trkpt>
      <trkpt lat="44.65333" lon="-0.89229">
        <ele>32.3415527</ele>
        <time>2016-10-02T08:14:38Z</time>
      </trkpt>
      <trkpt lat="44.65336" lon="-0.89222">
        <ele>33.7834473</ele>
        <time>2016-10-02T08:14:44Z</time>
      </trkpt>
      <trkpt lat="44.65338" lon="-0.89217">
        <ele>33.3028564</ele>
        <time>2016-10-02T08:14:49Z</time>
      </trkpt>
      <trkpt lat="44.65341" lon="-0.89214">
        <ele>28.9769287</ele>
        <time>2016-10-02T08:14:55Z</time>
      </trkpt>
      <trkpt lat="44.65342" lon="-0.89215">
        <ele>28.4962158</ele>
        <time>2016-10-02T08:14:56Z</time>
      </trkpt>
      <trkpt lat="44.65347" lon="-0.89196">
        <ele>25.6123047</ele>
        <time>2016-10-02T08:15:10Z</time>
      </trkpt>
      <trkpt lat="44.65349" lon="-0.89192">
        <ele>25.1317139</ele>
        <time>2016-10-02T08:15:12Z</time>
      </trkpt>
      <trkpt lat="44.65356" lon="-0.89176">
        <ele>23.6895752</ele>
        <time>2016-10-02T08:15:19Z</time>
      </trkpt>
      <trkpt lat="44.65368" lon="-0.89162">
        <ele>24.651001</ele>
        <time>2016-10-02T08:15:26Z</time>
      </trkpt>
      <trkpt lat="44.65376" lon="-0.89146">
        <ele>28.4962158</ele>
        <time>2016-10-02T08:15:30Z</time>
      </trkpt>
      <trkpt lat="44.6538" lon="-0.89138">
        <ele>28.9769287</ele>
        <time>2016-10-02T08:15:32Z</time>
      </trkpt>
      <trkpt lat="44.65392" lon="-0.89129">
        <ele>28.4962158</ele>
        <time>2016-10-02T08:15:37Z</time>
      </trkpt>
      <trkpt lat="44.65397" lon="-0.89121">
        <ele>28.4962158</ele>
        <time>2016-10-02T08:15:40Z</time>
      </trkpt>
      <trkpt lat="44.65401" lon="-0.89117">
        <ele>28.0155029</ele>
        <time>2016-10-02T08:15:42Z</time>
      </trkpt>
      <trkpt lat="44.65411" lon="-0.89092">
        <ele>27.0543213</ele>
        <time>2016-10-02T08:15:50Z</time>
      </trkpt>
      <trkpt lat="44.65422" lon="-0.89083">
        <ele>27.5349121</ele>
        <time>2016-10-02T08:15:55Z</time>
      </trkpt>
      <trkpt lat="44.6544" lon="-0.89082">
        <ele>26.5736084</ele>
        <time>2016-10-02T08:16:01Z</time>
      </trkpt>
      <trkpt lat="44.65451" lon="-0.89072">
        <ele>24.651001</ele>
        <time>2016-10-02T08:16:05Z</time>
      </trkpt>
      <trkpt lat="44.65455" lon="-0.89066">
        <ele>23.6895752</ele>
        <time>2016-10-02T08:16:07Z</time>
      </trkpt>
      <trkpt lat="44.65454" lon="-0.89044">
        <ele>25.1317139</ele>
        <time>2016-10-02T08:16:13Z</time>
      </trkpt>
      <trkpt lat="44.65464" lon="-0.89029">
        <ele>24.651001</ele>
        <time>2016-10-02T08:16:18Z</time>
      </trkpt>
      <trkpt lat="44.65467" lon="-0.89018">
        <ele>25.1317139</ele>
        <time>2016-10-02T08:16:21Z</time>
      </trkpt>
      <trkpt lat="44.6546" lon="-0.88999">
        <ele>28.4962158</ele>
        <time>2016-10-02T08:16:27Z</time>
      </trkpt>
      <trkpt lat="44.65461" lon="-0.88983">
        <ele>29.4575195</ele>
        <time>2016-10-02T08:16:31Z</time>
      </trkpt>
      <trkpt lat="44.65468" lon="-0.88964">
        <ele>29.9381104</ele>
        <time>2016-10-02T08:16:36Z</time>
      </trkpt>
      <trkpt lat="44.65481" lon="-0.88943">
        <ele>31.380127</ele>
        <time>2016-10-02T08:16:41Z</time>
      </trkpt>
      <trkpt lat="44.65492" lon="-0.88927">
        <ele>31.8607178</ele>
        <time>2016-10-02T08:16:45Z</time>
      </trkpt>
      <trkpt lat="44.65494" lon="-0.88913">
        <ele>31.8607178</ele>
        <time>2016-10-02T08:16:48Z</time>
      </trkpt>
      <trkpt lat="44.65505" lon="-0.88899">
        <ele>30.4188232</ele>
        <time>2016-10-02T08:16:53Z</time>
      </trkpt>
      <trkpt lat="44.65509" lon="-0.88894">
        <ele>28.9769287</ele>
        <time>2016-10-02T08:16:55Z</time>
      </trkpt>
      <trkpt lat="44.65514" lon="-0.88869">
        <ele>26.5736084</ele>
        <time>2016-10-02T08:17:01Z</time>
      </trkpt>
      <trkpt lat="44.65525" lon="-0.88847">
        <ele>23.6895752</ele>
        <time>2016-10-02T08:17:06Z</time>
      </trkpt>
      <trkpt lat="44.65541" lon="-0.88835">
        <ele>20.3249512</ele>
        <time>2016-10-02T08:17:10Z</time>
      </trkpt>
      <trkpt lat="44.65546" lon="-0.88833">
        <ele>19.8443604</ele>
        <time>2016-10-02T08:17:11Z</time>
      </trkpt>
      <trkpt lat="44.65558" lon="-0.88822">
        <ele>23.2089844</ele>
        <time>2016-10-02T08:17:16Z</time>
      </trkpt>
      <trkpt lat="44.65564" lon="-0.88817">
        <ele>25.6123047</ele>
        <time>2016-10-02T08:17:19Z</time>
      </trkpt>
      <trkpt lat="44.65572" lon="-0.88811">
        <ele>26.5736084</ele>
        <time>2016-10-02T08:17:23Z</time>
      </trkpt>
      <trkpt lat="44.65586" lon="-0.88807">
        <ele>27.0543213</ele>
        <time>2016-10-02T08:17:29Z</time>
      </trkpt>
      <trkpt lat="44.65593" lon="-0.88803">
        <ele>27.5349121</ele>
        <time>2016-10-02T08:17:32Z</time>
      </trkpt>
      <trkpt lat="44.65613" lon="-0.8879">
        <ele>28.4962158</ele>
        <time>2016-10-02T08:17:40Z</time>
      </trkpt>
      <trkpt lat="44.65614" lon="-0.88787">
        <ele>28.4962158</ele>
        <time>2016-10-02T08:17:41Z</time>
      </trkpt>
      <trkpt lat="44.65628" lon="-0.88761">
        <ele>29.9381104</ele>
        <time>2016-10-02T08:17:48Z</time>
      </trkpt>
      <trkpt lat="44.65638" lon="-0.88745">
        <ele>29.9381104</ele>
        <time>2016-10-02T08:17:53Z</time>
      </trkpt>
      <trkpt lat="44.65644" lon="-0.8873">
        <ele>29.4575195</ele>
        <time>2016-10-02T08:17:57Z</time>
      </trkpt>
      <trkpt lat="44.65647" lon="-0.88716">
        <ele>29.4575195</ele>
        <time>2016-10-02T08:18:01Z</time>
      </trkpt>
      <trkpt lat="44.65646" lon="-0.88713">
        <ele>28.9769287</ele>
        <time>2016-10-02T08:18:02Z</time>
      </trkpt>
      <trkpt lat="44.65655" lon="-0.88703">
        <ele>28.4962158</ele>
        <time>2016-10-02T08:18:07Z</time>
      </trkpt>
      <trkpt lat="44.65665" lon="-0.88681">
        <ele>28.4962158</ele>
        <time>2016-10-02T08:18:13Z</time>
      </trkpt>
      <trkpt lat="44.65672" lon="-0.88664">
        <ele>26.5736084</ele>
        <time>2016-10-02T08:18:18Z</time>
      </trkpt>
      <trkpt lat="44.65675" lon="-0.88657">
        <ele>26.0928955</ele>
        <time>2016-10-02T08:18:20Z</time>
      </trkpt>
      <trkpt lat="44.65672" lon="-0.88638">
        <ele>26.5736084</ele>
        <time>2016-10-02T08:18:25Z</time>
      </trkpt>
      <trkpt lat="44.65671" lon="-0.8862">
        <ele>26.5736084</ele>
        <time>2016-10-02T08:18:30Z</time>
      </trkpt>
      <trkpt lat="44.6567" lon="-0.88602">
        <ele>27.0543213</ele>
        <time>2016-10-02T08:18:34Z</time>
      </trkpt>
      <trkpt lat="44.65672" lon="-0.88586">
        <ele>27.0543213</ele>
        <time>2016-10-02T08:18:39Z</time>
      </trkpt>
      <trkpt lat="44.65672" lon="-0.88578">
        <ele>28.0155029</ele>
        <time>2016-10-02T08:18:45Z</time>
      </trkpt>
      <trkpt lat="44.65672" lon="-0.88577">
        <ele>28.9769287</ele>
        <time>2016-10-02T08:18:47Z</time>
      </trkpt>
      <trkpt lat="44.65679" lon="-0.88568">
        <ele>32.8222656</ele>
        <time>2016-10-02T08:19:30Z</time>
      </trkpt>
      <trkpt lat="44.65684" lon="-0.88565">
        <ele>32.3415527</ele>
        <time>2016-10-02T08:19:34Z</time>
      </trkpt>
      <trkpt lat="44.65687" lon="-0.88566">
        <ele>32.3415527</ele>
        <time>2016-10-02T08:19:36Z</time>
      </trkpt>
      <trkpt lat="44.65688" lon="-0.88567">
        <ele>32.3415527</ele>
        <time>2016-10-02T08:19:37Z</time>
      </trkpt>
      <trkpt lat="44.65688" lon="-0.88572">
        <ele>31.8607178</ele>
        <time>2016-10-02T08:19:39Z</time>
      </trkpt>
      <trkpt lat="44.65689" lon="-0.88591">
        <ele>31.380127</ele>
        <time>2016-10-02T08:19:46Z</time>
      </trkpt>
      <trkpt lat="44.65688" lon="-0.88596">
        <ele>32.3415527</ele>
        <time>2016-10-02T08:19:51Z</time>
      </trkpt>
      <trkpt lat="44.65688" lon="-0.88609">
        <ele>35.2254639</ele>
        <time>2016-10-02T08:20:16Z</time>
      </trkpt>
      <trkpt lat="44.65694" lon="-0.88615">
        <ele>34.2641602</ele>
        <time>2016-10-02T08:20:20Z</time>
      </trkpt>
      <trkpt lat="44.65699" lon="-0.88624">
        <ele>32.8222656</ele>
        <time>2016-10-02T08:20:24Z</time>
      </trkpt>
      <trkpt lat="44.65708" lon="-0.88628">
        <ele>31.8607178</ele>
        <time>2016-10-02T08:20:28Z</time>
      </trkpt>
      <trkpt lat="44.65713" lon="-0.88623">
        <ele>31.8607178</ele>
        <time>2016-10-02T08:20:30Z</time>
      </trkpt>
      <trkpt lat="44.65725" lon="-0.88612">
        <ele>31.8607178</ele>
        <time>2016-10-02T08:20:35Z</time>
      </trkpt>
      <trkpt lat="44.6574" lon="-0.88607">
        <ele>31.380127</ele>
        <time>2016-10-02T08:20:40Z</time>
      </trkpt>
      <trkpt lat="44.65743" lon="-0.88606">
        <ele>30.8995361</ele>
        <time>2016-10-02T08:20:41Z</time>
      </trkpt>
      <trkpt lat="44.6575" lon="-0.88604">
        <ele>30.4188232</ele>
        <time>2016-10-02T08:20:43Z</time>
      </trkpt>
      <trkpt lat="44.65765" lon="-0.88609">
        <ele>29.9381104</ele>
        <time>2016-10-02T08:20:48Z</time>
      </trkpt>
      <trkpt lat="44.65767" lon="-0.88606">
        <ele>30.4188232</ele>
        <time>2016-10-02T08:20:50Z</time>
      </trkpt>
      <trkpt lat="44.65774" lon="-0.88587">
        <ele>29.4575195</ele>
        <time>2016-10-02T08:20:56Z</time>
      </trkpt>
      <trkpt lat="44.6578" lon="-0.88588">
        <ele>30.4188232</ele>
        <time>2016-10-02T08:21:00Z</time>
      </trkpt>
      <trkpt lat="44.6579" lon="-0.886">
        <ele>30.4188232</ele>
        <time>2016-10-02T08:21:05Z</time>
      </trkpt>
      <trkpt lat="44.65796" lon="-0.88604">
        <ele>29.9381104</ele>
        <time>2016-10-02T08:21:08Z</time>
      </trkpt>
      <trkpt lat="44.65811" lon="-0.88597">
        <ele>29.9381104</ele>
        <time>2016-10-02T08:21:14Z</time>
      </trkpt>
      <trkpt lat="44.65821" lon="-0.88602">
        <ele>30.4188232</ele>
        <time>2016-10-02T08:21:18Z</time>
      </trkpt>
      <trkpt lat="44.65824" lon="-0.88605">
        <ele>30.4188232</ele>
        <time>2016-10-02T08:21:20Z</time>
      </trkpt>
      <trkpt lat="44.65831" lon="-0.88614">
        <ele>28.9769287</ele>
        <time>2016-10-02T08:21:23Z</time>
      </trkpt>
      <trkpt lat="44.65837" lon="-0.8861">
        <ele>29.4575195</ele>
        <time>2016-10-02T08:21:27Z</time>
      </trkpt>
      <trkpt lat="44.65843" lon="-0.88608">
        <ele>28.9769287</ele>
        <time>2016-10-02T08:21:30Z</time>
      </trkpt>
      <trkpt lat="44.65854" lon="-0.88609">
        <ele>28.9769287</ele>
        <time>2016-10-02T08:21:34Z</time>
      </trkpt>
      <trkpt lat="44.65863" lon="-0.88607">
        <ele>28.9769287</ele>
        <time>2016-10-02T08:21:38Z</time>
      </trkpt>
      <trkpt lat="44.65875" lon="-0.88603">
        <ele>29.4575195</ele>
        <time>2016-10-02T08:21:42Z</time>
      </trkpt>
      <trkpt lat="44.65883" lon="-0.88597">
        <ele>29.9381104</ele>
        <time>2016-10-02T08:21:45Z</time>
      </trkpt>
      <trkpt lat="44.65888" lon="-0.88593">
        <ele>30.4188232</ele>
        <time>2016-10-02T08:21:47Z</time>
      </trkpt>
      <trkpt lat="44.65901" lon="-0.88575">
        <ele>32.3415527</ele>
        <time>2016-10-02T08:21:53Z</time>
      </trkpt>
      <trkpt lat="44.65909" lon="-0.88559">
        <ele>32.8222656</ele>
        <time>2016-10-02T08:21:57Z</time>
      </trkpt>
      <trkpt lat="44.65918" lon="-0.88553">
        <ele>32.3415527</ele>
        <time>2016-10-02T08:22:00Z</time>
      </trkpt>
      <trkpt lat="44.65938" lon="-0.88539">
        <ele>32.3415527</ele>
        <time>2016-10-02T08:22:06Z</time>
      </trkpt>
      <trkpt lat="44.6594" lon="-0.88537">
        <ele>32.3415527</ele>
        <time>2016-10-02T08:22:07Z</time>
      </trkpt>
      <trkpt lat="44.65958" lon="-0.88543">
        <ele>31.8607178</ele>
        <time>2016-10-02T08:22:13Z</time>
      </trkpt>
      <trkpt lat="44.65967" lon="-0.88551">
        <ele>30.8995361</ele>
        <time>2016-10-02T08:22:16Z</time>
      </trkpt>
      <trkpt lat="44.65973" lon="-0.88542">
        <ele>30.8995361</ele>
        <time>2016-10-02T08:22:20Z</time>
      </trkpt>
      <trkpt lat="44.65973" lon="-0.88538">
        <ele>30.8995361</ele>
        <time>2016-10-02T08:22:21Z</time>
      </trkpt>
      <trkpt lat="44.65974" lon="-0.88503">
        <ele>29.9381104</ele>
        <time>2016-10-02T08:22:28Z</time>
      </trkpt>
      <trkpt lat="44.65977" lon="-0.88457">
        <ele>29.4575195</ele>
        <time>2016-10-02T08:22:37Z</time>
      </trkpt>
      <trkpt lat="44.6598" lon="-0.88428">
        <ele>29.9381104</ele>
        <time>2016-10-02T08:22:43Z</time>
      </trkpt>
      <trkpt lat="44.65986" lon="-0.88425">
        <ele>28.9769287</ele>
        <time>2016-10-02T08:22:47Z</time>
      </trkpt>
      <trkpt lat="44.65999" lon="-0.88432">
        <ele>27.5349121</ele>
        <time>2016-10-02T08:22:51Z</time>
      </trkpt>
      <trkpt lat="44.66007" lon="-0.88422">
        <ele>27.0543213</ele>
        <time>2016-10-02T08:22:54Z</time>
      </trkpt>
      <trkpt lat="44.66018" lon="-0.8841">
        <ele>26.0928955</ele>
        <time>2016-10-02T08:22:58Z</time>
      </trkpt>
      <trkpt lat="44.66035" lon="-0.88406">
        <ele>28.4962158</ele>
        <time>2016-10-02T08:23:03Z</time>
      </trkpt>
      <trkpt lat="44.66048" lon="-0.88408">
        <ele>29.4575195</ele>
        <time>2016-10-02T08:23:07Z</time>
      </trkpt>
      <trkpt lat="44.66065" lon="-0.88401">
        <ele>29.9381104</ele>
        <time>2016-10-02T08:23:12Z</time>
      </trkpt>
      <trkpt lat="44.66081" lon="-0.88403">
        <ele>30.4188232</ele>
        <time>2016-10-02T08:23:17Z</time>
      </trkpt>
      <trkpt lat="44.66091" lon="-0.88404">
        <ele>30.4188232</ele>
        <time>2016-10-02T08:23:20Z</time>
      </trkpt>
      <trkpt lat="44.66101" lon="-0.88418">
        <ele>30.4188232</ele>
        <time>2016-10-02T08:23:25Z</time>
      </trkpt>
      <trkpt lat="44.66102" lon="-0.88432">
        <ele>28.0155029</ele>
        <time>2016-10-02T08:23:29Z</time>
      </trkpt>
      <trkpt lat="44.66107" lon="-0.8845">
        <ele>25.1317139</ele>
        <time>2016-10-02T08:23:35Z</time>
      </trkpt>
      <trkpt lat="44.66121" lon="-0.88448">
        <ele>24.651001</ele>
        <time>2016-10-02T08:23:40Z</time>
      </trkpt>
      <trkpt lat="44.66131" lon="-0.88454">
        <ele>26.5736084</ele>
        <time>2016-10-02T08:23:44Z</time>
      </trkpt>
      <trkpt lat="44.66139" lon="-0.88454">
        <ele>28.9769287</ele>
        <time>2016-10-02T08:23:47Z</time>
      </trkpt>
      <trkpt lat="44.66152" lon="-0.88451">
        <ele>30.4188232</ele>
        <time>2016-10-02T08:23:51Z</time>
      </trkpt>
      <trkpt lat="44.66156" lon="-0.8845">
        <ele>30.8995361</ele>
        <time>2016-10-02T08:23:52Z</time>
      </trkpt>
      <trkpt lat="44.66177" lon="-0.88441">
        <ele>33.7834473</ele>
        <time>2016-10-02T08:23:58Z</time>
      </trkpt>
      <trkpt lat="44.6619" lon="-0.88437">
        <ele>36.1867676</ele>
        <time>2016-10-02T08:24:02Z</time>
      </trkpt>
      <trkpt lat="44.66195" lon="-0.88434">
        <ele>36.6674805</ele>
        <time>2016-10-02T08:24:04Z</time>
      </trkpt>
      <trkpt lat="44.66208" lon="-0.88436">
        <ele>36.1867676</ele>
        <time>2016-10-02T08:24:08Z</time>
      </trkpt>
      <trkpt lat="44.66224" lon="-0.88437">
        <ele>37.1480713</ele>
        <time>2016-10-02T08:24:13Z</time>
      </trkpt>
      <trkpt lat="44.66242" lon="-0.88442">
        <ele>36.1867676</ele>
        <time>2016-10-02T08:24:18Z</time>
      </trkpt>
      <trkpt lat="44.66249" lon="-0.88443">
        <ele>33.7834473</ele>
        <time>2016-10-02T08:24:21Z</time>
      </trkpt>
      <trkpt lat="44.66259" lon="-0.88449">
        <ele>31.380127</ele>
        <time>2016-10-02T08:24:27Z</time>
      </trkpt>
      <trkpt lat="44.66266" lon="-0.88459">
        <ele>31.380127</ele>
        <time>2016-10-02T08:24:31Z</time>
      </trkpt>
      <trkpt lat="44.66266" lon="-0.88467">
        <ele>30.4188232</ele>
        <time>2016-10-02T08:24:33Z</time>
      </trkpt>
      <trkpt lat="44.66267" lon="-0.88488">
        <ele>27.5349121</ele>
        <time>2016-10-02T08:24:38Z</time>
      </trkpt>
      <trkpt lat="44.66274" lon="-0.88507">
        <ele>28.0155029</ele>
        <time>2016-10-02T08:24:42Z</time>
      </trkpt>
      <trkpt lat="44.66286" lon="-0.88519">
        <ele>28.0155029</ele>
        <time>2016-10-02T08:24:45Z</time>
      </trkpt>
      <trkpt lat="44.66292" lon="-0.88534">
        <ele>26.5736084</ele>
        <time>2016-10-02T08:24:49Z</time>
      </trkpt>
      <trkpt lat="44.66301" lon="-0.88556">
        <ele>26.0928955</ele>
        <time>2016-10-02T08:24:55Z</time>
      </trkpt>
      <trkpt lat="44.66306" lon="-0.88575">
        <ele>25.1317139</ele>
        <time>2016-10-02T08:24:59Z</time>
      </trkpt>
      <trkpt lat="44.6632" lon="-0.88588">
        <ele>26.0928955</ele>
        <time>2016-10-02T08:25:03Z</time>
      </trkpt>
      <trkpt lat="44.66341" lon="-0.886">
        <ele>28.0155029</ele>
        <time>2016-10-02T08:25:09Z</time>
      </trkpt>
      <trkpt lat="44.66353" lon="-0.88605">
        <ele>26.5736084</ele>
        <time>2016-10-02T08:25:13Z</time>
      </trkpt>
      <trkpt lat="44.6636" lon="-0.8861">
        <ele>26.5736084</ele>
        <time>2016-10-02T08:25:16Z</time>
      </trkpt>
      <trkpt lat="44.66363" lon="-0.88628">
        <ele>23.6895752</ele>
        <time>2016-10-02T08:25:21Z</time>
      </trkpt>
      <trkpt lat="44.66368" lon="-0.88659">
        <ele>20.8056641</ele>
        <time>2016-10-02T08:25:26Z</time>
      </trkpt>
      <trkpt lat="44.66381" lon="-0.8867">
        <ele>23.6895752</ele>
        <time>2016-10-02T08:25:30Z</time>
      </trkpt>
      <trkpt lat="44.66394" lon="-0.88683">
        <ele>24.1702881</ele>
        <time>2016-10-02T08:25:35Z</time>
      </trkpt>
      <trkpt lat="44.66397" lon="-0.88683">
        <ele>24.1702881</ele>
        <time>2016-10-02T08:25:36Z</time>
      </trkpt>
      <trkpt lat="44.66407" lon="-0.88674">
        <ele>25.1317139</ele>
        <time>2016-10-02T08:25:40Z</time>
      </trkpt>
      <trkpt lat="44.66412" lon="-0.88661">
        <ele>28.0155029</ele>
        <time>2016-10-02T08:25:44Z</time>
      </trkpt>
      <trkpt lat="44.66421" lon="-0.88653">
        <ele>30.4188232</ele>
        <time>2016-10-02T08:25:48Z</time>
      </trkpt>
      <trkpt lat="44.66426" lon="-0.8865">
        <ele>30.8995361</ele>
        <time>2016-10-02T08:25:50Z</time>
      </trkpt>
      <trkpt lat="44.66443" lon="-0.88638">
        <ele>33.7834473</ele>
        <time>2016-10-02T08:25:57Z</time>
      </trkpt>
      <trkpt lat="44.66459" lon="-0.88639">
        <ele>30.4188232</ele>
        <time>2016-10-02T08:26:02Z</time>
      </trkpt>
      <trkpt lat="44.66476" lon="-0.88636">
        <ele>28.9769287</ele>
        <time>2016-10-02T08:26:06Z</time>
      </trkpt>
      <trkpt lat="44.66492" lon="-0.88639">
        <ele>28.0155029</ele>
        <time>2016-10-02T08:26:11Z</time>
      </trkpt>
      <trkpt lat="44.66508" lon="-0.88641">
        <ele>26.5736084</ele>
        <time>2016-10-02T08:26:16Z</time>
      </trkpt>
      <trkpt lat="44.66521" lon="-0.88635">
        <ele>27.5349121</ele>
        <time>2016-10-02T08:26:20Z</time>
      </trkpt>
      <trkpt lat="44.66537" lon="-0.88616">
        <ele>27.0543213</ele>
        <time>2016-10-02T08:26:25Z</time>
      </trkpt>
      <trkpt lat="44.66547" lon="-0.88606">
        <ele>27.5349121</ele>
        <time>2016-10-02T08:26:28Z</time>
      </trkpt>
      <trkpt lat="44.6657" lon="-0.88592">
        <ele>29.9381104</ele>
        <time>2016-10-02T08:26:34Z</time>
      </trkpt>
      <trkpt lat="44.66583" lon="-0.88587">
        <ele>32.3415527</ele>
        <time>2016-10-02T08:26:37Z</time>
      </trkpt>
      <trkpt lat="44.66602" lon="-0.88576">
        <ele>31.8607178</ele>
        <time>2016-10-02T08:26:43Z</time>
      </trkpt>
      <trkpt lat="44.6661" lon="-0.88557">
        <ele>32.3415527</ele>
        <time>2016-10-02T08:26:48Z</time>
      </trkpt>
      <trkpt lat="44.66612" lon="-0.88549">
        <ele>32.3415527</ele>
        <time>2016-10-02T08:26:53Z</time>
      </trkpt>
      <trkpt lat="44.66612" lon="-0.88549">
        <ele>32.3415527</ele>
        <time>2016-10-02T08:26:54Z</time>
      </trkpt>
      <trkpt lat="44.66613" lon="-0.88555">
        <ele>35.2254639</ele>
        <time>2016-10-02T08:28:00Z</time>
      </trkpt>
      <trkpt lat="44.6661" lon="-0.88567">
        <ele>35.2254639</ele>
        <time>2016-10-02T08:28:05Z</time>
      </trkpt>
      <trkpt lat="44.66608" lon="-0.8857">
        <ele>34.744873</ele>
        <time>2016-10-02T08:28:07Z</time>
      </trkpt>
      <trkpt lat="44.66607" lon="-0.88571">
        <ele>33.7834473</ele>
        <time>2016-10-02T08:28:10Z</time>
      </trkpt>
      <trkpt lat="44.66606" lon="-0.88594">
        <ele>28.9769287</ele>
        <time>2016-10-02T08:28:29Z</time>
      </trkpt>
      <trkpt lat="44.66608" lon="-0.88608">
        <ele>24.651001</ele>
        <time>2016-10-02T08:28:34Z</time>
      </trkpt>
      <trkpt lat="44.66614" lon="-0.88611">
        <ele>24.651001</ele>
        <time>2016-10-02T08:28:38Z</time>
      </trkpt>
      <trkpt lat="44.6663" lon="-0.88603">
        <ele>28.0155029</ele>
        <time>2016-10-02T08:28:44Z</time>
      </trkpt>
      <trkpt lat="44.66635" lon="-0.88596">
        <ele>28.4962158</ele>
        <time>2016-10-02T08:28:47Z</time>
      </trkpt>
      <trkpt lat="44.66641" lon="-0.88575">
        <ele>28.4962158</ele>
        <time>2016-10-02T08:28:53Z</time>
      </trkpt>
      <trkpt lat="44.6665" lon="-0.88568">
        <ele>29.9381104</ele>
        <time>2016-10-02T08:28:57Z</time>
      </trkpt>
      <trkpt lat="44.6666" lon="-0.88561">
        <ele>28.0155029</ele>
        <time>2016-10-02T08:29:01Z</time>
      </trkpt>
      <trkpt lat="44.66659" lon="-0.88559">
        <ele>27.0543213</ele>
        <time>2016-10-02T08:29:02Z</time>
      </trkpt>
      <trkpt lat="44.66656" lon="-0.88547">
        <ele>25.6123047</ele>
        <time>2016-10-02T08:29:05Z</time>
      </trkpt>
      <trkpt lat="44.66663" lon="-0.88535">
        <ele>24.651001</ele>
        <time>2016-10-02T08:29:10Z</time>
      </trkpt>
      <trkpt lat="44.66673" lon="-0.88528">
        <ele>24.1702881</ele>
        <time>2016-10-02T08:29:14Z</time>
      </trkpt>
      <trkpt lat="44.66689" lon="-0.88519">
        <ele>24.651001</ele>
        <time>2016-10-02T08:29:19Z</time>
      </trkpt>
      <trkpt lat="44.66699" lon="-0.8852">
        <ele>24.1702881</ele>
        <time>2016-10-02T08:29:23Z</time>
      </trkpt>
      <trkpt lat="44.66703" lon="-0.88523">
        <ele>23.6895752</ele>
        <time>2016-10-02T08:29:25Z</time>
      </trkpt>
      <trkpt lat="44.66713" lon="-0.88519">
        <ele>24.651001</ele>
        <time>2016-10-02T08:29:30Z</time>
      </trkpt>
      <trkpt lat="44.66716" lon="-0.88517">
        <ele>25.6123047</ele>
        <time>2016-10-02T08:29:32Z</time>
      </trkpt>
      <trkpt lat="44.66723" lon="-0.88518">
        <ele>25.1317139</ele>
        <time>2016-10-02T08:29:35Z</time>
      </trkpt>
      <trkpt lat="44.66733" lon="-0.88512">
        <ele>25.6123047</ele>
        <time>2016-10-02T08:29:40Z</time>
      </trkpt>
      <trkpt lat="44.66736" lon="-0.88512">
        <ele>25.6123047</ele>
        <time>2016-10-02T08:29:41Z</time>
      </trkpt>
      <trkpt lat="44.66744" lon="-0.88511">
        <ele>25.1317139</ele>
        <time>2016-10-02T08:29:44Z</time>
      </trkpt>
      <trkpt lat="44.66753" lon="-0.88499">
        <ele>25.6123047</ele>
        <time>2016-10-02T08:29:50Z</time>
      </trkpt>
      <trkpt lat="44.66755" lon="-0.88492">
        <ele>25.6123047</ele>
        <time>2016-10-02T08:29:55Z</time>
      </trkpt>
      <trkpt lat="44.66759" lon="-0.88478">
        <ele>25.6123047</ele>
        <time>2016-10-02T08:30:04Z</time>
      </trkpt>
      <trkpt lat="44.66765" lon="-0.88473">
        <ele>26.0928955</ele>
        <time>2016-10-02T08:30:07Z</time>
      </trkpt>
      <trkpt lat="44.66781" lon="-0.88461">
        <ele>27.0543213</ele>
        <time>2016-10-02T08:30:14Z</time>
      </trkpt>
      <trkpt lat="44.66792" lon="-0.88451">
        <ele>27.0543213</ele>
        <time>2016-10-02T08:30:19Z</time>
      </trkpt>
      <trkpt lat="44.66805" lon="-0.88442">
        <ele>27.0543213</ele>
        <time>2016-10-02T08:30:24Z</time>
      </trkpt>
      <trkpt lat="44.66813" lon="-0.88432">
        <ele>27.0543213</ele>
        <time>2016-10-02T08:30:28Z</time>
      </trkpt>
      <trkpt lat="44.66826" lon="-0.88429">
        <ele>27.0543213</ele>
        <time>2016-10-02T08:30:33Z</time>
      </trkpt>
      <trkpt lat="44.66834" lon="-0.88422">
        <ele>27.5349121</ele>
        <time>2016-10-02T08:30:37Z</time>
      </trkpt>
      <trkpt lat="44.66847" lon="-0.88414">
        <ele>28.9769287</ele>
        <time>2016-10-02T08:30:43Z</time>
      </trkpt>
      <trkpt lat="44.66862" lon="-0.88406">
        <ele>26.5736084</ele>
        <time>2016-10-02T08:30:49Z</time>
      </trkpt>
      <trkpt lat="44.66876" lon="-0.88404">
        <ele>26.0928955</ele>
        <time>2016-10-02T08:30:54Z</time>
      </trkpt>
      <trkpt lat="44.66889" lon="-0.88408">
        <ele>26.0928955</ele>
        <time>2016-10-02T08:30:59Z</time>
      </trkpt>
      <trkpt lat="44.66899" lon="-0.88405">
        <ele>26.0928955</ele>
        <time>2016-10-02T08:31:02Z</time>
      </trkpt>
      <trkpt lat="44.66917" lon="-0.88397">
        <ele>26.0928955</ele>
        <time>2016-10-02T08:31:09Z</time>
      </trkpt>
      <trkpt lat="44.66919" lon="-0.88386">
        <ele>27.0543213</ele>
        <time>2016-10-02T08:31:13Z</time>
      </trkpt>
      <trkpt lat="44.66926" lon="-0.8838">
        <ele>26.5736084</ele>
        <time>2016-10-02T08:31:17Z</time>
      </trkpt>
      <trkpt lat="44.66937" lon="-0.88378">
        <ele>27.5349121</ele>
        <time>2016-10-02T08:31:22Z</time>
      </trkpt>
      <trkpt lat="44.66945" lon="-0.88375">
        <ele>28.0155029</ele>
        <time>2016-10-02T08:31:25Z</time>
      </trkpt>
      <trkpt lat="44.66952" lon="-0.88362">
        <ele>28.4962158</ele>
        <time>2016-10-02T08:31:30Z</time>
      </trkpt>
      <trkpt lat="44.66961" lon="-0.88342">
        <ele>28.0155029</ele>
        <time>2016-10-02T08:31:36Z</time>
      </trkpt>
      <trkpt lat="44.66961" lon="-0.88338">
        <ele>28.4962158</ele>
        <time>2016-10-02T08:31:37Z</time>
      </trkpt>
      <trkpt lat="44.66965" lon="-0.88329">
        <ele>28.0155029</ele>
        <time>2016-10-02T08:31:40Z</time>
      </trkpt>
      <trkpt lat="44.66979" lon="-0.88321">
        <ele>29.4575195</ele>
        <time>2016-10-02T08:31:46Z</time>
      </trkpt>
      <trkpt lat="44.66984" lon="-0.88311">
        <ele>29.9381104</ele>
        <time>2016-10-02T08:31:50Z</time>
      </trkpt>
      <trkpt lat="44.66985" lon="-0.88294">
        <ele>30.4188232</ele>
        <time>2016-10-02T08:31:55Z</time>
      </trkpt>
      <trkpt lat="44.66988" lon="-0.88286">
        <ele>29.9381104</ele>
        <time>2016-10-02T08:31:59Z</time>
      </trkpt>
      <trkpt lat="44.66987" lon="-0.88272">
        <ele>31.380127</ele>
        <time>2016-10-02T08:32:03Z</time>
      </trkpt>
      <trkpt lat="44.6699" lon="-0.88264">
        <ele>31.8607178</ele>
        <time>2016-10-02T08:32:06Z</time>
      </trkpt>
      <trkpt lat="44.67007" lon="-0.88239">
        <ele>33.3028564</ele>
        <time>2016-10-02T08:32:16Z</time>
      </trkpt>
      <trkpt lat="44.67011" lon="-0.8822">
        <ele>33.7834473</ele>
        <time>2016-10-02T08:32:22Z</time>
      </trkpt>
      <trkpt lat="44.67016" lon="-0.8821">
        <ele>35.2254639</ele>
        <time>2016-10-02T08:32:26Z</time>
      </trkpt>
      <trkpt lat="44.67021" lon="-0.88202">
        <ele>36.6674805</ele>
        <time>2016-10-02T08:32:30Z</time>
      </trkpt>
      <trkpt lat="44.67024" lon="-0.88192">
        <ele>34.744873</ele>
        <time>2016-10-02T08:32:35Z</time>
      </trkpt>
      <trkpt lat="44.67026" lon="-0.88188">
        <ele>34.2641602</ele>
        <time>2016-10-02T08:32:37Z</time>
      </trkpt>
      <trkpt lat="44.67037" lon="-0.8818">
        <ele>35.7060547</ele>
        <time>2016-10-02T08:32:45Z</time>
      </trkpt>
      <trkpt lat="44.67042" lon="-0.88178">
        <ele>35.7060547</ele>
        <time>2016-10-02T08:32:50Z</time>
      </trkpt>
      <trkpt lat="44.67051" lon="-0.88174">
        <ele>37.1480713</ele>
        <time>2016-10-02T08:32:55Z</time>
      </trkpt>
      <trkpt lat="44.67054" lon="-0.88176">
        <ele>37.1480713</ele>
        <time>2016-10-02T08:32:58Z</time>
      </trkpt>
      <trkpt lat="44.67062" lon="-0.88179">
        <ele>37.1480713</ele>
        <time>2016-10-02T08:33:05Z</time>
      </trkpt>
      <trkpt lat="44.67071" lon="-0.88163">
        <ele>36.6674805</ele>
        <time>2016-10-02T08:33:12Z</time>
      </trkpt>
      <trkpt lat="44.67069" lon="-0.88153">
        <ele>35.7060547</ele>
        <time>2016-10-02T08:33:16Z</time>
      </trkpt>
      <trkpt lat="44.67061" lon="-0.8814">
        <ele>37.1480713</ele>
        <time>2016-10-02T08:33:23Z</time>
      </trkpt>
      <trkpt lat="44.67054" lon="-0.88121">
        <ele>38.5900879</ele>
        <time>2016-10-02T08:33:28Z</time>
      </trkpt>
      <trkpt lat="44.67052" lon="-0.88114">
        <ele>38.109375</ele>
        <time>2016-10-02T08:33:33Z</time>
      </trkpt>
      <trkpt lat="44.67052" lon="-0.88114">
        <ele>37.6286621</ele>
        <time>2016-10-02T08:33:34Z</time>
      </trkpt>
      <trkpt lat="44.67051" lon="-0.88096">
        <ele>33.7834473</ele>
        <time>2016-10-02T08:34:19Z</time>
      </trkpt>
      <trkpt lat="44.67051" lon="-0.88088">
        <ele>33.7834473</ele>
        <time>2016-10-02T08:34:21Z</time>
      </trkpt>
      <trkpt lat="44.67051" lon="-0.88079">
        <ele>33.3028564</ele>
        <time>2016-10-02T08:34:23Z</time>
      </trkpt>
      <trkpt lat="44.67046" lon="-0.88068">
        <ele>34.2641602</ele>
        <time>2016-10-02T08:34:27Z</time>
      </trkpt>
      <trkpt lat="44.67045" lon="-0.88054">
        <ele>35.7060547</ele>
        <time>2016-10-02T08:34:31Z</time>
      </trkpt>
      <trkpt lat="44.67054" lon="-0.88048">
        <ele>33.3028564</ele>
        <time>2016-10-02T08:34:35Z</time>
      </trkpt>
      <trkpt lat="44.67062" lon="-0.88035">
        <ele>33.7834473</ele>
        <time>2016-10-02T08:34:39Z</time>
      </trkpt>
      <trkpt lat="44.67065" lon="-0.8802">
        <ele>34.744873</ele>
        <time>2016-10-02T08:34:43Z</time>
      </trkpt>
      <trkpt lat="44.67066" lon="-0.88001">
        <ele>35.7060547</ele>
        <time>2016-10-02T08:34:48Z</time>
      </trkpt>
      <trkpt lat="44.67066" lon="-0.87981">
        <ele>38.5900879</ele>
        <time>2016-10-02T08:34:54Z</time>
      </trkpt>
      <trkpt lat="44.67067" lon="-0.87968">
        <ele>39.5512695</ele>
        <time>2016-10-02T08:34:58Z</time>
      </trkpt>
      <trkpt lat="44.67062" lon="-0.87952">
        <ele>40.5128174</ele>
        <time>2016-10-02T08:35:02Z</time>
      </trkpt>
      <trkpt lat="44.67062" lon="-0.87944">
        <ele>40.5128174</ele>
        <time>2016-10-02T08:35:04Z</time>
      </trkpt>
      <trkpt lat="44.67062" lon="-0.8793">
        <ele>38.5900879</ele>
        <time>2016-10-02T08:35:08Z</time>
      </trkpt>
      <trkpt lat="44.67073" lon="-0.87908">
        <ele>35.2254639</ele>
        <time>2016-10-02T08:35:13Z</time>
      </trkpt>
      <trkpt lat="44.67082" lon="-0.87885">
        <ele>34.2641602</ele>
        <time>2016-10-02T08:35:18Z</time>
      </trkpt>
      <trkpt lat="44.67087" lon="-0.87864">
        <ele>33.7834473</ele>
        <time>2016-10-02T08:35:23Z</time>
      </trkpt>
      <trkpt lat="44.67086" lon="-0.87855">
        <ele>32.8222656</ele>
        <time>2016-10-02T08:35:25Z</time>
      </trkpt>
      <trkpt lat="44.67082" lon="-0.87839">
        <ele>32.3415527</ele>
        <time>2016-10-02T08:35:29Z</time>
      </trkpt>
      <trkpt lat="44.67077" lon="-0.87827">
        <ele>33.3028564</ele>
        <time>2016-10-02T08:35:33Z</time>
      </trkpt>
      <trkpt lat="44.6708" lon="-0.87806">
        <ele>33.3028564</ele>
        <time>2016-10-02T08:35:38Z</time>
      </trkpt>
      <trkpt lat="44.67084" lon="-0.87793">
        <ele>35.2254639</ele>
        <time>2016-10-02T08:35:42Z</time>
      </trkpt>
      <trkpt lat="44.67085" lon="-0.87792">
        <ele>33.7834473</ele>
        <time>2016-10-02T08:35:45Z</time>
      </trkpt>
      <trkpt lat="44.67085" lon="-0.87769">
        <ele>42.9160156</ele>
        <time>2016-10-02T08:36:33Z</time>
      </trkpt>
      <trkpt lat="44.67096" lon="-0.87762">
        <ele>39.5512695</ele>
        <time>2016-10-02T08:36:37Z</time>
      </trkpt>
      <trkpt lat="44.6711" lon="-0.87749">
        <ele>39.0706787</ele>
        <time>2016-10-02T08:36:42Z</time>
      </trkpt>
      <trkpt lat="44.67113" lon="-0.87747">
        <ele>39.0706787</ele>
        <time>2016-10-02T08:36:43Z</time>
      </trkpt>
      <trkpt lat="44.6712" lon="-0.87731">
        <ele>37.6286621</ele>
        <time>2016-10-02T08:36:48Z</time>
      </trkpt>
      <trkpt lat="44.67131" lon="-0.87723">
        <ele>37.6286621</ele>
        <time>2016-10-02T08:36:51Z</time>
      </trkpt>
      <trkpt lat="44.67145" lon="-0.87711">
        <ele>36.1867676</ele>
        <time>2016-10-02T08:36:55Z</time>
      </trkpt>
      <trkpt lat="44.67159" lon="-0.87712">
        <ele>34.744873</ele>
        <time>2016-10-02T08:36:59Z</time>
      </trkpt>
      <trkpt lat="44.67171" lon="-0.8772">
        <ele>35.2254639</ele>
        <time>2016-10-02T08:37:02Z</time>
      </trkpt>
      <trkpt lat="44.67183" lon="-0.87725">
        <ele>36.6674805</ele>
        <time>2016-10-02T08:37:05Z</time>
      </trkpt>
      <trkpt lat="44.67199" lon="-0.87724">
        <ele>37.6286621</ele>
        <time>2016-10-02T08:37:10Z</time>
      </trkpt>
      <trkpt lat="44.67199" lon="-0.87723">
        <ele>36.6674805</ele>
        <time>2016-10-02T08:37:13Z</time>
      </trkpt>
      <trkpt lat="44.67208" lon="-0.87703">
        <ele>33.3028564</ele>
        <time>2016-10-02T08:37:51Z</time>
      </trkpt>
      <trkpt lat="44.67215" lon="-0.87703">
        <ele>33.7834473</ele>
        <time>2016-10-02T08:37:55Z</time>
      </trkpt>
      <trkpt lat="44.67223" lon="-0.87709">
        <ele>35.2254639</ele>
        <time>2016-10-02T08:38:00Z</time>
      </trkpt>
      <trkpt lat="44.67239" lon="-0.87699">
        <ele>35.7060547</ele>
        <time>2016-10-02T08:38:06Z</time>
      </trkpt>
      <trkpt lat="44.67263" lon="-0.87696">
        <ele>35.7060547</ele>
        <time>2016-10-02T08:38:12Z</time>
      </trkpt>
      <trkpt lat="44.6728" lon="-0.87698">
        <ele>34.744873</ele>
        <time>2016-10-02T08:38:16Z</time>
      </trkpt>
      <trkpt lat="44.67297" lon="-0.8769">
        <ele>34.2641602</ele>
        <time>2016-10-02T08:38:20Z</time>
      </trkpt>
      <trkpt lat="44.67317" lon="-0.87685">
        <ele>36.1867676</ele>
        <time>2016-10-02T08:38:26Z</time>
      </trkpt>
      <trkpt lat="44.67319" lon="-0.87682">
        <ele>36.6674805</ele>
        <time>2016-10-02T08:38:27Z</time>
      </trkpt>
      <trkpt lat="44.67329" lon="-0.87664">
        <ele>37.6286621</ele>
        <time>2016-10-02T08:38:32Z</time>
      </trkpt>
      <trkpt lat="44.67349" lon="-0.87662">
        <ele>36.6674805</ele>
        <time>2016-10-02T08:38:39Z</time>
      </trkpt>
      <trkpt lat="44.67361" lon="-0.87653">
        <ele>36.1867676</ele>
        <time>2016-10-02T08:38:43Z</time>
      </trkpt>
      <trkpt lat="44.67371" lon="-0.87645">
        <ele>34.744873</ele>
        <time>2016-10-02T08:38:48Z</time>
      </trkpt>
      <trkpt lat="44.67374" lon="-0.87634">
        <ele>32.8222656</ele>
        <time>2016-10-02T08:38:53Z</time>
      </trkpt>
      <trkpt lat="44.6738" lon="-0.87621">
        <ele>31.380127</ele>
        <time>2016-10-02T08:38:57Z</time>
      </trkpt>
      <trkpt lat="44.67388" lon="-0.87613">
        <ele>31.380127</ele>
        <time>2016-10-02T08:39:01Z</time>
      </trkpt>
      <trkpt lat="44.67403" lon="-0.87609">
        <ele>29.9381104</ele>
        <time>2016-10-02T08:39:06Z</time>
      </trkpt>
      <trkpt lat="44.67418" lon="-0.87598">
        <ele>31.380127</ele>
        <time>2016-10-02T08:39:11Z</time>
      </trkpt>
      <trkpt lat="44.67424" lon="-0.87594">
        <ele>30.8995361</ele>
        <time>2016-10-02T08:39:13Z</time>
      </trkpt>
      <trkpt lat="44.67428" lon="-0.87589">
        <ele>30.8995361</ele>
        <time>2016-10-02T08:39:15Z</time>
      </trkpt>
      <trkpt lat="44.67442" lon="-0.87581">
        <ele>32.3415527</ele>
        <time>2016-10-02T08:39:20Z</time>
      </trkpt>
      <trkpt lat="44.6745" lon="-0.87577">
        <ele>32.8222656</ele>
        <time>2016-10-02T08:39:25Z</time>
      </trkpt>
      <trkpt lat="44.67451" lon="-0.87577">
        <ele>31.8607178</ele>
        <time>2016-10-02T08:39:27Z</time>
      </trkpt>
      <trkpt lat="44.67463" lon="-0.87571">
        <ele>28.9769287</ele>
        <time>2016-10-02T08:39:47Z</time>
      </trkpt>
      <trkpt lat="44.67474" lon="-0.87566">
        <ele>32.8222656</ele>
        <time>2016-10-02T08:39:52Z</time>
      </trkpt>
      <trkpt lat="44.67478" lon="-0.87568">
        <ele>33.3028564</ele>
        <time>2016-10-02T08:39:54Z</time>
      </trkpt>
      <trkpt lat="44.67482" lon="-0.87566">
        <ele>34.2641602</ele>
        <time>2016-10-02T08:39:57Z</time>
      </trkpt>
      <trkpt lat="44.67491" lon="-0.87545">
        <ele>34.2641602</ele>
        <time>2016-10-02T08:40:03Z</time>
      </trkpt>
      <trkpt lat="44.67495" lon="-0.87534">
        <ele>35.7060547</ele>
        <time>2016-10-02T08:40:06Z</time>
      </trkpt>
      <trkpt lat="44.67496" lon="-0.87524">
        <ele>36.6674805</ele>
        <time>2016-10-02T08:40:10Z</time>
      </trkpt>
      <trkpt lat="44.67504" lon="-0.87515">
        <ele>36.6674805</ele>
        <time>2016-10-02T08:40:15Z</time>
      </trkpt>
      <trkpt lat="44.67507" lon="-0.87514">
        <ele>37.6286621</ele>
        <time>2016-10-02T08:40:16Z</time>
      </trkpt>
      <trkpt lat="44.67526" lon="-0.87508">
        <ele>38.5900879</ele>
        <time>2016-10-02T08:40:24Z</time>
      </trkpt>
      <trkpt lat="44.67529" lon="-0.87508">
        <ele>39.0706787</ele>
        <time>2016-10-02T08:40:25Z</time>
      </trkpt>
      <trkpt lat="44.67538" lon="-0.87497">
        <ele>39.0706787</ele>
        <time>2016-10-02T08:40:30Z</time>
      </trkpt>
      <trkpt lat="44.67548" lon="-0.87483">
        <ele>38.109375</ele>
        <time>2016-10-02T08:40:34Z</time>
      </trkpt>
      <trkpt lat="44.67553" lon="-0.87473">
        <ele>37.6286621</ele>
        <time>2016-10-02T08:40:39Z</time>
      </trkpt>
      <trkpt lat="44.67554" lon="-0.87474">
        <ele>35.2254639</ele>
        <time>2016-10-02T08:40:43Z</time>
      </trkpt>
      <trkpt lat="44.67555" lon="-0.87461">
        <ele>37.1480713</ele>
        <time>2016-10-02T08:41:01Z</time>
      </trkpt>
      <trkpt lat="44.67561" lon="-0.87455">
        <ele>37.6286621</ele>
        <time>2016-10-02T08:41:05Z</time>
      </trkpt>
      <trkpt lat="44.67565" lon="-0.87449">
        <ele>38.109375</ele>
        <time>2016-10-02T08:41:08Z</time>
      </trkpt>
      <trkpt lat="44.67566" lon="-0.87447">
        <ele>37.6286621</ele>
        <time>2016-10-02T08:41:09Z</time>
      </trkpt>
      <trkpt lat="44.67569" lon="-0.87444">
        <ele>36.6674805</ele>
        <time>2016-10-02T08:41:14Z</time>
      </trkpt>
      <trkpt lat="44.6757" lon="-0.87435">
        <ele>32.3415527</ele>
        <time>2016-10-02T08:41:28Z</time>
      </trkpt>
      <trkpt lat="44.67573" lon="-0.8743">
        <ele>32.3415527</ele>
        <time>2016-10-02T08:41:30Z</time>
      </trkpt>
      <trkpt lat="44.67585" lon="-0.87435">
        <ele>34.744873</ele>
        <time>2016-10-02T08:41:35Z</time>
      </trkpt>
      <trkpt lat="44.67588" lon="-0.87435">
        <ele>35.2254639</ele>
        <time>2016-10-02T08:41:37Z</time>
      </trkpt>
      <trkpt lat="44.67596" lon="-0.87426">
        <ele>35.7060547</ele>
        <time>2016-10-02T08:41:41Z</time>
      </trkpt>
      <trkpt lat="44.67608" lon="-0.87413">
        <ele>39.0706787</ele>
        <time>2016-10-02T08:41:46Z</time>
      </trkpt>
      <trkpt lat="44.67617" lon="-0.87393">
        <ele>38.5900879</ele>
        <time>2016-10-02T08:41:52Z</time>
      </trkpt>
      <trkpt lat="44.67628" lon="-0.87372">
        <ele>38.5900879</ele>
        <time>2016-10-02T08:41:56Z</time>
      </trkpt>
      <trkpt lat="44.67634" lon="-0.87351">
        <ele>38.5900879</ele>
        <time>2016-10-02T08:42:00Z</time>
      </trkpt>
      <trkpt lat="44.67634" lon="-0.87347">
        <ele>38.5900879</ele>
        <time>2016-10-02T08:42:04Z</time>
      </trkpt>
      <trkpt lat="44.67633" lon="-0.87346">
        <ele>40.5128174</ele>
        <time>2016-10-02T08:42:12Z</time>
      </trkpt>
      <trkpt lat="44.67633" lon="-0.87346">
        <ele>40.0321045</ele>
        <time>2016-10-02T08:42:13Z</time>
      </trkpt>
      <trkpt lat="44.67632" lon="-0.87345">
        <ele>42.4354248</ele>
        <time>2016-10-02T08:42:19Z</time>
      </trkpt>
      <trkpt lat="44.67632" lon="-0.87341">
        <ele>45.3192139</ele>
        <time>2016-10-02T08:42:30Z</time>
      </trkpt>
      <trkpt lat="44.67635" lon="-0.87344">
        <ele>39.5512695</ele>
        <time>2016-10-02T08:42:57Z</time>
      </trkpt>
      <trkpt lat="44.67632" lon="-0.87344">
        <ele>41.473999</ele>
        <time>2016-10-02T08:46:56Z</time>
      </trkpt>
      <trkpt lat="44.67633" lon="-0.87348">
        <ele>39.0706787</ele>
        <time>2016-10-02T08:47:05Z</time>
      </trkpt>
      <trkpt lat="44.67633" lon="-0.8735">
        <ele>37.1480713</ele>
        <time>2016-10-02T08:47:48Z</time>
      </trkpt>
      <trkpt lat="44.67634" lon="-0.8735">
        <ele>34.2641602</ele>
        <time>2016-10-02T08:47:53Z</time>
      </trkpt>
      <trkpt lat="44.67624" lon="-0.87345">
        <ele>35.2254639</ele>
        <time>2016-10-02T08:48:08Z</time>
      </trkpt>
      <trkpt lat="44.6762" lon="-0.87341">
        <ele>35.7060547</ele>
        <time>2016-10-02T08:48:12Z</time>
      </trkpt>
      <trkpt lat="44.6761" lon="-0.87325">
        <ele>37.6286621</ele>
        <time>2016-10-02T08:48:18Z</time>
      </trkpt>
      <trkpt lat="44.676" lon="-0.87306">
        <ele>40.5128174</ele>
        <time>2016-10-02T08:48:24Z</time>
      </trkpt>
      <trkpt lat="44.67591" lon="-0.87293">
        <ele>41.9547119</ele>
        <time>2016-10-02T08:48:29Z</time>
      </trkpt>
      <trkpt lat="44.67579" lon="-0.87279">
        <ele>44.838623</ele>
        <time>2016-10-02T08:48:36Z</time>
      </trkpt>
      <trkpt lat="44.67569" lon="-0.87265">
        <ele>46.7612305</ele>
        <time>2016-10-02T08:48:41Z</time>
      </trkpt>
      <trkpt lat="44.67565" lon="-0.87262">
        <ele>46.7612305</ele>
        <time>2016-10-02T08:48:42Z</time>
      </trkpt>
      <trkpt lat="44.67545" lon="-0.87269">
        <ele>46.7612305</ele>
        <time>2016-10-02T08:48:48Z</time>
      </trkpt>
      <trkpt lat="44.67541" lon="-0.87279">
        <ele>46.2806396</ele>
        <time>2016-10-02T08:48:50Z</time>
      </trkpt>
      <trkpt lat="44.67528" lon="-0.87303">
        <ele>45.3192139</ele>
        <time>2016-10-02T08:48:56Z</time>
      </trkpt>
      <trkpt lat="44.67513" lon="-0.87324">
        <ele>43.3966064</ele>
        <time>2016-10-02T08:49:01Z</time>
      </trkpt>
      <trkpt lat="44.67501" lon="-0.87344">
        <ele>44.838623</ele>
        <time>2016-10-02T08:49:07Z</time>
      </trkpt>
      <trkpt lat="44.6749" lon="-0.87358">
        <ele>42.9160156</ele>
        <time>2016-10-02T08:49:11Z</time>
      </trkpt>
      <trkpt lat="44.6748" lon="-0.87372">
        <ele>40.9934082</ele>
        <time>2016-10-02T08:49:15Z</time>
      </trkpt>
      <trkpt lat="44.67463" lon="-0.87368">
        <ele>37.6286621</ele>
        <time>2016-10-02T08:49:20Z</time>
      </trkpt>
      <trkpt lat="44.67455" lon="-0.8735">
        <ele>40.0321045</ele>
        <time>2016-10-02T08:49:24Z</time>
      </trkpt>
      <trkpt lat="44.67448" lon="-0.87324">
        <ele>42.4354248</ele>
        <time>2016-10-02T08:49:29Z</time>
      </trkpt>
      <trkpt lat="44.67449" lon="-0.8731">
        <ele>41.473999</ele>
        <time>2016-10-02T08:49:32Z</time>
      </trkpt>
      <trkpt lat="44.67441" lon="-0.87286">
        <ele>42.4354248</ele>
        <time>2016-10-02T08:49:38Z</time>
      </trkpt>
      <trkpt lat="44.67436" lon="-0.87285">
        <ele>41.473999</ele>
        <time>2016-10-02T08:49:40Z</time>
      </trkpt>
      <trkpt lat="44.67429" lon="-0.87273">
        <ele>40.9934082</ele>
        <time>2016-10-02T08:49:44Z</time>
      </trkpt>
      <trkpt lat="44.67432" lon="-0.87257">
        <ele>42.9160156</ele>
        <time>2016-10-02T08:49:48Z</time>
      </trkpt>
      <trkpt lat="44.67437" lon="-0.87241">
        <ele>42.9160156</ele>
        <time>2016-10-02T08:49:53Z</time>
      </trkpt>
      <trkpt lat="44.67439" lon="-0.87223">
        <ele>44.3580322</ele>
        <time>2016-10-02T08:49:57Z</time>
      </trkpt>
      <trkpt lat="44.67447" lon="-0.87211">
        <ele>43.3966064</ele>
        <time>2016-10-02T08:50:02Z</time>
      </trkpt>
      <trkpt lat="44.67455" lon="-0.87195">
        <ele>39.0706787</ele>
        <time>2016-10-02T08:50:08Z</time>
      </trkpt>
      <trkpt lat="44.67459" lon="-0.87182">
        <ele>34.2641602</ele>
        <time>2016-10-02T08:50:12Z</time>
      </trkpt>
      <trkpt lat="44.67465" lon="-0.87176">
        <ele>33.3028564</ele>
        <time>2016-10-02T08:50:17Z</time>
      </trkpt>
      <trkpt lat="44.67466" lon="-0.87176">
        <ele>33.7834473</ele>
        <time>2016-10-02T08:50:18Z</time>
      </trkpt>
      <trkpt lat="44.67476" lon="-0.87171">
        <ele>38.5900879</ele>
        <time>2016-10-02T08:50:25Z</time>
      </trkpt>
      <trkpt lat="44.67479" lon="-0.87167">
        <ele>39.5512695</ele>
        <time>2016-10-02T08:50:27Z</time>
      </trkpt>
      <trkpt lat="44.67486" lon="-0.87156">
        <ele>38.109375</ele>
        <time>2016-10-02T08:50:32Z</time>
      </trkpt>
      <trkpt lat="44.67484" lon="-0.87144">
        <ele>40.5128174</ele>
        <time>2016-10-02T08:50:37Z</time>
      </trkpt>
      <trkpt lat="44.67487" lon="-0.87139">
        <ele>41.9547119</ele>
        <time>2016-10-02T08:50:39Z</time>
      </trkpt>
      <trkpt lat="44.67489" lon="-0.87135">
        <ele>42.4354248</ele>
        <time>2016-10-02T08:50:41Z</time>
      </trkpt>
      <trkpt lat="44.67499" lon="-0.87123">
        <ele>41.473999</ele>
        <time>2016-10-02T08:50:47Z</time>
      </trkpt>
      <trkpt lat="44.67516" lon="-0.87102">
        <ele>41.9547119</ele>
        <time>2016-10-02T08:50:53Z</time>
      </trkpt>
      <trkpt lat="44.67527" lon="-0.87093">
        <ele>38.5900879</ele>
        <time>2016-10-02T08:50:57Z</time>
      </trkpt>
      <trkpt lat="44.67539" lon="-0.87077">
        <ele>38.5900879</ele>
        <time>2016-10-02T08:51:03Z</time>
      </trkpt>
      <trkpt lat="44.67548" lon="-0.87074">
        <ele>41.473999</ele>
        <time>2016-10-02T08:51:08Z</time>
      </trkpt>
      <trkpt lat="44.67554" lon="-0.87072">
        <ele>41.473999</ele>
        <time>2016-10-02T08:51:10Z</time>
      </trkpt>
      <trkpt lat="44.67566" lon="-0.87056">
        <ele>40.5128174</ele>
        <time>2016-10-02T08:51:17Z</time>
      </trkpt>
      <trkpt lat="44.67577" lon="-0.87036">
        <ele>40.5128174</ele>
        <time>2016-10-02T08:51:22Z</time>
      </trkpt>
      <trkpt lat="44.67581" lon="-0.8703">
        <ele>40.0321045</ele>
        <time>2016-10-02T08:51:24Z</time>
      </trkpt>
      <trkpt lat="44.67589" lon="-0.87008">
        <ele>40.5128174</ele>
        <time>2016-10-02T08:51:29Z</time>
      </trkpt>
      <trkpt lat="44.6759" lon="-0.8699">
        <ele>41.9547119</ele>
        <time>2016-10-02T08:51:33Z</time>
      </trkpt>
      <trkpt lat="44.67594" lon="-0.86968">
        <ele>45.7999268</ele>
        <time>2016-10-02T08:51:38Z</time>
      </trkpt>
      <trkpt lat="44.676" lon="-0.86942">
        <ele>52.5291748</ele>
        <time>2016-10-02T08:51:45Z</time>
      </trkpt>
      <trkpt lat="44.67602" lon="-0.8694">
        <ele>53.0097656</ele>
        <time>2016-10-02T08:51:48Z</time>
      </trkpt>
      <trkpt lat="44.67605" lon="-0.86939">
        <ele>53.4904785</ele>
        <time>2016-10-02T08:51:51Z</time>
      </trkpt>
      <trkpt lat="44.67601" lon="-0.86939">
        <ele>49.1645508</ele>
        <time>2016-10-02T08:51:59Z</time>
      </trkpt>
      <trkpt lat="44.67602" lon="-0.86938">
        <ele>53.0097656</ele>
        <time>2016-10-02T08:52:04Z</time>
      </trkpt>
      <trkpt lat="44.676" lon="-0.86942">
        <ele>51.5678711</ele>
        <time>2016-10-02T08:52:21Z</time>
      </trkpt>
      <trkpt lat="44.67608" lon="-0.86946">
        <ele>55.4130859</ele>
        <time>2016-10-02T08:52:30Z</time>
      </trkpt>
      <trkpt lat="44.67608" lon="-0.86948">
        <ele>56.3745117</ele>
        <time>2016-10-02T08:52:35Z</time>
      </trkpt>
      <trkpt lat="44.67619" lon="-0.86942">
        <ele>49.6452637</ele>
        <time>2016-10-02T08:53:35Z</time>
      </trkpt>
      <trkpt lat="44.67627" lon="-0.86933">
        <ele>47.2418213</ele>
        <time>2016-10-02T08:53:39Z</time>
      </trkpt>
      <trkpt lat="44.6763" lon="-0.86923">
        <ele>45.7999268</ele>
        <time>2016-10-02T08:53:42Z</time>
      </trkpt>
      <trkpt lat="44.67634" lon="-0.86898">
        <ele>43.8773193</ele>
        <time>2016-10-02T08:53:48Z</time>
      </trkpt>
      <trkpt lat="44.67636" lon="-0.86882">
        <ele>42.9160156</ele>
        <time>2016-10-02T08:53:52Z</time>
      </trkpt>
      <trkpt lat="44.67644" lon="-0.86865">
        <ele>41.9547119</ele>
        <time>2016-10-02T08:53:57Z</time>
      </trkpt>
      <trkpt lat="44.67645" lon="-0.86848">
        <ele>38.5900879</ele>
        <time>2016-10-02T08:54:01Z</time>
      </trkpt>
      <trkpt lat="44.67645" lon="-0.86841">
        <ele>38.5900879</ele>
        <time>2016-10-02T08:54:03Z</time>
      </trkpt>
      <trkpt lat="44.67653" lon="-0.86825">
        <ele>38.109375</ele>
        <time>2016-10-02T08:54:09Z</time>
      </trkpt>
      <trkpt lat="44.67656" lon="-0.86813">
        <ele>37.6286621</ele>
        <time>2016-10-02T08:54:13Z</time>
      </trkpt>
      <trkpt lat="44.67658" lon="-0.86808">
        <ele>37.6286621</ele>
        <time>2016-10-02T08:54:15Z</time>
      </trkpt>
      <trkpt lat="44.67668" lon="-0.86794">
        <ele>36.6674805</ele>
        <time>2016-10-02T08:54:22Z</time>
      </trkpt>
      <trkpt lat="44.67677" lon="-0.86778">
        <ele>38.5900879</ele>
        <time>2016-10-02T08:54:28Z</time>
      </trkpt>
      <trkpt lat="44.67686" lon="-0.86768">
        <ele>39.0706787</ele>
        <time>2016-10-02T08:54:33Z</time>
      </trkpt>
      <trkpt lat="44.67692" lon="-0.86751">
        <ele>38.109375</ele>
        <time>2016-10-02T08:54:38Z</time>
      </trkpt>
      <trkpt lat="44.67697" lon="-0.86724">
        <ele>34.744873</ele>
        <time>2016-10-02T08:54:43Z</time>
      </trkpt>
      <trkpt lat="44.67709" lon="-0.86711">
        <ele>36.1867676</ele>
        <time>2016-10-02T08:54:48Z</time>
      </trkpt>
      <trkpt lat="44.67718" lon="-0.86703">
        <ele>35.7060547</ele>
        <time>2016-10-02T08:54:52Z</time>
      </trkpt>
      <trkpt lat="44.67724" lon="-0.86692">
        <ele>35.7060547</ele>
        <time>2016-10-02T08:54:56Z</time>
      </trkpt>
      <trkpt lat="44.67727" lon="-0.86686">
        <ele>36.1867676</ele>
        <time>2016-10-02T08:55:01Z</time>
      </trkpt>
      <trkpt lat="44.6773" lon="-0.86687">
        <ele>38.109375</ele>
        <time>2016-10-02T08:55:03Z</time>
      </trkpt>
      <trkpt lat="44.67737" lon="-0.86687">
        <ele>42.4354248</ele>
        <time>2016-10-02T08:55:11Z</time>
      </trkpt>
      <trkpt lat="44.67742" lon="-0.86683">
        <ele>40.5128174</ele>
        <time>2016-10-02T08:55:16Z</time>
      </trkpt>
      <trkpt lat="44.67756" lon="-0.86677">
        <ele>40.5128174</ele>
        <time>2016-10-02T08:55:23Z</time>
      </trkpt>
      <trkpt lat="44.6777" lon="-0.86672">
        <ele>44.3580322</ele>
        <time>2016-10-02T08:55:29Z</time>
      </trkpt>
      <trkpt lat="44.67777" lon="-0.86661">
        <ele>45.7999268</ele>
        <time>2016-10-02T08:55:33Z</time>
      </trkpt>
      <trkpt lat="44.67782" lon="-0.8666">
        <ele>48.2033691</ele>
        <time>2016-10-02T08:55:35Z</time>
      </trkpt>
      <trkpt lat="44.67785" lon="-0.86651">
        <ele>48.2033691</ele>
        <time>2016-10-02T08:55:39Z</time>
      </trkpt>
      <trkpt lat="44.67792" lon="-0.86639">
        <ele>47.2418213</ele>
        <time>2016-10-02T08:55:44Z</time>
      </trkpt>
      <trkpt lat="44.6779" lon="-0.86633">
        <ele>46.2806396</ele>
        <time>2016-10-02T08:55:47Z</time>
      </trkpt>
      <trkpt lat="44.67785" lon="-0.86627">
        <ele>45.3192139</ele>
        <time>2016-10-02T08:55:51Z</time>
      </trkpt>
      <trkpt lat="44.67786" lon="-0.86623">
        <ele>45.7999268</ele>
        <time>2016-10-02T08:55:52Z</time>
      </trkpt>
      <trkpt lat="44.678" lon="-0.86613">
        <ele>42.9160156</ele>
        <time>2016-10-02T08:55:58Z</time>
      </trkpt>
      <trkpt lat="44.67803" lon="-0.86611">
        <ele>42.9160156</ele>
        <time>2016-10-02T08:55:59Z</time>
      </trkpt>
      <trkpt lat="44.67811" lon="-0.86619">
        <ele>44.838623</ele>
        <time>2016-10-02T08:56:03Z</time>
      </trkpt>
      <trkpt lat="44.67819" lon="-0.86625">
        <ele>47.2418213</ele>
        <time>2016-10-02T08:56:08Z</time>
      </trkpt>
      <trkpt lat="44.6782" lon="-0.86623">
        <ele>46.7612305</ele>
        <time>2016-10-02T08:56:09Z</time>
      </trkpt>
      <trkpt lat="44.67828" lon="-0.86611">
        <ele>45.3192139</ele>
        <time>2016-10-02T08:56:14Z</time>
      </trkpt>
      <trkpt lat="44.67833" lon="-0.86606">
        <ele>44.3580322</ele>
        <time>2016-10-02T08:56:16Z</time>
      </trkpt>
      <trkpt lat="44.67839" lon="-0.86594">
        <ele>43.3966064</ele>
        <time>2016-10-02T08:56:21Z</time>
      </trkpt>
      <trkpt lat="44.67848" lon="-0.86576">
        <ele>42.4354248</ele>
        <time>2016-10-02T08:56:27Z</time>
      </trkpt>
      <trkpt lat="44.6785" lon="-0.86573">
        <ele>42.4354248</ele>
        <time>2016-10-02T08:56:28Z</time>
      </trkpt>
      <trkpt lat="44.67855" lon="-0.86559">
        <ele>42.9160156</ele>
        <time>2016-10-02T08:56:32Z</time>
      </trkpt>
      <trkpt lat="44.67852" lon="-0.86535">
        <ele>42.9160156</ele>
        <time>2016-10-02T08:56:38Z</time>
      </trkpt>
      <trkpt lat="44.67848" lon="-0.86519">
        <ele>41.473999</ele>
        <time>2016-10-02T08:56:42Z</time>
      </trkpt>
      <trkpt lat="44.67844" lon="-0.86503">
        <ele>39.0706787</ele>
        <time>2016-10-02T08:56:46Z</time>
      </trkpt>
      <trkpt lat="44.67848" lon="-0.86492">
        <ele>39.5512695</ele>
        <time>2016-10-02T08:56:49Z</time>
      </trkpt>
      <trkpt lat="44.67852" lon="-0.86482">
        <ele>39.0706787</ele>
        <time>2016-10-02T08:56:53Z</time>
      </trkpt>
      <trkpt lat="44.67849" lon="-0.86473">
        <ele>39.0706787</ele>
        <time>2016-10-02T08:56:56Z</time>
      </trkpt>
      <trkpt lat="44.67854" lon="-0.86457">
        <ele>39.5512695</ele>
        <time>2016-10-02T08:57:01Z</time>
      </trkpt>
      <trkpt lat="44.67854" lon="-0.86449">
        <ele>39.0706787</ele>
        <time>2016-10-02T08:57:03Z</time>
      </trkpt>
      <trkpt lat="44.67851" lon="-0.86436">
        <ele>38.5900879</ele>
        <time>2016-10-02T08:57:06Z</time>
      </trkpt>
      <trkpt lat="44.67859" lon="-0.86418">
        <ele>40.0321045</ele>
        <time>2016-10-02T08:57:11Z</time>
      </trkpt>
      <trkpt lat="44.67874" lon="-0.86405">
        <ele>42.4354248</ele>
        <time>2016-10-02T08:57:17Z</time>
      </trkpt>
      <trkpt lat="44.67887" lon="-0.86392">
        <ele>42.4354248</ele>
        <time>2016-10-02T08:57:22Z</time>
      </trkpt>
      <trkpt lat="44.67902" lon="-0.86376">
        <ele>42.4354248</ele>
        <time>2016-10-02T08:57:28Z</time>
      </trkpt>
      <trkpt lat="44.67914" lon="-0.86358">
        <ele>41.473999</ele>
        <time>2016-10-02T08:57:34Z</time>
      </trkpt>
      <trkpt lat="44.67918" lon="-0.86348">
        <ele>40.9934082</ele>
        <time>2016-10-02T08:57:37Z</time>
      </trkpt>
      <trkpt lat="44.67918" lon="-0.86332">
        <ele>40.0321045</ele>
        <time>2016-10-02T08:57:41Z</time>
      </trkpt>
      <trkpt lat="44.67917" lon="-0.86318">
        <ele>39.5512695</ele>
        <time>2016-10-02T08:57:45Z</time>
      </trkpt>
      <trkpt lat="44.67927" lon="-0.86304">
        <ele>40.9934082</ele>
        <time>2016-10-02T08:57:50Z</time>
      </trkpt>
      <trkpt lat="44.67928" lon="-0.86297">
        <ele>40.5128174</ele>
        <time>2016-10-02T08:57:52Z</time>
      </trkpt>
      <trkpt lat="44.67929" lon="-0.86261">
        <ele>41.473999</ele>
        <time>2016-10-02T08:58:00Z</time>
      </trkpt>
      <trkpt lat="44.67937" lon="-0.8625">
        <ele>42.4354248</ele>
        <time>2016-10-02T08:58:04Z</time>
      </trkpt>
      <trkpt lat="44.67945" lon="-0.86238">
        <ele>43.8773193</ele>
        <time>2016-10-02T08:58:08Z</time>
      </trkpt>
      <trkpt lat="44.67946" lon="-0.86234">
        <ele>43.8773193</ele>
        <time>2016-10-02T08:58:09Z</time>
      </trkpt>
      <trkpt lat="44.67955" lon="-0.86214">
        <ele>45.3192139</ele>
        <time>2016-10-02T08:58:15Z</time>
      </trkpt>
      <trkpt lat="44.67959" lon="-0.86208">
        <ele>45.7999268</ele>
        <time>2016-10-02T08:58:17Z</time>
      </trkpt>
      <trkpt lat="44.67961" lon="-0.8619">
        <ele>44.3580322</ele>
        <time>2016-10-02T08:58:22Z</time>
      </trkpt>
      <trkpt lat="44.67962" lon="-0.86186">
        <ele>44.3580322</ele>
        <time>2016-10-02T08:58:23Z</time>
      </trkpt>
      <trkpt lat="44.67967" lon="-0.8617">
        <ele>43.8773193</ele>
        <time>2016-10-02T08:58:29Z</time>
      </trkpt>
      <trkpt lat="44.67968" lon="-0.86167">
        <ele>45.3192139</ele>
        <time>2016-10-02T08:58:34Z</time>
      </trkpt>
      <trkpt lat="44.67968" lon="-0.86167">
        <ele>45.7999268</ele>
        <time>2016-10-02T08:58:35Z</time>
      </trkpt>
      <trkpt lat="44.6797" lon="-0.86164">
        <ele>52.5291748</ele>
        <time>2016-10-02T08:59:16Z</time>
      </trkpt>
      <trkpt lat="44.6797" lon="-0.86164">
        <ele>52.5291748</ele>
        <time>2016-10-02T08:59:18Z</time>
      </trkpt>
      <trkpt lat="44.67957" lon="-0.86151">
        <ele>47.2418213</ele>
        <time>2016-10-02T08:59:33Z</time>
      </trkpt>
      <trkpt lat="44.67944" lon="-0.86142">
        <ele>45.7999268</ele>
        <time>2016-10-02T08:59:37Z</time>
      </trkpt>
      <trkpt lat="44.67923" lon="-0.86126">
        <ele>44.838623</ele>
        <time>2016-10-02T08:59:43Z</time>
      </trkpt>
      <trkpt lat="44.67899" lon="-0.86109">
        <ele>44.838623</ele>
        <time>2016-10-02T08:59:50Z</time>
      </trkpt>
      <trkpt lat="44.67884" lon="-0.86098">
        <ele>45.7999268</ele>
        <time>2016-10-02T08:59:54Z</time>
      </trkpt>
      <trkpt lat="44.67853" lon="-0.86078">
        <ele>46.2806396</ele>
        <time>2016-10-02T09:00:01Z</time>
      </trkpt>
      <trkpt lat="44.67819" lon="-0.86052">
        <ele>46.7612305</ele>
        <time>2016-10-02T09:00:08Z</time>
      </trkpt>
      <trkpt lat="44.67804" lon="-0.86042">
        <ele>47.2418213</ele>
        <time>2016-10-02T09:00:11Z</time>
      </trkpt>
      <trkpt lat="44.67789" lon="-0.86031">
        <ele>47.7225342</ele>
        <time>2016-10-02T09:00:14Z</time>
      </trkpt>
      <trkpt lat="44.67753" lon="-0.86003">
        <ele>48.68396</ele>
        <time>2016-10-02T09:00:21Z</time>
      </trkpt>
      <trkpt lat="44.67717" lon="-0.85977">
        <ele>47.7225342</ele>
        <time>2016-10-02T09:00:28Z</time>
      </trkpt>
      <trkpt lat="44.6767" lon="-0.85942">
        <ele>48.68396</ele>
        <time>2016-10-02T09:00:37Z</time>
      </trkpt>
      <trkpt lat="44.6763" lon="-0.85913">
        <ele>48.68396</ele>
        <time>2016-10-02T09:00:45Z</time>
      </trkpt>
      <trkpt lat="44.6762" lon="-0.85906">
        <ele>48.68396</ele>
        <time>2016-10-02T09:00:47Z</time>
      </trkpt>
      <trkpt lat="44.67582" lon="-0.85877">
        <ele>48.68396</ele>
        <time>2016-10-02T09:00:54Z</time>
      </trkpt>
      <trkpt lat="44.67555" lon="-0.85858">
        <ele>47.7225342</ele>
        <time>2016-10-02T09:00:59Z</time>
      </trkpt>
      <trkpt lat="44.67545" lon="-0.85848">
        <ele>48.2033691</ele>
        <time>2016-10-02T09:01:01Z</time>
      </trkpt>
      <trkpt lat="44.6752" lon="-0.85827">
        <ele>46.7612305</ele>
        <time>2016-10-02T09:01:06Z</time>
      </trkpt>
      <trkpt lat="44.67486" lon="-0.85806">
        <ele>46.2806396</ele>
        <time>2016-10-02T09:01:12Z</time>
      </trkpt>
      <trkpt lat="44.6748" lon="-0.85803">
        <ele>46.2806396</ele>
        <time>2016-10-02T09:01:13Z</time>
      </trkpt>
      <trkpt lat="44.6745" lon="-0.8578">
        <ele>47.7225342</ele>
        <time>2016-10-02T09:01:19Z</time>
      </trkpt>
      <trkpt lat="44.67434" lon="-0.85769">
        <ele>48.2033691</ele>
        <time>2016-10-02T09:01:22Z</time>
      </trkpt>
      <trkpt lat="44.674" lon="-0.85743">
        <ele>48.68396</ele>
        <time>2016-10-02T09:01:29Z</time>
      </trkpt>
      <trkpt lat="44.67384" lon="-0.85731">
        <ele>48.68396</ele>
        <time>2016-10-02T09:01:32Z</time>
      </trkpt>
      <trkpt lat="44.67343" lon="-0.85705">
        <ele>49.1645508</ele>
        <time>2016-10-02T09:01:40Z</time>
      </trkpt>
      <trkpt lat="44.67301" lon="-0.85676">
        <ele>50.1259766</ele>
        <time>2016-10-02T09:01:48Z</time>
      </trkpt>
      <trkpt lat="44.67253" lon="-0.85645">
        <ele>49.6452637</ele>
        <time>2016-10-02T09:01:57Z</time>
      </trkpt>
      <trkpt lat="44.6723" lon="-0.85629">
        <ele>49.6452637</ele>
        <time>2016-10-02T09:02:01Z</time>
      </trkpt>
      <trkpt lat="44.67184" lon="-0.85599">
        <ele>49.6452637</ele>
        <time>2016-10-02T09:02:09Z</time>
      </trkpt>
      <trkpt lat="44.67168" lon="-0.85588">
        <ele>49.6452637</ele>
        <time>2016-10-02T09:02:12Z</time>
      </trkpt>
      <trkpt lat="44.67146" lon="-0.85574">
        <ele>49.6452637</ele>
        <time>2016-10-02T09:02:16Z</time>
      </trkpt>
      <trkpt lat="44.67102" lon="-0.85546">
        <ele>50.1259766</ele>
        <time>2016-10-02T09:02:24Z</time>
      </trkpt>
      <trkpt lat="44.67076" lon="-0.85529">
        <ele>50.1259766</ele>
        <time>2016-10-02T09:02:29Z</time>
      </trkpt>
      <trkpt lat="44.67038" lon="-0.85508">
        <ele>51.0871582</ele>
        <time>2016-10-02T09:02:36Z</time>
      </trkpt>
      <trkpt lat="44.67015" lon="-0.85497">
        <ele>51.5678711</ele>
        <time>2016-10-02T09:02:41Z</time>
      </trkpt>
      <trkpt lat="44.66976" lon="-0.85472">
        <ele>50.6065674</ele>
        <time>2016-10-02T09:02:49Z</time>
      </trkpt>
      <trkpt lat="44.66937" lon="-0.8545">
        <ele>48.68396</ele>
        <time>2016-10-02T09:02:56Z</time>
      </trkpt>
      <trkpt lat="44.66908" lon="-0.85433">
        <ele>49.1645508</ele>
        <time>2016-10-02T09:03:01Z</time>
      </trkpt>
      <trkpt lat="44.66869" lon="-0.85408">
        <ele>48.68396</ele>
        <time>2016-10-02T09:03:08Z</time>
      </trkpt>
      <trkpt lat="44.66834" lon="-0.85388">
        <ele>47.2418213</ele>
        <time>2016-10-02T09:03:14Z</time>
      </trkpt>
      <trkpt lat="44.66783" lon="-0.85359">
        <ele>46.7612305</ele>
        <time>2016-10-02T09:03:23Z</time>
      </trkpt>
      <trkpt lat="44.66768" lon="-0.85348">
        <ele>47.2418213</ele>
        <time>2016-10-02T09:03:26Z</time>
      </trkpt>
      <trkpt lat="44.6672" lon="-0.85318">
        <ele>48.2033691</ele>
        <time>2016-10-02T09:03:35Z</time>
      </trkpt>
      <trkpt lat="44.66687" lon="-0.85298">
        <ele>48.68396</ele>
        <time>2016-10-02T09:03:41Z</time>
      </trkpt>
      <trkpt lat="44.66659" lon="-0.85281">
        <ele>48.68396</ele>
        <time>2016-10-02T09:03:46Z</time>
      </trkpt>
      <trkpt lat="44.66648" lon="-0.85272">
        <ele>49.1645508</ele>
        <time>2016-10-02T09:03:48Z</time>
      </trkpt>
      <trkpt lat="44.66626" lon="-0.85258">
        <ele>48.68396</ele>
        <time>2016-10-02T09:03:52Z</time>
      </trkpt>
      <trkpt lat="44.66615" lon="-0.85254">
        <ele>48.68396</ele>
        <time>2016-10-02T09:03:54Z</time>
      </trkpt>
      <trkpt lat="44.66599" lon="-0.85242">
        <ele>48.68396</ele>
        <time>2016-10-02T09:03:57Z</time>
      </trkpt>
      <trkpt lat="44.66576" lon="-0.8523">
        <ele>48.68396</ele>
        <time>2016-10-02T09:04:01Z</time>
      </trkpt>
      <trkpt lat="44.66558" lon="-0.8522">
        <ele>48.2033691</ele>
        <time>2016-10-02T09:04:04Z</time>
      </trkpt>
      <trkpt lat="44.66524" lon="-0.85201">
        <ele>47.7225342</ele>
        <time>2016-10-02T09:04:10Z</time>
      </trkpt>
      <trkpt lat="44.66497" lon="-0.85183">
        <ele>47.7225342</ele>
        <time>2016-10-02T09:04:15Z</time>
      </trkpt>
      <trkpt lat="44.66461" lon="-0.85164">
        <ele>47.7225342</ele>
        <time>2016-10-02T09:04:22Z</time>
      </trkpt>
      <trkpt lat="44.66432" lon="-0.85146">
        <ele>47.7225342</ele>
        <time>2016-10-02T09:04:28Z</time>
      </trkpt>
      <trkpt lat="44.66383" lon="-0.85119">
        <ele>48.2033691</ele>
        <time>2016-10-02T09:04:37Z</time>
      </trkpt>
      <trkpt lat="44.66377" lon="-0.85117">
        <ele>48.2033691</ele>
        <time>2016-10-02T09:04:38Z</time>
      </trkpt>
      <trkpt lat="44.66361" lon="-0.85111">
        <ele>48.2033691</ele>
        <time>2016-10-02T09:04:41Z</time>
      </trkpt>
      <trkpt lat="44.6635" lon="-0.85107">
        <ele>48.68396</ele>
        <time>2016-10-02T09:04:43Z</time>
      </trkpt>
      <trkpt lat="44.66324" lon="-0.85095">
        <ele>47.7225342</ele>
        <time>2016-10-02T09:04:48Z</time>
      </trkpt>
      <trkpt lat="44.663" lon="-0.85089">
        <ele>47.2418213</ele>
        <time>2016-10-02T09:04:53Z</time>
      </trkpt>
      <trkpt lat="44.66277" lon="-0.85083">
        <ele>47.2418213</ele>
        <time>2016-10-02T09:04:58Z</time>
      </trkpt>
      <trkpt lat="44.66237" lon="-0.85073">
        <ele>47.2418213</ele>
        <time>2016-10-02T09:05:05Z</time>
      </trkpt>
      <trkpt lat="44.66199" lon="-0.85062">
        <ele>47.7225342</ele>
        <time>2016-10-02T09:05:13Z</time>
      </trkpt>
      <trkpt lat="44.66191" lon="-0.8506">
        <ele>47.7225342</ele>
        <time>2016-10-02T09:05:15Z</time>
      </trkpt>
      <trkpt lat="44.66182" lon="-0.8506">
        <ele>48.2033691</ele>
        <time>2016-10-02T09:05:20Z</time>
      </trkpt>
      <trkpt lat="44.66182" lon="-0.8506">
        <ele>48.2033691</ele>
        <time>2016-10-02T09:05:22Z</time>
      </trkpt>
      <trkpt lat="44.66183" lon="-0.85074">
        <ele>47.2418213</ele>
        <time>2016-10-02T09:08:49Z</time>
      </trkpt>
      <trkpt lat="44.66185" lon="-0.85091">
        <ele>46.2806396</ele>
        <time>2016-10-02T09:08:53Z</time>
      </trkpt>
      <trkpt lat="44.66188" lon="-0.85128">
        <ele>45.3192139</ele>
        <time>2016-10-02T09:08:59Z</time>
      </trkpt>
      <trkpt lat="44.6619" lon="-0.85157">
        <ele>45.7999268</ele>
        <time>2016-10-02T09:09:03Z</time>
      </trkpt>
      <trkpt lat="44.66194" lon="-0.85177">
        <ele>48.2033691</ele>
        <time>2016-10-02T09:09:06Z</time>
      </trkpt>
      <trkpt lat="44.66198" lon="-0.85197">
        <ele>50.1259766</ele>
        <time>2016-10-02T09:09:09Z</time>
      </trkpt>
      <trkpt lat="44.66198" lon="-0.85224">
        <ele>49.6452637</ele>
        <time>2016-10-02T09:09:13Z</time>
      </trkpt>
      <trkpt lat="44.66195" lon="-0.85271">
        <ele>49.1645508</ele>
        <time>2016-10-02T09:09:19Z</time>
      </trkpt>
      <trkpt lat="44.66193" lon="-0.85305">
        <ele>48.2033691</ele>
        <time>2016-10-02T09:09:24Z</time>
      </trkpt>
      <trkpt lat="44.66191" lon="-0.85346">
        <ele>46.2806396</ele>
        <time>2016-10-02T09:09:29Z</time>
      </trkpt>
      <trkpt lat="44.66191" lon="-0.85352">
        <ele>46.2806396</ele>
        <time>2016-10-02T09:09:30Z</time>
      </trkpt>
      <trkpt lat="44.66169" lon="-0.85371">
        <ele>43.8773193</ele>
        <time>2016-10-02T09:09:34Z</time>
      </trkpt>
      <trkpt lat="44.66145" lon="-0.85404">
        <ele>44.838623</ele>
        <time>2016-10-02T09:09:38Z</time>
      </trkpt>
      <trkpt lat="44.66141" lon="-0.85426">
        <ele>45.3192139</ele>
        <time>2016-10-02T09:09:40Z</time>
      </trkpt>
      <trkpt lat="44.66134" lon="-0.85449">
        <ele>45.7999268</ele>
        <time>2016-10-02T09:09:42Z</time>
      </trkpt>
      <trkpt lat="44.66126" lon="-0.85478">
        <ele>44.3580322</ele>
        <time>2016-10-02T09:09:45Z</time>
      </trkpt>
      <trkpt lat="44.66112" lon="-0.85502">
        <ele>46.7612305</ele>
        <time>2016-10-02T09:09:49Z</time>
      </trkpt>
      <trkpt lat="44.66099" lon="-0.85511">
        <ele>47.2418213</ele>
        <time>2016-10-02T09:09:52Z</time>
      </trkpt>
      <trkpt lat="44.66089" lon="-0.85524">
        <ele>46.7612305</ele>
        <time>2016-10-02T09:09:55Z</time>
      </trkpt>
      <trkpt lat="44.66082" lon="-0.85535">
        <ele>45.7999268</ele>
        <time>2016-10-02T09:09:57Z</time>
      </trkpt>
      <trkpt lat="44.66072" lon="-0.85563">
        <ele>46.7612305</ele>
        <time>2016-10-02T09:10:03Z</time>
      </trkpt>
      <trkpt lat="44.66071" lon="-0.85567">
        <ele>46.2806396</ele>
        <time>2016-10-02T09:10:04Z</time>
      </trkpt>
      <trkpt lat="44.66065" lon="-0.85594">
        <ele>46.2806396</ele>
        <time>2016-10-02T09:10:10Z</time>
      </trkpt>
      <trkpt lat="44.66061" lon="-0.85627">
        <ele>43.3966064</ele>
        <time>2016-10-02T09:10:16Z</time>
      </trkpt>
      <trkpt lat="44.66057" lon="-0.85654">
        <ele>40.5128174</ele>
        <time>2016-10-02T09:10:22Z</time>
      </trkpt>
      <trkpt lat="44.66047" lon="-0.85676">
        <ele>40.5128174</ele>
        <time>2016-10-02T09:10:27Z</time>
      </trkpt>
      <trkpt lat="44.66033" lon="-0.85698">
        <ele>41.473999</ele>
        <time>2016-10-02T09:10:32Z</time>
      </trkpt>
      <trkpt lat="44.66029" lon="-0.85703">
        <ele>41.473999</ele>
        <time>2016-10-02T09:10:33Z</time>
      </trkpt>
      <trkpt lat="44.66021" lon="-0.85714">
        <ele>41.9547119</ele>
        <time>2016-10-02T09:10:35Z</time>
      </trkpt>
      <trkpt lat="44.6601" lon="-0.85723">
        <ele>41.9547119</ele>
        <time>2016-10-02T09:10:37Z</time>
      </trkpt>
      <trkpt lat="44.65989" lon="-0.85747">
        <ele>42.9160156</ele>
        <time>2016-10-02T09:10:41Z</time>
      </trkpt>
      <trkpt lat="44.65966" lon="-0.8578">
        <ele>40.9934082</ele>
        <time>2016-10-02T09:10:46Z</time>
      </trkpt>
      <trkpt lat="44.65947" lon="-0.8581">
        <ele>40.9934082</ele>
        <time>2016-10-02T09:10:51Z</time>
      </trkpt>
      <trkpt lat="44.65927" lon="-0.8582">
        <ele>40.5128174</ele>
        <time>2016-10-02T09:10:55Z</time>
      </trkpt>
      <trkpt lat="44.65901" lon="-0.85834">
        <ele>40.0321045</ele>
        <time>2016-10-02T09:11:00Z</time>
      </trkpt>
      <trkpt lat="44.65879" lon="-0.85869">
        <ele>40.0321045</ele>
        <time>2016-10-02T09:11:06Z</time>
      </trkpt>
      <trkpt lat="44.65864" lon="-0.85911">
        <ele>40.0321045</ele>
        <time>2016-10-02T09:11:12Z</time>
      </trkpt>
      <trkpt lat="44.65855" lon="-0.85929">
        <ele>40.0321045</ele>
        <time>2016-10-02T09:11:15Z</time>
      </trkpt>
      <trkpt lat="44.65837" lon="-0.85943">
        <ele>39.5512695</ele>
        <time>2016-10-02T09:11:19Z</time>
      </trkpt>
      <trkpt lat="44.65811" lon="-0.85953">
        <ele>40.0321045</ele>
        <time>2016-10-02T09:11:24Z</time>
      </trkpt>
      <trkpt lat="44.65783" lon="-0.85965">
        <ele>40.0321045</ele>
        <time>2016-10-02T09:11:30Z</time>
      </trkpt>
      <trkpt lat="44.65765" lon="-0.85974">
        <ele>40.5128174</ele>
        <time>2016-10-02T09:11:34Z</time>
      </trkpt>
      <trkpt lat="44.65737" lon="-0.85987">
        <ele>42.4354248</ele>
        <time>2016-10-02T09:11:40Z</time>
      </trkpt>
      <trkpt lat="44.65726" lon="-0.85992">
        <ele>41.9547119</ele>
        <time>2016-10-02T09:11:42Z</time>
      </trkpt>
      <trkpt lat="44.6571" lon="-0.85992">
        <ele>40.9934082</ele>
        <time>2016-10-02T09:11:46Z</time>
      </trkpt>
      <trkpt lat="44.6569" lon="-0.85993">
        <ele>41.473999</ele>
        <time>2016-10-02T09:11:53Z</time>
      </trkpt>
      <trkpt lat="44.65685" lon="-0.85995">
        <ele>40.9934082</ele>
        <time>2016-10-02T09:11:55Z</time>
      </trkpt>
      <trkpt lat="44.65673" lon="-0.86011">
        <ele>40.0321045</ele>
        <time>2016-10-02T09:12:01Z</time>
      </trkpt>
      <trkpt lat="44.65658" lon="-0.86036">
        <ele>39.5512695</ele>
        <time>2016-10-02T09:12:07Z</time>
      </trkpt>
      <trkpt lat="44.65646" lon="-0.86056">
        <ele>38.5900879</ele>
        <time>2016-10-02T09:12:11Z</time>
      </trkpt>
      <trkpt lat="44.65638" lon="-0.86068">
        <ele>39.0706787</ele>
        <time>2016-10-02T09:12:13Z</time>
      </trkpt>
      <trkpt lat="44.6562" lon="-0.8609">
        <ele>40.0321045</ele>
        <time>2016-10-02T09:12:18Z</time>
      </trkpt>
      <trkpt lat="44.65605" lon="-0.86109">
        <ele>39.5512695</ele>
        <time>2016-10-02T09:12:22Z</time>
      </trkpt>
      <trkpt lat="44.65589" lon="-0.8613">
        <ele>39.0706787</ele>
        <time>2016-10-02T09:12:26Z</time>
      </trkpt>
      <trkpt lat="44.65573" lon="-0.86147">
        <ele>37.6286621</ele>
        <time>2016-10-02T09:12:30Z</time>
      </trkpt>
      <trkpt lat="44.65556" lon="-0.86169">
        <ele>36.6674805</ele>
        <time>2016-10-02T09:12:34Z</time>
      </trkpt>
      <trkpt lat="44.65544" lon="-0.8618">
        <ele>37.1480713</ele>
        <time>2016-10-02T09:12:37Z</time>
      </trkpt>
      <trkpt lat="44.65524" lon="-0.86202">
        <ele>37.6286621</ele>
        <time>2016-10-02T09:12:42Z</time>
      </trkpt>
      <trkpt lat="44.65513" lon="-0.86211">
        <ele>37.6286621</ele>
        <time>2016-10-02T09:12:45Z</time>
      </trkpt>
      <trkpt lat="44.65502" lon="-0.8623">
        <ele>38.5900879</ele>
        <time>2016-10-02T09:12:50Z</time>
      </trkpt>
      <trkpt lat="44.65501" lon="-0.86231">
        <ele>38.5900879</ele>
        <time>2016-10-02T09:12:51Z</time>
      </trkpt>
      <trkpt lat="44.65499" lon="-0.86233">
        <ele>40.0321045</ele>
        <time>2016-10-02T09:12:56Z</time>
      </trkpt>
      <trkpt lat="44.65499" lon="-0.86221">
        <ele>39.0706787</ele>
        <time>2016-10-02T09:13:14Z</time>
      </trkpt>
      <trkpt lat="44.65495" lon="-0.86222">
        <ele>39.5512695</ele>
        <time>2016-10-02T09:13:17Z</time>
      </trkpt>
      <trkpt lat="44.65492" lon="-0.86226">
        <ele>39.5512695</ele>
        <time>2016-10-02T09:13:19Z</time>
      </trkpt>
      <trkpt lat="44.65478" lon="-0.8624">
        <ele>41.473999</ele>
        <time>2016-10-02T09:13:26Z</time>
      </trkpt>
      <trkpt lat="44.65463" lon="-0.86251">
        <ele>42.9160156</ele>
        <time>2016-10-02T09:13:32Z</time>
      </trkpt>
      <trkpt lat="44.65456" lon="-0.86255">
        <ele>44.3580322</ele>
        <time>2016-10-02T09:13:35Z</time>
      </trkpt>
      <trkpt lat="44.65455" lon="-0.86257">
        <ele>45.3192139</ele>
        <time>2016-10-02T09:13:38Z</time>
      </trkpt>
      <trkpt lat="44.6544" lon="-0.86262">
        <ele>49.1645508</ele>
        <time>2016-10-02T09:14:06Z</time>
      </trkpt>
      <trkpt lat="44.65423" lon="-0.86276">
        <ele>46.2806396</ele>
        <time>2016-10-02T09:14:11Z</time>
      </trkpt>
      <trkpt lat="44.65417" lon="-0.8628">
        <ele>45.7999268</ele>
        <time>2016-10-02T09:14:13Z</time>
      </trkpt>
      <trkpt lat="44.65413" lon="-0.86282">
        <ele>45.3192139</ele>
        <time>2016-10-02T09:14:14Z</time>
      </trkpt>
      <trkpt lat="44.65399" lon="-0.86295">
        <ele>44.3580322</ele>
        <time>2016-10-02T09:14:19Z</time>
      </trkpt>
      <trkpt lat="44.65395" lon="-0.86317">
        <ele>40.9934082</ele>
        <time>2016-10-02T09:14:25Z</time>
      </trkpt>
      <trkpt lat="44.65391" lon="-0.8633">
        <ele>40.9934082</ele>
        <time>2016-10-02T09:14:30Z</time>
      </trkpt>
      <trkpt lat="44.65381" lon="-0.86343">
        <ele>40.0321045</ele>
        <time>2016-10-02T09:14:34Z</time>
      </trkpt>
      <trkpt lat="44.65366" lon="-0.86334">
        <ele>37.1480713</ele>
        <time>2016-10-02T09:14:39Z</time>
      </trkpt>
      <trkpt lat="44.65363" lon="-0.86334">
        <ele>36.6674805</ele>
        <time>2016-10-02T09:14:40Z</time>
      </trkpt>
      <trkpt lat="44.65347" lon="-0.86332">
        <ele>35.7060547</ele>
        <time>2016-10-02T09:14:46Z</time>
      </trkpt>
      <trkpt lat="44.65343" lon="-0.86345">
        <ele>34.2641602</ele>
        <time>2016-10-02T09:14:50Z</time>
      </trkpt>
      <trkpt lat="44.65343" lon="-0.8635">
        <ele>33.7834473</ele>
        <time>2016-10-02T09:14:51Z</time>
      </trkpt>
      <trkpt lat="44.65343" lon="-0.86374">
        <ele>33.3028564</ele>
        <time>2016-10-02T09:14:56Z</time>
      </trkpt>
      <trkpt lat="44.65341" lon="-0.8638">
        <ele>33.3028564</ele>
        <time>2016-10-02T09:14:57Z</time>
      </trkpt>
      <trkpt lat="44.65342" lon="-0.864">
        <ele>33.3028564</ele>
        <time>2016-10-02T09:15:01Z</time>
      </trkpt>
      <trkpt lat="44.6535" lon="-0.86429">
        <ele>32.3415527</ele>
        <time>2016-10-02T09:15:06Z</time>
      </trkpt>
      <trkpt lat="44.65359" lon="-0.86444">
        <ele>31.8607178</ele>
        <time>2016-10-02T09:15:10Z</time>
      </trkpt>
      <trkpt lat="44.65366" lon="-0.86453">
        <ele>33.3028564</ele>
        <time>2016-10-02T09:15:14Z</time>
      </trkpt>
      <trkpt lat="44.6537" lon="-0.86453">
        <ele>34.744873</ele>
        <time>2016-10-02T09:15:16Z</time>
      </trkpt>
      <trkpt lat="44.65372" lon="-0.86453">
        <ele>35.2254639</ele>
        <time>2016-10-02T09:15:19Z</time>
      </trkpt>
      <trkpt lat="44.6537" lon="-0.86459">
        <ele>40.5128174</ele>
        <time>2016-10-02T09:15:35Z</time>
      </trkpt>
      <trkpt lat="44.65359" lon="-0.86451">
        <ele>38.5900879</ele>
        <time>2016-10-02T09:15:48Z</time>
      </trkpt>
      <trkpt lat="44.65353" lon="-0.86455">
        <ele>36.6674805</ele>
        <time>2016-10-02T09:15:51Z</time>
      </trkpt>
      <trkpt lat="44.65352" lon="-0.86459">
        <ele>35.7060547</ele>
        <time>2016-10-02T09:15:52Z</time>
      </trkpt>
      <trkpt lat="44.65345" lon="-0.86476">
        <ele>31.8607178</ele>
        <time>2016-10-02T09:15:58Z</time>
      </trkpt>
      <trkpt lat="44.65334" lon="-0.86485">
        <ele>28.9769287</ele>
        <time>2016-10-02T09:16:04Z</time>
      </trkpt>
      <trkpt lat="44.65332" lon="-0.86487">
        <ele>29.9381104</ele>
        <time>2016-10-02T09:16:08Z</time>
      </trkpt>
      <trkpt lat="44.65345" lon="-0.86471">
        <ele>36.1867676</ele>
        <time>2016-10-02T09:16:27Z</time>
      </trkpt>
      <trkpt lat="44.65356" lon="-0.86448">
        <ele>37.6286621</ele>
        <time>2016-10-02T09:16:35Z</time>
      </trkpt>
      <trkpt lat="44.65363" lon="-0.86451">
        <ele>38.5900879</ele>
        <time>2016-10-02T09:16:40Z</time>
      </trkpt>
      <trkpt lat="44.65366" lon="-0.86451">
        <ele>38.5900879</ele>
        <time>2016-10-02T09:16:41Z</time>
      </trkpt>
      <trkpt lat="44.65382" lon="-0.86457">
        <ele>43.8773193</ele>
        <time>2016-10-02T09:16:48Z</time>
      </trkpt>
      <trkpt lat="44.65389" lon="-0.86461">
        <ele>46.2806396</ele>
        <time>2016-10-02T09:16:53Z</time>
      </trkpt>
      <trkpt lat="44.65395" lon="-0.86469">
        <ele>48.68396</ele>
        <time>2016-10-02T09:16:57Z</time>
      </trkpt>
      <trkpt lat="44.65391" lon="-0.86472">
        <ele>48.68396</ele>
        <time>2016-10-02T09:17:01Z</time>
      </trkpt>
      <trkpt lat="44.65382" lon="-0.86475">
        <ele>44.838623</ele>
        <time>2016-10-02T09:17:05Z</time>
      </trkpt>
      <trkpt lat="44.65372" lon="-0.86487">
        <ele>38.109375</ele>
        <time>2016-10-02T09:17:11Z</time>
      </trkpt>
      <trkpt lat="44.65366" lon="-0.86491">
        <ele>35.7060547</ele>
        <time>2016-10-02T09:17:15Z</time>
      </trkpt>
      <trkpt lat="44.65361" lon="-0.86506">
        <ele>32.8222656</ele>
        <time>2016-10-02T09:17:21Z</time>
      </trkpt>
      <trkpt lat="44.6536" lon="-0.86517">
        <ele>31.8607178</ele>
        <time>2016-10-02T09:17:26Z</time>
      </trkpt>
      <trkpt lat="44.6536" lon="-0.86522">
        <ele>29.9381104</ele>
        <time>2016-10-02T09:17:28Z</time>
      </trkpt>
      <trkpt lat="44.65364" lon="-0.86531">
        <ele>29.9381104</ele>
        <time>2016-10-02T09:17:32Z</time>
      </trkpt>
      <trkpt lat="44.65366" lon="-0.86536">
        <ele>33.3028564</ele>
        <time>2016-10-02T09:17:35Z</time>
      </trkpt>
      <trkpt lat="44.65367" lon="-0.86537">
        <ele>35.2254639</ele>
        <time>2016-10-02T09:17:38Z</time>
      </trkpt>
      <trkpt lat="44.6538" lon="-0.86547">
        <ele>41.9547119</ele>
        <time>2016-10-02T09:17:49Z</time>
      </trkpt>
      <trkpt lat="44.65381" lon="-0.86548">
        <ele>42.4354248</ele>
        <time>2016-10-02T09:17:50Z</time>
      </trkpt>
      <trkpt lat="44.65386" lon="-0.86542">
        <ele>45.3192139</ele>
        <time>2016-10-02T09:17:55Z</time>
      </trkpt>
      <trkpt lat="44.6539" lon="-0.86532">
        <ele>47.7225342</ele>
        <time>2016-10-02T09:18:01Z</time>
      </trkpt>
      <trkpt lat="44.65394" lon="-0.86525">
        <ele>46.7612305</ele>
        <time>2016-10-02T09:18:05Z</time>
      </trkpt>
      <trkpt lat="44.65403" lon="-0.86525">
        <ele>50.1259766</ele>
        <time>2016-10-02T09:18:10Z</time>
      </trkpt>
      <trkpt lat="44.65404" lon="-0.86527">
        <ele>50.1259766</ele>
        <time>2016-10-02T09:18:11Z</time>
      </trkpt>
      <trkpt lat="44.65414" lon="-0.86547">
        <ele>43.8773193</ele>
        <time>2016-10-02T09:18:19Z</time>
      </trkpt>
      <trkpt lat="44.65424" lon="-0.86556">
        <ele>40.5128174</ele>
        <time>2016-10-02T09:18:24Z</time>
      </trkpt>
      <trkpt lat="44.65433" lon="-0.86556">
        <ele>42.4354248</ele>
        <time>2016-10-02T09:18:28Z</time>
      </trkpt>
      <trkpt lat="44.6544" lon="-0.86558">
        <ele>40.9934082</ele>
        <time>2016-10-02T09:18:34Z</time>
      </trkpt>
      <trkpt lat="44.65439" lon="-0.86558">
        <ele>37.1480713</ele>
        <time>2016-10-02T09:18:39Z</time>
      </trkpt>
      <trkpt lat="44.65459" lon="-0.86564">
        <ele>32.8222656</ele>
        <time>2016-10-02T09:19:49Z</time>
      </trkpt>
      <trkpt lat="44.65469" lon="-0.86562">
        <ele>34.2641602</ele>
        <time>2016-10-02T09:19:52Z</time>
      </trkpt>
      <trkpt lat="44.65487" lon="-0.86557">
        <ele>36.1867676</ele>
        <time>2016-10-02T09:19:57Z</time>
      </trkpt>
      <trkpt lat="44.65491" lon="-0.86557">
        <ele>37.1480713</ele>
        <time>2016-10-02T09:19:58Z</time>
      </trkpt>
      <trkpt lat="44.65507" lon="-0.8657">
        <ele>37.6286621</ele>
        <time>2016-10-02T09:20:03Z</time>
      </trkpt>
      <trkpt lat="44.65523" lon="-0.86579">
        <ele>35.7060547</ele>
        <time>2016-10-02T09:20:08Z</time>
      </trkpt>
      <trkpt lat="44.6554" lon="-0.86586">
        <ele>34.744873</ele>
        <time>2016-10-02T09:20:12Z</time>
      </trkpt>
      <trkpt lat="44.65553" lon="-0.86596">
        <ele>35.2254639</ele>
        <time>2016-10-02T09:20:16Z</time>
      </trkpt>
      <trkpt lat="44.65564" lon="-0.86612">
        <ele>35.2254639</ele>
        <time>2016-10-02T09:20:19Z</time>
      </trkpt>
      <trkpt lat="44.65571" lon="-0.86624">
        <ele>35.7060547</ele>
        <time>2016-10-02T09:20:21Z</time>
      </trkpt>
      <trkpt lat="44.65575" lon="-0.8664">
        <ele>36.1867676</ele>
        <time>2016-10-02T09:20:24Z</time>
      </trkpt>
      <trkpt lat="44.65584" lon="-0.86654">
        <ele>35.2254639</ele>
        <time>2016-10-02T09:20:28Z</time>
      </trkpt>
      <trkpt lat="44.65588" lon="-0.86658">
        <ele>35.2254639</ele>
        <time>2016-10-02T09:20:31Z</time>
      </trkpt>
      <trkpt lat="44.6559" lon="-0.86666">
        <ele>35.7060547</ele>
        <time>2016-10-02T09:20:36Z</time>
      </trkpt>
      <trkpt lat="44.65597" lon="-0.86673">
        <ele>40.0321045</ele>
        <time>2016-10-02T09:20:42Z</time>
      </trkpt>
      <trkpt lat="44.65597" lon="-0.86675">
        <ele>40.5128174</ele>
        <time>2016-10-02T09:20:43Z</time>
      </trkpt>
      <trkpt lat="44.65598" lon="-0.86684">
        <ele>39.0706787</ele>
        <time>2016-10-02T09:20:49Z</time>
      </trkpt>
      <trkpt lat="44.65597" lon="-0.86691">
        <ele>38.5900879</ele>
        <time>2016-10-02T09:20:51Z</time>
      </trkpt>
      <trkpt lat="44.65593" lon="-0.8672">
        <ele>37.1480713</ele>
        <time>2016-10-02T09:20:58Z</time>
      </trkpt>
      <trkpt lat="44.65586" lon="-0.86746">
        <ele>37.1480713</ele>
        <time>2016-10-02T09:21:04Z</time>
      </trkpt>
      <trkpt lat="44.65578" lon="-0.86757">
        <ele>37.1480713</ele>
        <time>2016-10-02T09:21:09Z</time>
      </trkpt>
      <trkpt lat="44.65562" lon="-0.86769">
        <ele>37.6286621</ele>
        <time>2016-10-02T09:21:15Z</time>
      </trkpt>
      <trkpt lat="44.6554" lon="-0.86783">
        <ele>37.1480713</ele>
        <time>2016-10-02T09:21:22Z</time>
      </trkpt>
      <trkpt lat="44.65535" lon="-0.86788">
        <ele>37.1480713</ele>
        <time>2016-10-02T09:21:25Z</time>
      </trkpt>
      <trkpt lat="44.65535" lon="-0.86788">
        <ele>38.109375</ele>
        <time>2016-10-02T09:21:27Z</time>
      </trkpt>
      <trkpt lat="44.65518" lon="-0.86785">
        <ele>41.473999</ele>
        <time>2016-10-02T09:22:09Z</time>
      </trkpt>
      <trkpt lat="44.65504" lon="-0.86776">
        <ele>38.109375</ele>
        <time>2016-10-02T09:22:13Z</time>
      </trkpt>
      <trkpt lat="44.65493" lon="-0.86759">
        <ele>35.2254639</ele>
        <time>2016-10-02T09:22:16Z</time>
      </trkpt>
      <trkpt lat="44.65473" lon="-0.86752">
        <ele>31.8607178</ele>
        <time>2016-10-02T09:22:20Z</time>
      </trkpt>
      <trkpt lat="44.65448" lon="-0.86757">
        <ele>28.9769287</ele>
        <time>2016-10-02T09:22:24Z</time>
      </trkpt>
      <trkpt lat="44.6544" lon="-0.86759">
        <ele>28.9769287</ele>
        <time>2016-10-02T09:22:27Z</time>
      </trkpt>
      <trkpt lat="44.65438" lon="-0.86761">
        <ele>30.8995361</ele>
        <time>2016-10-02T09:22:31Z</time>
      </trkpt>
      <trkpt lat="44.65431" lon="-0.86783">
        <ele>33.7834473</ele>
        <time>2016-10-02T09:22:50Z</time>
      </trkpt>
      <trkpt lat="44.65433" lon="-0.86788">
        <ele>34.2641602</ele>
        <time>2016-10-02T09:22:52Z</time>
      </trkpt>
      <trkpt lat="44.65441" lon="-0.86804">
        <ele>31.8607178</ele>
        <time>2016-10-02T09:22:58Z</time>
      </trkpt>
      <trkpt lat="44.65444" lon="-0.86807">
        <ele>31.380127</ele>
        <time>2016-10-02T09:22:59Z</time>
      </trkpt>
      <trkpt lat="44.65439" lon="-0.86824">
        <ele>30.4188232</ele>
        <time>2016-10-02T09:23:04Z</time>
      </trkpt>
      <trkpt lat="44.65435" lon="-0.86834">
        <ele>30.4188232</ele>
        <time>2016-10-02T09:23:08Z</time>
      </trkpt>
      <trkpt lat="44.65435" lon="-0.86836">
        <ele>30.8995361</ele>
        <time>2016-10-02T09:23:09Z</time>
      </trkpt>
      <trkpt lat="44.65433" lon="-0.86838">
        <ele>30.8995361</ele>
        <time>2016-10-02T09:23:11Z</time>
      </trkpt>
      <trkpt lat="44.6543" lon="-0.86851">
        <ele>33.7834473</ele>
        <time>2016-10-02T09:23:17Z</time>
      </trkpt>
      <trkpt lat="44.65428" lon="-0.86871">
        <ele>33.7834473</ele>
        <time>2016-10-02T09:23:24Z</time>
      </trkpt>
      <trkpt lat="44.65422" lon="-0.86883">
        <ele>29.9381104</ele>
        <time>2016-10-02T09:23:29Z</time>
      </trkpt>
      <trkpt lat="44.65418" lon="-0.86886">
        <ele>29.4575195</ele>
        <time>2016-10-02T09:23:31Z</time>
      </trkpt>
      <trkpt lat="44.65415" lon="-0.86896">
        <ele>28.0155029</ele>
        <time>2016-10-02T09:23:35Z</time>
      </trkpt>
      <trkpt lat="44.65408" lon="-0.86907">
        <ele>30.4188232</ele>
        <time>2016-10-02T09:23:45Z</time>
      </trkpt>
      <trkpt lat="44.65407" lon="-0.86908">
        <ele>30.8995361</ele>
        <time>2016-10-02T09:23:46Z</time>
      </trkpt>
      <trkpt lat="44.65405" lon="-0.86914">
        <ele>29.9381104</ele>
        <time>2016-10-02T09:23:51Z</time>
      </trkpt>
      <trkpt lat="44.65405" lon="-0.86919">
        <ele>30.4188232</ele>
        <time>2016-10-02T09:23:55Z</time>
      </trkpt>
      <trkpt lat="44.6541" lon="-0.8692">
        <ele>34.2641602</ele>
        <time>2016-10-02T09:24:00Z</time>
      </trkpt>
      <trkpt lat="44.6541" lon="-0.86919">
        <ele>34.744873</ele>
        <time>2016-10-02T09:24:01Z</time>
      </trkpt>
      <trkpt lat="44.65411" lon="-0.8692">
        <ele>34.2641602</ele>
        <time>2016-10-02T09:24:04Z</time>
      </trkpt>
      <trkpt lat="44.6541" lon="-0.86946">
        <ele>38.109375</ele>
        <time>2016-10-02T09:25:05Z</time>
      </trkpt>
      <trkpt lat="44.65415" lon="-0.86948">
        <ele>38.109375</ele>
        <time>2016-10-02T09:25:09Z</time>
      </trkpt>
      <trkpt lat="44.65418" lon="-0.8695">
        <ele>40.5128174</ele>
        <time>2016-10-02T09:25:14Z</time>
      </trkpt>
      <trkpt lat="44.6542" lon="-0.86953">
        <ele>40.5128174</ele>
        <time>2016-10-02T09:25:17Z</time>
      </trkpt>
      <trkpt lat="44.65425" lon="-0.86961">
        <ele>40.0321045</ele>
        <time>2016-10-02T09:25:23Z</time>
      </trkpt>
      <trkpt lat="44.65434" lon="-0.86968">
        <ele>38.109375</ele>
        <time>2016-10-02T09:25:29Z</time>
      </trkpt>
      <trkpt lat="44.6544" lon="-0.86968">
        <ele>37.1480713</ele>
        <time>2016-10-02T09:25:32Z</time>
      </trkpt>
      <trkpt lat="44.65453" lon="-0.86962">
        <ele>35.7060547</ele>
        <time>2016-10-02T09:25:39Z</time>
      </trkpt>
      <trkpt lat="44.65454" lon="-0.86963">
        <ele>35.2254639</ele>
        <time>2016-10-02T09:25:40Z</time>
      </trkpt>
      <trkpt lat="44.65458" lon="-0.86969">
        <ele>32.8222656</ele>
        <time>2016-10-02T09:25:44Z</time>
      </trkpt>
      <trkpt lat="44.65462" lon="-0.86983">
        <ele>34.2641602</ele>
        <time>2016-10-02T09:25:50Z</time>
      </trkpt>
      <trkpt lat="44.65465" lon="-0.86994">
        <ele>32.8222656</ele>
        <time>2016-10-02T09:25:54Z</time>
      </trkpt>
      <trkpt lat="44.65474" lon="-0.87007">
        <ele>32.3415527</ele>
        <time>2016-10-02T09:25:57Z</time>
      </trkpt>
      <trkpt lat="44.65475" lon="-0.8701">
        <ele>30.8995361</ele>
        <time>2016-10-02T09:26:00Z</time>
      </trkpt>
      <trkpt lat="44.65496" lon="-0.87047">
        <ele>29.9381104</ele>
        <time>2016-10-02T09:26:42Z</time>
      </trkpt>
      <trkpt lat="44.65499" lon="-0.87059">
        <ele>30.8995361</ele>
        <time>2016-10-02T09:26:45Z</time>
      </trkpt>
      <trkpt lat="44.65504" lon="-0.87071">
        <ele>32.8222656</ele>
        <time>2016-10-02T09:26:50Z</time>
      </trkpt>
      <trkpt lat="44.65506" lon="-0.87072">
        <ele>32.8222656</ele>
        <time>2016-10-02T09:26:51Z</time>
      </trkpt>
      <trkpt lat="44.6551" lon="-0.87074">
        <ele>32.8222656</ele>
        <time>2016-10-02T09:26:53Z</time>
      </trkpt>
      <trkpt lat="44.65515" lon="-0.87092">
        <ele>34.2641602</ele>
        <time>2016-10-02T09:26:58Z</time>
      </trkpt>
      <trkpt lat="44.65516" lon="-0.87094">
        <ele>34.2641602</ele>
        <time>2016-10-02T09:26:59Z</time>
      </trkpt>
      <trkpt lat="44.65521" lon="-0.87111">
        <ele>34.744873</ele>
        <time>2016-10-02T09:27:06Z</time>
      </trkpt>
      <trkpt lat="44.65525" lon="-0.87126">
        <ele>35.2254639</ele>
        <time>2016-10-02T09:27:11Z</time>
      </trkpt>
      <trkpt lat="44.65527" lon="-0.87134">
        <ele>35.2254639</ele>
        <time>2016-10-02T09:27:16Z</time>
      </trkpt>
      <trkpt lat="44.6553" lon="-0.87142">
        <ele>35.2254639</ele>
        <time>2016-10-02T09:27:20Z</time>
      </trkpt>
      <trkpt lat="44.65539" lon="-0.87167">
        <ele>35.7060547</ele>
        <time>2016-10-02T09:27:26Z</time>
      </trkpt>
      <trkpt lat="44.6555" lon="-0.87197">
        <ele>35.7060547</ele>
        <time>2016-10-02T09:27:32Z</time>
      </trkpt>
      <trkpt lat="44.65556" lon="-0.87212">
        <ele>35.2254639</ele>
        <time>2016-10-02T09:27:36Z</time>
      </trkpt>
      <trkpt lat="44.65566" lon="-0.87225">
        <ele>34.744873</ele>
        <time>2016-10-02T09:27:41Z</time>
      </trkpt>
      <trkpt lat="44.65571" lon="-0.87241">
        <ele>33.3028564</ele>
        <time>2016-10-02T09:27:46Z</time>
      </trkpt>
      <trkpt lat="44.65572" lon="-0.87244">
        <ele>32.8222656</ele>
        <time>2016-10-02T09:27:47Z</time>
      </trkpt>
      <trkpt lat="44.65564" lon="-0.87261">
        <ele>31.380127</ele>
        <time>2016-10-02T09:27:52Z</time>
      </trkpt>
      <trkpt lat="44.65547" lon="-0.87265">
        <ele>29.9381104</ele>
        <time>2016-10-02T09:27:57Z</time>
      </trkpt>
      <trkpt lat="44.65538" lon="-0.87264">
        <ele>28.9769287</ele>
        <time>2016-10-02T09:28:00Z</time>
      </trkpt>
      <trkpt lat="44.65529" lon="-0.87268">
        <ele>28.9769287</ele>
        <time>2016-10-02T09:28:03Z</time>
      </trkpt>
      <trkpt lat="44.65526" lon="-0.87281">
        <ele>28.4962158</ele>
        <time>2016-10-02T09:28:08Z</time>
      </trkpt>
      <trkpt lat="44.65527" lon="-0.873">
        <ele>29.9381104</ele>
        <time>2016-10-02T09:28:15Z</time>
      </trkpt>
      <trkpt lat="44.65526" lon="-0.87317">
        <ele>27.5349121</ele>
        <time>2016-10-02T09:28:20Z</time>
      </trkpt>
      <trkpt lat="44.65527" lon="-0.87327">
        <ele>28.4962158</ele>
        <time>2016-10-02T09:28:25Z</time>
      </trkpt>
      <trkpt lat="44.65526" lon="-0.8733">
        <ele>28.9769287</ele>
        <time>2016-10-02T09:28:26Z</time>
      </trkpt>
      <trkpt lat="44.65527" lon="-0.87343">
        <ele>30.4188232</ele>
        <time>2016-10-02T09:28:32Z</time>
      </trkpt>
      <trkpt lat="44.65529" lon="-0.87364">
        <ele>31.380127</ele>
        <time>2016-10-02T09:28:37Z</time>
      </trkpt>
      <trkpt lat="44.65528" lon="-0.87385">
        <ele>31.380127</ele>
        <time>2016-10-02T09:28:41Z</time>
      </trkpt>
      <trkpt lat="44.65522" lon="-0.87425">
        <ele>31.8607178</ele>
        <time>2016-10-02T09:28:47Z</time>
      </trkpt>
      <trkpt lat="44.65524" lon="-0.87435">
        <ele>31.380127</ele>
        <time>2016-10-02T09:28:49Z</time>
      </trkpt>
      <trkpt lat="44.65523" lon="-0.87461">
        <ele>30.8995361</ele>
        <time>2016-10-02T09:28:54Z</time>
      </trkpt>
      <trkpt lat="44.65522" lon="-0.87466">
        <ele>32.8222656</ele>
        <time>2016-10-02T09:28:58Z</time>
      </trkpt>
      <trkpt lat="44.65518" lon="-0.87474">
        <ele>39.0706787</ele>
        <time>2016-10-02T09:29:10Z</time>
      </trkpt>
      <trkpt lat="44.65497" lon="-0.8748">
        <ele>37.6286621</ele>
        <time>2016-10-02T09:29:31Z</time>
      </trkpt>
      <trkpt lat="44.65482" lon="-0.8749">
        <ele>37.1480713</ele>
        <time>2016-10-02T09:29:36Z</time>
      </trkpt>
      <trkpt lat="44.65465" lon="-0.87507">
        <ele>35.7060547</ele>
        <time>2016-10-02T09:29:43Z</time>
      </trkpt>
      <trkpt lat="44.65461" lon="-0.8751">
        <ele>34.744873</ele>
        <time>2016-10-02T09:29:49Z</time>
      </trkpt>
      <trkpt lat="44.6546" lon="-0.8751">
        <ele>34.744873</ele>
        <time>2016-10-02T09:29:50Z</time>
      </trkpt>
      <trkpt lat="44.65445" lon="-0.87505">
        <ele>33.3028564</ele>
        <time>2016-10-02T09:29:56Z</time>
      </trkpt>
      <trkpt lat="44.65429" lon="-0.875">
        <ele>33.3028564</ele>
        <time>2016-10-02T09:30:01Z</time>
      </trkpt>
      <trkpt lat="44.65414" lon="-0.875">
        <ele>32.8222656</ele>
        <time>2016-10-02T09:30:05Z</time>
      </trkpt>
      <trkpt lat="44.65394" lon="-0.87506">
        <ele>32.8222656</ele>
        <time>2016-10-02T09:30:10Z</time>
      </trkpt>
      <trkpt lat="44.65371" lon="-0.87516">
        <ele>29.9381104</ele>
        <time>2016-10-02T09:30:16Z</time>
      </trkpt>
      <trkpt lat="44.65359" lon="-0.87523">
        <ele>29.9381104</ele>
        <time>2016-10-02T09:30:19Z</time>
      </trkpt>
      <trkpt lat="44.65352" lon="-0.8753">
        <ele>29.9381104</ele>
        <time>2016-10-02T09:30:21Z</time>
      </trkpt>
      <trkpt lat="44.65338" lon="-0.87538">
        <ele>29.4575195</ele>
        <time>2016-10-02T09:30:25Z</time>
      </trkpt>
      <trkpt lat="44.65318" lon="-0.8755">
        <ele>28.0155029</ele>
        <time>2016-10-02T09:30:31Z</time>
      </trkpt>
      <trkpt lat="44.65298" lon="-0.87559">
        <ele>27.5349121</ele>
        <time>2016-10-02T09:30:37Z</time>
      </trkpt>
      <trkpt lat="44.65275" lon="-0.87567">
        <ele>27.0543213</ele>
        <time>2016-10-02T09:30:43Z</time>
      </trkpt>
      <trkpt lat="44.6526" lon="-0.87571">
        <ele>27.5349121</ele>
        <time>2016-10-02T09:30:48Z</time>
      </trkpt>
      <trkpt lat="44.65241" lon="-0.87577">
        <ele>28.4962158</ele>
        <time>2016-10-02T09:30:54Z</time>
      </trkpt>
      <trkpt lat="44.65228" lon="-0.87572">
        <ele>28.9769287</ele>
        <time>2016-10-02T09:30:58Z</time>
      </trkpt>
      <trkpt lat="44.6521" lon="-0.87562">
        <ele>27.0543213</ele>
        <time>2016-10-02T09:31:04Z</time>
      </trkpt>
      <trkpt lat="44.65189" lon="-0.87553">
        <ele>25.6123047</ele>
        <time>2016-10-02T09:31:10Z</time>
      </trkpt>
      <trkpt lat="44.65176" lon="-0.87547">
        <ele>25.6123047</ele>
        <time>2016-10-02T09:31:16Z</time>
      </trkpt>
      <trkpt lat="44.65176" lon="-0.87536">
        <ele>27.0543213</ele>
        <time>2016-10-02T09:31:21Z</time>
      </trkpt>
      <trkpt lat="44.65176" lon="-0.87526">
        <ele>29.4575195</ele>
        <time>2016-10-02T09:31:25Z</time>
      </trkpt>
      <trkpt lat="44.65178" lon="-0.87512">
        <ele>36.6674805</ele>
        <time>2016-10-02T09:31:32Z</time>
      </trkpt>
      <trkpt lat="44.65186" lon="-0.87504">
        <ele>35.7060547</ele>
        <time>2016-10-02T09:31:39Z</time>
      </trkpt>
      <trkpt lat="44.65193" lon="-0.87495">
        <ele>37.1480713</ele>
        <time>2016-10-02T09:31:46Z</time>
      </trkpt>
      <trkpt lat="44.65195" lon="-0.87493">
        <ele>38.109375</ele>
        <time>2016-10-02T09:31:48Z</time>
      </trkpt>
      <trkpt lat="44.65196" lon="-0.87491">
        <ele>38.5900879</ele>
        <time>2016-10-02T09:31:51Z</time>
      </trkpt>
      <trkpt lat="44.65195" lon="-0.87489">
        <ele>38.5900879</ele>
        <time>2016-10-02T09:31:53Z</time>
      </trkpt>
      <trkpt lat="44.65195" lon="-0.87475">
        <ele>38.109375</ele>
        <time>2016-10-02T09:31:59Z</time>
      </trkpt>
      <trkpt lat="44.65191" lon="-0.87465">
        <ele>34.744873</ele>
        <time>2016-10-02T09:32:03Z</time>
      </trkpt>
      <trkpt lat="44.65195" lon="-0.87461">
        <ele>34.744873</ele>
        <time>2016-10-02T09:32:06Z</time>
      </trkpt>
      <trkpt lat="44.65201" lon="-0.87458">
        <ele>34.744873</ele>
        <time>2016-10-02T09:32:13Z</time>
      </trkpt>
      <trkpt lat="44.65204" lon="-0.87457">
        <ele>36.1867676</ele>
        <time>2016-10-02T09:32:18Z</time>
      </trkpt>
      <trkpt lat="44.65205" lon="-0.87448">
        <ele>34.744873</ele>
        <time>2016-10-02T09:32:25Z</time>
      </trkpt>
      <trkpt lat="44.65209" lon="-0.87432">
        <ele>32.3415527</ele>
        <time>2016-10-02T09:32:29Z</time>
      </trkpt>
      <trkpt lat="44.6522" lon="-0.87409">
        <ele>28.4962158</ele>
        <time>2016-10-02T09:32:34Z</time>
      </trkpt>
      <trkpt lat="44.65221" lon="-0.87405">
        <ele>27.5349121</ele>
        <time>2016-10-02T09:32:35Z</time>
      </trkpt>
      <trkpt lat="44.65216" lon="-0.87401">
        <ele>24.651001</ele>
        <time>2016-10-02T09:32:39Z</time>
      </trkpt>
      <trkpt lat="44.65216" lon="-0.87398">
        <ele>27.0543213</ele>
        <time>2016-10-02T09:32:44Z</time>
      </trkpt>
      <trkpt lat="44.65193" lon="-0.87397">
        <ele>26.0928955</ele>
        <time>2016-10-02T09:33:37Z</time>
      </trkpt>
      <trkpt lat="44.65178" lon="-0.87406">
        <ele>25.6123047</ele>
        <time>2016-10-02T09:33:42Z</time>
      </trkpt>
      <trkpt lat="44.65159" lon="-0.8742">
        <ele>25.6123047</ele>
        <time>2016-10-02T09:33:47Z</time>
      </trkpt>
      <trkpt lat="44.65143" lon="-0.87431">
        <ele>25.6123047</ele>
        <time>2016-10-02T09:33:51Z</time>
      </trkpt>
      <trkpt lat="44.65123" lon="-0.87443">
        <ele>23.6895752</ele>
        <time>2016-10-02T09:33:56Z</time>
      </trkpt>
      <trkpt lat="44.65107" lon="-0.87451">
        <ele>21.286377</ele>
        <time>2016-10-02T09:34:00Z</time>
      </trkpt>
      <trkpt lat="44.65096" lon="-0.87456">
        <ele>20.8056641</ele>
        <time>2016-10-02T09:34:03Z</time>
      </trkpt>
      <trkpt lat="44.65079" lon="-0.87471">
        <ele>19.3637695</ele>
        <time>2016-10-02T09:34:10Z</time>
      </trkpt>
      <trkpt lat="44.65074" lon="-0.87471">
        <ele>19.3637695</ele>
        <time>2016-10-02T09:34:15Z</time>
      </trkpt>
      <trkpt lat="44.65074" lon="-0.87471">
        <ele>19.3637695</ele>
        <time>2016-10-02T09:34:16Z</time>
      </trkpt>
      <trkpt lat="44.65067" lon="-0.87444">
        <ele>19.3637695</ele>
        <time>2016-10-02T09:34:50Z</time>
      </trkpt>
      <trkpt lat="44.65059" lon="-0.87418">
        <ele>19.3637695</ele>
        <time>2016-10-02T09:34:54Z</time>
      </trkpt>
      <trkpt lat="44.65053" lon="-0.87395">
        <ele>19.8443604</ele>
        <time>2016-10-02T09:34:57Z</time>
      </trkpt>
      <trkpt lat="44.65044" lon="-0.87358">
        <ele>22.2475586</ele>
        <time>2016-10-02T09:35:02Z</time>
      </trkpt>
      <trkpt lat="44.65034" lon="-0.87314">
        <ele>23.2089844</ele>
        <time>2016-10-02T09:35:08Z</time>
      </trkpt>
      <trkpt lat="44.65033" lon="-0.87306">
        <ele>23.6895752</ele>
        <time>2016-10-02T09:35:09Z</time>
      </trkpt>
      <trkpt lat="44.65035" lon="-0.87274">
        <ele>24.651001</ele>
        <time>2016-10-02T09:35:13Z</time>
      </trkpt>
      <trkpt lat="44.6503" lon="-0.87245">
        <ele>25.1317139</ele>
        <time>2016-10-02T09:35:18Z</time>
      </trkpt>
      <trkpt lat="44.6502" lon="-0.87227">
        <ele>25.6123047</ele>
        <time>2016-10-02T09:35:22Z</time>
      </trkpt>
      <trkpt lat="44.65003" lon="-0.87216">
        <ele>26.0928955</ele>
        <time>2016-10-02T09:35:27Z</time>
      </trkpt>
      <trkpt lat="44.64981" lon="-0.87224">
        <ele>27.0543213</ele>
        <time>2016-10-02T09:35:31Z</time>
      </trkpt>
      <trkpt lat="44.64942" lon="-0.87238">
        <ele>30.8995361</ele>
        <time>2016-10-02T09:35:37Z</time>
      </trkpt>
      <trkpt lat="44.64929" lon="-0.87241">
        <ele>32.3415527</ele>
        <time>2016-10-02T09:35:39Z</time>
      </trkpt>
      <trkpt lat="44.64908" lon="-0.87244">
        <ele>33.7834473</ele>
        <time>2016-10-02T09:35:42Z</time>
      </trkpt>
      <trkpt lat="44.64898" lon="-0.87242">
        <ele>34.2641602</ele>
        <time>2016-10-02T09:35:44Z</time>
      </trkpt>
      <trkpt lat="44.64887" lon="-0.87237">
        <ele>34.744873</ele>
        <time>2016-10-02T09:35:47Z</time>
      </trkpt>
      <trkpt lat="44.64884" lon="-0.8723">
        <ele>35.7060547</ele>
        <time>2016-10-02T09:35:51Z</time>
      </trkpt>
      <trkpt lat="44.64885" lon="-0.87233">
        <ele>36.6674805</ele>
        <time>2016-10-02T09:35:55Z</time>
      </trkpt>
      <trkpt lat="44.64882" lon="-0.87234">
        <ele>37.1480713</ele>
        <time>2016-10-02T09:35:57Z</time>
      </trkpt>
      <trkpt lat="44.64882" lon="-0.8723">
        <ele>37.1480713</ele>
        <time>2016-10-02T09:36:03Z</time>
      </trkpt>
      <trkpt lat="44.64886" lon="-0.87233">
        <ele>36.6674805</ele>
        <time>2016-10-02T09:36:08Z</time>
      </trkpt>
      <trkpt lat="44.64879" lon="-0.87235">
        <ele>37.6286621</ele>
        <time>2016-10-02T09:36:13Z</time>
      </trkpt>
      <trkpt lat="44.64877" lon="-0.87242">
        <ele>37.6286621</ele>
        <time>2016-10-02T09:36:16Z</time>
      </trkpt>
      <trkpt lat="44.64861" lon="-0.87264">
        <ele>37.1480713</ele>
        <time>2016-10-02T09:36:24Z</time>
      </trkpt>
      <trkpt lat="44.64853" lon="-0.8728">
        <ele>37.1480713</ele>
        <time>2016-10-02T09:36:29Z</time>
      </trkpt>
      <trkpt lat="44.64852" lon="-0.87303">
        <ele>36.6674805</ele>
        <time>2016-10-02T09:36:35Z</time>
      </trkpt>
      <trkpt lat="44.64859" lon="-0.87335">
        <ele>35.7060547</ele>
        <time>2016-10-02T09:36:43Z</time>
      </trkpt>
      <trkpt lat="44.64867" lon="-0.8736">
        <ele>35.7060547</ele>
        <time>2016-10-02T09:36:49Z</time>
      </trkpt>
      <trkpt lat="44.64877" lon="-0.87388">
        <ele>34.744873</ele>
        <time>2016-10-02T09:36:55Z</time>
      </trkpt>
      <trkpt lat="44.64886" lon="-0.87414">
        <ele>33.7834473</ele>
        <time>2016-10-02T09:37:01Z</time>
      </trkpt>
      <trkpt lat="44.64893" lon="-0.87447">
        <ele>33.7834473</ele>
        <time>2016-10-02T09:37:08Z</time>
      </trkpt>
      <trkpt lat="44.64894" lon="-0.87472">
        <ele>34.2641602</ele>
        <time>2016-10-02T09:37:13Z</time>
      </trkpt>
      <trkpt lat="44.64882" lon="-0.87496">
        <ele>33.7834473</ele>
        <time>2016-10-02T09:37:19Z</time>
      </trkpt>
      <trkpt lat="44.6487" lon="-0.8753">
        <ele>35.2254639</ele>
        <time>2016-10-02T09:37:26Z</time>
      </trkpt>
      <trkpt lat="44.6486" lon="-0.8756">
        <ele>36.1867676</ele>
        <time>2016-10-02T09:37:32Z</time>
      </trkpt>
      <trkpt lat="44.64858" lon="-0.87566">
        <ele>36.6674805</ele>
        <time>2016-10-02T09:37:33Z</time>
      </trkpt>
      <trkpt lat="44.64855" lon="-0.87601">
        <ele>36.6674805</ele>
        <time>2016-10-02T09:37:38Z</time>
      </trkpt>
      <trkpt lat="44.64857" lon="-0.8763">
        <ele>37.1480713</ele>
        <time>2016-10-02T09:37:42Z</time>
      </trkpt>
      <trkpt lat="44.64858" lon="-0.87644">
        <ele>36.6674805</ele>
        <time>2016-10-02T09:37:44Z</time>
      </trkpt>
      <trkpt lat="44.64866" lon="-0.87708">
        <ele>36.1867676</ele>
        <time>2016-10-02T09:37:53Z</time>
      </trkpt>
      <trkpt lat="44.64868" lon="-0.8772">
        <ele>35.7060547</ele>
        <time>2016-10-02T09:37:55Z</time>
      </trkpt>
      <trkpt lat="44.6487" lon="-0.87743">
        <ele>34.744873</ele>
        <time>2016-10-02T09:37:59Z</time>
      </trkpt>
      <trkpt lat="44.64878" lon="-0.87777">
        <ele>33.7834473</ele>
        <time>2016-10-02T09:38:05Z</time>
      </trkpt>
      <trkpt lat="44.64883" lon="-0.87799">
        <ele>33.3028564</ele>
        <time>2016-10-02T09:38:09Z</time>
      </trkpt>
      <trkpt lat="44.64886" lon="-0.87811">
        <ele>32.8222656</ele>
        <time>2016-10-02T09:38:11Z</time>
      </trkpt>
      <trkpt lat="44.64889" lon="-0.87821">
        <ele>32.3415527</ele>
        <time>2016-10-02T09:38:13Z</time>
      </trkpt>
      <trkpt lat="44.64901" lon="-0.87854">
        <ele>30.8995361</ele>
        <time>2016-10-02T09:38:20Z</time>
      </trkpt>
      <trkpt lat="44.64908" lon="-0.87874">
        <ele>30.4188232</ele>
        <time>2016-10-02T09:38:24Z</time>
      </trkpt>
      <trkpt lat="44.64912" lon="-0.87897">
        <ele>29.4575195</ele>
        <time>2016-10-02T09:38:28Z</time>
      </trkpt>
      <trkpt lat="44.64927" lon="-0.87938">
        <ele>29.9381104</ele>
        <time>2016-10-02T09:38:36Z</time>
      </trkpt>
      <trkpt lat="44.64936" lon="-0.87964">
        <ele>30.4188232</ele>
        <time>2016-10-02T09:38:42Z</time>
      </trkpt>
      <trkpt lat="44.64939" lon="-0.87986">
        <ele>29.4575195</ele>
        <time>2016-10-02T09:38:47Z</time>
      </trkpt>
      <trkpt lat="44.64942" lon="-0.88016">
        <ele>28.4962158</ele>
        <time>2016-10-02T09:38:53Z</time>
      </trkpt>
      <trkpt lat="44.64934" lon="-0.88034">
        <ele>28.4962158</ele>
        <time>2016-10-02T09:38:57Z</time>
      </trkpt>
      <trkpt lat="44.64916" lon="-0.88045">
        <ele>29.4575195</ele>
        <time>2016-10-02T09:39:02Z</time>
      </trkpt>
      <trkpt lat="44.64899" lon="-0.88054">
        <ele>28.4962158</ele>
        <time>2016-10-02T09:39:08Z</time>
      </trkpt>
      <trkpt lat="44.64894" lon="-0.88057">
        <ele>29.9381104</ele>
        <time>2016-10-02T09:39:13Z</time>
      </trkpt>
      <trkpt lat="44.64894" lon="-0.88057">
        <ele>29.9381104</ele>
        <time>2016-10-02T09:39:14Z</time>
      </trkpt>
      <trkpt lat="44.64896" lon="-0.88077">
        <ele>30.8995361</ele>
        <time>2016-10-02T09:39:32Z</time>
      </trkpt>
      <trkpt lat="44.64893" lon="-0.88091">
        <ele>27.5349121</ele>
        <time>2016-10-02T09:39:37Z</time>
      </trkpt>
      <trkpt lat="44.6489" lon="-0.88113">
        <ele>28.9769287</ele>
        <time>2016-10-02T09:39:43Z</time>
      </trkpt>
      <trkpt lat="44.64889" lon="-0.88117">
        <ele>29.9381104</ele>
        <time>2016-10-02T09:39:44Z</time>
      </trkpt>
      <trkpt lat="44.64879" lon="-0.88153">
        <ele>35.2254639</ele>
        <time>2016-10-02T09:39:49Z</time>
      </trkpt>
      <trkpt lat="44.64877" lon="-0.8816">
        <ele>34.744873</ele>
        <time>2016-10-02T09:39:50Z</time>
      </trkpt>
      <trkpt lat="44.64877" lon="-0.88185">
        <ele>33.3028564</ele>
        <time>2016-10-02T09:39:55Z</time>
      </trkpt>
      <trkpt lat="44.64863" lon="-0.88205">
        <ele>36.1867676</ele>
        <time>2016-10-02T09:39:59Z</time>
      </trkpt>
      <trkpt lat="44.64852" lon="-0.88225">
        <ele>33.7834473</ele>
        <time>2016-10-02T09:40:04Z</time>
      </trkpt>
      <trkpt lat="44.64849" lon="-0.88262">
        <ele>33.3028564</ele>
        <time>2016-10-02T09:40:12Z</time>
      </trkpt>
      <trkpt lat="44.64848" lon="-0.88291">
        <ele>35.7060547</ele>
        <time>2016-10-02T09:40:17Z</time>
      </trkpt>
      <trkpt lat="44.64848" lon="-0.88314">
        <ele>35.7060547</ele>
        <time>2016-10-02T09:40:22Z</time>
      </trkpt>
      <trkpt lat="44.64834" lon="-0.8833">
        <ele>36.1867676</ele>
        <time>2016-10-02T09:40:28Z</time>
      </trkpt>
      <trkpt lat="44.64827" lon="-0.88354">
        <ele>35.7060547</ele>
        <time>2016-10-02T09:40:33Z</time>
      </trkpt>
      <trkpt lat="44.6482" lon="-0.88365">
        <ele>35.2254639</ele>
        <time>2016-10-02T09:40:36Z</time>
      </trkpt>
      <trkpt lat="44.64806" lon="-0.88361">
        <ele>32.3415527</ele>
        <time>2016-10-02T09:40:40Z</time>
      </trkpt>
      <trkpt lat="44.64795" lon="-0.88356">
        <ele>31.380127</ele>
        <time>2016-10-02T09:40:43Z</time>
      </trkpt>
      <trkpt lat="44.64777" lon="-0.88362">
        <ele>29.4575195</ele>
        <time>2016-10-02T09:40:48Z</time>
      </trkpt>
      <trkpt lat="44.64772" lon="-0.88379">
        <ele>28.4962158</ele>
        <time>2016-10-02T09:40:52Z</time>
      </trkpt>
      <trkpt lat="44.64775" lon="-0.88388">
        <ele>28.4962158</ele>
        <time>2016-10-02T09:40:54Z</time>
      </trkpt>
      <trkpt lat="44.64787" lon="-0.88407">
        <ele>31.380127</ele>
        <time>2016-10-02T09:40:59Z</time>
      </trkpt>
      <trkpt lat="44.648" lon="-0.88424">
        <ele>28.9769287</ele>
        <time>2016-10-02T09:41:04Z</time>
      </trkpt>
      <trkpt lat="44.64801" lon="-0.88434">
        <ele>27.0543213</ele>
        <time>2016-10-02T09:41:06Z</time>
      </trkpt>
      <trkpt lat="44.64799" lon="-0.88456">
        <ele>25.1317139</ele>
        <time>2016-10-02T09:41:11Z</time>
      </trkpt>
      <trkpt lat="44.64799" lon="-0.88474">
        <ele>26.5736084</ele>
        <time>2016-10-02T09:41:14Z</time>
      </trkpt>
      <trkpt lat="44.64802" lon="-0.885">
        <ele>27.5349121</ele>
        <time>2016-10-02T09:41:19Z</time>
      </trkpt>
      <trkpt lat="44.64795" lon="-0.88522">
        <ele>27.0543213</ele>
        <time>2016-10-02T09:41:24Z</time>
      </trkpt>
      <trkpt lat="44.64787" lon="-0.88547">
        <ele>23.2089844</ele>
        <time>2016-10-02T09:41:28Z</time>
      </trkpt>
      <trkpt lat="44.64784" lon="-0.88561">
        <ele>22.2475586</ele>
        <time>2016-10-02T09:41:30Z</time>
      </trkpt>
      <trkpt lat="44.64776" lon="-0.88601">
        <ele>20.3249512</ele>
        <time>2016-10-02T09:41:34Z</time>
      </trkpt>
      <trkpt lat="44.64766" lon="-0.88647">
        <ele>19.8443604</ele>
        <time>2016-10-02T09:41:39Z</time>
      </trkpt>
      <trkpt lat="44.64764" lon="-0.88656">
        <ele>20.3249512</ele>
        <time>2016-10-02T09:41:40Z</time>
      </trkpt>
      <trkpt lat="44.64765" lon="-0.88697">
        <ele>21.7669678</ele>
        <time>2016-10-02T09:41:45Z</time>
      </trkpt>
      <trkpt lat="44.64763" lon="-0.88712">
        <ele>21.7669678</ele>
        <time>2016-10-02T09:41:47Z</time>
      </trkpt>
      <trkpt lat="44.6476" lon="-0.8876">
        <ele>21.286377</ele>
        <time>2016-10-02T09:41:53Z</time>
      </trkpt>
      <trkpt lat="44.64759" lon="-0.88792">
        <ele>20.8056641</ele>
        <time>2016-10-02T09:41:58Z</time>
      </trkpt>
      <trkpt lat="44.64763" lon="-0.88803">
        <ele>19.8443604</ele>
        <time>2016-10-02T09:42:00Z</time>
      </trkpt>
      <trkpt lat="44.64774" lon="-0.88824">
        <ele>18.4023438</ele>
        <time>2016-10-02T09:42:04Z</time>
      </trkpt>
      <trkpt lat="44.64793" lon="-0.88854">
        <ele>16.4797363</ele>
        <time>2016-10-02T09:42:10Z</time>
      </trkpt>
      <trkpt lat="44.64796" lon="-0.8886">
        <ele>15.5184326</ele>
        <time>2016-10-02T09:42:11Z</time>
      </trkpt>
      <trkpt lat="44.64797" lon="-0.88888">
        <ele>15.0377197</ele>
        <time>2016-10-02T09:42:15Z</time>
      </trkpt>
      <trkpt lat="44.64784" lon="-0.88914">
        <ele>14.5570068</ele>
        <time>2016-10-02T09:42:20Z</time>
      </trkpt>
      <trkpt lat="44.64778" lon="-0.88921">
        <ele>15.0377197</ele>
        <time>2016-10-02T09:42:22Z</time>
      </trkpt>
      <trkpt lat="44.6476" lon="-0.88933">
        <ele>15.5184326</ele>
        <time>2016-10-02T09:42:27Z</time>
      </trkpt>
      <trkpt lat="44.64742" lon="-0.88935">
        <ele>17.4411621</ele>
        <time>2016-10-02T09:42:33Z</time>
      </trkpt>
      <trkpt lat="44.64724" lon="-0.88933">
        <ele>16.9604492</ele>
        <time>2016-10-02T09:42:39Z</time>
      </trkpt>
      <trkpt lat="44.64716" lon="-0.88922">
        <ele>16.4797363</ele>
        <time>2016-10-02T09:42:43Z</time>
      </trkpt>
      <trkpt lat="44.6471" lon="-0.88895">
        <ele>15.9990234</ele>
        <time>2016-10-02T09:42:49Z</time>
      </trkpt>
      <trkpt lat="44.64703" lon="-0.88871">
        <ele>17.4411621</ele>
        <time>2016-10-02T09:42:54Z</time>
      </trkpt>
      <trkpt lat="44.64698" lon="-0.8883">
        <ele>18.8830566</ele>
        <time>2016-10-02T09:43:01Z</time>
      </trkpt>
      <trkpt lat="44.64692" lon="-0.88785">
        <ele>23.6895752</ele>
        <time>2016-10-02T09:43:09Z</time>
      </trkpt>
      <trkpt lat="44.6469" lon="-0.88774">
        <ele>24.1702881</ele>
        <time>2016-10-02T09:43:11Z</time>
      </trkpt>
      <trkpt lat="44.64686" lon="-0.88747">
        <ele>26.5736084</ele>
        <time>2016-10-02T09:43:16Z</time>
      </trkpt>
      <trkpt lat="44.64681" lon="-0.88713">
        <ele>28.9769287</ele>
        <time>2016-10-02T09:43:23Z</time>
      </trkpt>
      <trkpt lat="44.64672" lon="-0.88663">
        <ele>30.4188232</ele>
        <time>2016-10-02T09:43:33Z</time>
      </trkpt>
      <trkpt lat="44.64665" lon="-0.88625">
        <ele>30.4188232</ele>
        <time>2016-10-02T09:43:40Z</time>
      </trkpt>
      <trkpt lat="44.64655" lon="-0.88592">
        <ele>30.4188232</ele>
        <time>2016-10-02T09:43:47Z</time>
      </trkpt>
      <trkpt lat="44.64652" lon="-0.88577">
        <ele>28.9769287</ele>
        <time>2016-10-02T09:43:52Z</time>
      </trkpt>
      <trkpt lat="44.64652" lon="-0.88576">
        <ele>28.9769287</ele>
        <time>2016-10-02T09:43:55Z</time>
      </trkpt>
      <trkpt lat="44.64645" lon="-0.88566">
        <ele>37.6286621</ele>
        <time>2016-10-02T09:44:52Z</time>
      </trkpt>
      <trkpt lat="44.64634" lon="-0.8854">
        <ele>37.1480713</ele>
        <time>2016-10-02T09:44:58Z</time>
      </trkpt>
      <trkpt lat="44.64623" lon="-0.88508">
        <ele>35.2254639</ele>
        <time>2016-10-02T09:45:03Z</time>
      </trkpt>
      <trkpt lat="44.64609" lon="-0.88474">
        <ele>31.8607178</ele>
        <time>2016-10-02T09:45:09Z</time>
      </trkpt>
      <trkpt lat="44.64588" lon="-0.88442">
        <ele>31.8607178</ele>
        <time>2016-10-02T09:45:16Z</time>
      </trkpt>
      <trkpt lat="44.64566" lon="-0.88413">
        <ele>29.9381104</ele>
        <time>2016-10-02T09:45:23Z</time>
      </trkpt>
      <trkpt lat="44.64546" lon="-0.88386">
        <ele>28.0155029</ele>
        <time>2016-10-02T09:45:30Z</time>
      </trkpt>
      <trkpt lat="44.64536" lon="-0.88369">
        <ele>25.6123047</ele>
        <time>2016-10-02T09:45:34Z</time>
      </trkpt>
      <trkpt lat="44.64525" lon="-0.88355">
        <ele>29.9381104</ele>
        <time>2016-10-02T09:45:37Z</time>
      </trkpt>
      <trkpt lat="44.64517" lon="-0.88336">
        <ele>28.4962158</ele>
        <time>2016-10-02T09:45:41Z</time>
      </trkpt>
      <trkpt lat="44.64508" lon="-0.88313">
        <ele>27.0543213</ele>
        <time>2016-10-02T09:45:46Z</time>
      </trkpt>
      <trkpt lat="44.64487" lon="-0.88306">
        <ele>27.0543213</ele>
        <time>2016-10-02T09:45:52Z</time>
      </trkpt>
      <trkpt lat="44.64469" lon="-0.88315">
        <ele>24.651001</ele>
        <time>2016-10-02T09:45:57Z</time>
      </trkpt>
      <trkpt lat="44.64459" lon="-0.88319">
        <ele>26.0928955</ele>
        <time>2016-10-02T09:46:02Z</time>
      </trkpt>
      <trkpt lat="44.64443" lon="-0.88319">
        <ele>27.0543213</ele>
        <time>2016-10-02T09:46:07Z</time>
      </trkpt>
      <trkpt lat="44.64418" lon="-0.88325">
        <ele>28.0155029</ele>
        <time>2016-10-02T09:46:14Z</time>
      </trkpt>
      <trkpt lat="44.64397" lon="-0.88331">
        <ele>29.9381104</ele>
        <time>2016-10-02T09:46:20Z</time>
      </trkpt>
      <trkpt lat="44.64376" lon="-0.8834">
        <ele>29.4575195</ele>
        <time>2016-10-02T09:46:25Z</time>
      </trkpt>
      <trkpt lat="44.64372" lon="-0.88342">
        <ele>29.4575195</ele>
        <time>2016-10-02T09:46:26Z</time>
      </trkpt>
      <trkpt lat="44.64355" lon="-0.88347">
        <ele>29.9381104</ele>
        <time>2016-10-02T09:46:30Z</time>
      </trkpt>
      <trkpt lat="44.64346" lon="-0.88349">
        <ele>30.4188232</ele>
        <time>2016-10-02T09:46:32Z</time>
      </trkpt>
      <trkpt lat="44.64333" lon="-0.88353">
        <ele>30.4188232</ele>
        <time>2016-10-02T09:46:35Z</time>
      </trkpt>
      <trkpt lat="44.64303" lon="-0.88364">
        <ele>30.4188232</ele>
        <time>2016-10-02T09:46:42Z</time>
      </trkpt>
      <trkpt lat="44.64286" lon="-0.88371">
        <ele>31.380127</ele>
        <time>2016-10-02T09:46:46Z</time>
      </trkpt>
      <trkpt lat="44.64254" lon="-0.88383">
        <ele>31.380127</ele>
        <time>2016-10-02T09:46:53Z</time>
      </trkpt>
      <trkpt lat="44.6423" lon="-0.88391">
        <ele>32.8222656</ele>
        <time>2016-10-02T09:46:59Z</time>
      </trkpt>
      <trkpt lat="44.64212" lon="-0.88396">
        <ele>32.3415527</ele>
        <time>2016-10-02T09:47:04Z</time>
      </trkpt>
      <trkpt lat="44.64179" lon="-0.88406">
        <ele>32.8222656</ele>
        <time>2016-10-02T09:47:13Z</time>
      </trkpt>
      <trkpt lat="44.64161" lon="-0.88412">
        <ele>32.3415527</ele>
        <time>2016-10-02T09:47:19Z</time>
      </trkpt>
      <trkpt lat="44.64144" lon="-0.88419">
        <ele>32.8222656</ele>
        <time>2016-10-02T09:47:24Z</time>
      </trkpt>
      <trkpt lat="44.64124" lon="-0.88425">
        <ele>32.8222656</ele>
        <time>2016-10-02T09:47:30Z</time>
      </trkpt>
      <trkpt lat="44.64104" lon="-0.88433">
        <ele>31.8607178</ele>
        <time>2016-10-02T09:47:36Z</time>
      </trkpt>
      <trkpt lat="44.64094" lon="-0.8844">
        <ele>32.8222656</ele>
        <time>2016-10-02T09:47:42Z</time>
      </trkpt>
      <trkpt lat="44.64093" lon="-0.88441">
        <ele>33.3028564</ele>
        <time>2016-10-02T09:47:45Z</time>
      </trkpt>
      <trkpt lat="44.64087" lon="-0.88446">
        <ele>39.5512695</ele>
        <time>2016-10-02T09:48:18Z</time>
      </trkpt>
      <trkpt lat="44.64076" lon="-0.88451">
        <ele>39.0706787</ele>
        <time>2016-10-02T09:48:23Z</time>
      </trkpt>
      <trkpt lat="44.64074" lon="-0.88454">
        <ele>39.0706787</ele>
        <time>2016-10-02T09:48:24Z</time>
      </trkpt>
      <trkpt lat="44.64051" lon="-0.88484">
        <ele>38.5900879</ele>
        <time>2016-10-02T09:48:32Z</time>
      </trkpt>
      <trkpt lat="44.64025" lon="-0.88513">
        <ele>38.109375</ele>
        <time>2016-10-02T09:48:39Z</time>
      </trkpt>
      <trkpt lat="44.64013" lon="-0.88526">
        <ele>38.109375</ele>
        <time>2016-10-02T09:48:42Z</time>
      </trkpt>
      <trkpt lat="44.63981" lon="-0.88562">
        <ele>37.6286621</ele>
        <time>2016-10-02T09:48:50Z</time>
      </trkpt>
      <trkpt lat="44.63948" lon="-0.886">
        <ele>37.1480713</ele>
        <time>2016-10-02T09:48:58Z</time>
      </trkpt>
      <trkpt lat="44.6392" lon="-0.8863">
        <ele>36.6674805</ele>
        <time>2016-10-02T09:49:04Z</time>
      </trkpt>
      <trkpt lat="44.63893" lon="-0.88661">
        <ele>36.1867676</ele>
        <time>2016-10-02T09:49:10Z</time>
      </trkpt>
      <trkpt lat="44.63852" lon="-0.88701">
        <ele>35.2254639</ele>
        <time>2016-10-02T09:49:18Z</time>
      </trkpt>
      <trkpt lat="44.63805" lon="-0.88745">
        <ele>33.7834473</ele>
        <time>2016-10-02T09:49:27Z</time>
      </trkpt>
      <trkpt lat="44.63763" lon="-0.88784">
        <ele>33.3028564</ele>
        <time>2016-10-02T09:49:35Z</time>
      </trkpt>
      <trkpt lat="44.63715" lon="-0.8883">
        <ele>32.8222656</ele>
        <time>2016-10-02T09:49:45Z</time>
      </trkpt>
      <trkpt lat="44.63679" lon="-0.88872">
        <ele>32.8222656</ele>
        <time>2016-10-02T09:49:53Z</time>
      </trkpt>
      <trkpt lat="44.6364" lon="-0.88921">
        <ele>33.3028564</ele>
        <time>2016-10-02T09:50:02Z</time>
      </trkpt>
      <trkpt lat="44.63598" lon="-0.88974">
        <ele>33.3028564</ele>
        <time>2016-10-02T09:50:11Z</time>
      </trkpt>
      <trkpt lat="44.63556" lon="-0.89032">
        <ele>32.8222656</ele>
        <time>2016-10-02T09:50:20Z</time>
      </trkpt>
      <trkpt lat="44.63521" lon="-0.89086">
        <ele>32.3415527</ele>
        <time>2016-10-02T09:50:27Z</time>
      </trkpt>
      <trkpt lat="44.63497" lon="-0.89122">
        <ele>32.3415527</ele>
        <time>2016-10-02T09:50:32Z</time>
      </trkpt>
      <trkpt lat="44.63448" lon="-0.89195">
        <ele>31.8607178</ele>
        <time>2016-10-02T09:50:42Z</time>
      </trkpt>
      <trkpt lat="44.63407" lon="-0.89256">
        <ele>32.8222656</ele>
        <time>2016-10-02T09:50:51Z</time>
      </trkpt>
      <trkpt lat="44.6337" lon="-0.89311">
        <ele>31.8607178</ele>
        <time>2016-10-02T09:50:58Z</time>
      </trkpt>
      <trkpt lat="44.63319" lon="-0.89388">
        <ele>31.380127</ele>
        <time>2016-10-02T09:51:07Z</time>
      </trkpt>
      <trkpt lat="44.63268" lon="-0.89464">
        <ele>31.8607178</ele>
        <time>2016-10-02T09:51:16Z</time>
      </trkpt>
      <trkpt lat="44.63232" lon="-0.89519">
        <ele>32.3415527</ele>
        <time>2016-10-02T09:51:23Z</time>
      </trkpt>
      <trkpt lat="44.63192" lon="-0.8958">
        <ele>31.380127</ele>
        <time>2016-10-02T09:51:31Z</time>
      </trkpt>
      <trkpt lat="44.63146" lon="-0.89648">
        <ele>31.8607178</ele>
        <time>2016-10-02T09:51:40Z</time>
      </trkpt>
      <trkpt lat="44.63114" lon="-0.89697">
        <ele>32.3415527</ele>
        <time>2016-10-02T09:51:47Z</time>
      </trkpt>
      <trkpt lat="44.63077" lon="-0.89752">
        <ele>31.380127</ele>
        <time>2016-10-02T09:51:55Z</time>
      </trkpt>
      <trkpt lat="44.63035" lon="-0.89819">
        <ele>30.4188232</ele>
        <time>2016-10-02T09:52:04Z</time>
      </trkpt>
      <trkpt lat="44.63008" lon="-0.89858">
        <ele>31.380127</ele>
        <time>2016-10-02T09:52:10Z</time>
      </trkpt>
      <trkpt lat="44.62976" lon="-0.89898">
        <ele>32.8222656</ele>
        <time>2016-10-02T09:52:18Z</time>
      </trkpt>
      <trkpt lat="44.62941" lon="-0.89937">
        <ele>34.2641602</ele>
        <time>2016-10-02T09:52:26Z</time>
      </trkpt>
      <trkpt lat="44.62916" lon="-0.89968">
        <ele>36.1867676</ele>
        <time>2016-10-02T09:52:32Z</time>
      </trkpt>
      <trkpt lat="44.62893" lon="-0.89995">
        <ele>37.1480713</ele>
        <time>2016-10-02T09:52:37Z</time>
      </trkpt>
      <trkpt lat="44.6286" lon="-0.90036">
        <ele>37.6286621</ele>
        <time>2016-10-02T09:52:45Z</time>
      </trkpt>
      <trkpt lat="44.62828" lon="-0.90075">
        <ele>37.6286621</ele>
        <time>2016-10-02T09:52:53Z</time>
      </trkpt>
      <trkpt lat="44.62792" lon="-0.90119">
        <ele>35.7060547</ele>
        <time>2016-10-02T09:53:01Z</time>
      </trkpt>
      <trkpt lat="44.62763" lon="-0.90155">
        <ele>33.7834473</ele>
        <time>2016-10-02T09:53:07Z</time>
      </trkpt>
      <trkpt lat="44.62725" lon="-0.90205">
        <ele>31.8607178</ele>
        <time>2016-10-02T09:53:14Z</time>
      </trkpt>
      <trkpt lat="44.62708" lon="-0.90229">
        <ele>31.380127</ele>
        <time>2016-10-02T09:53:17Z</time>
      </trkpt>
      <trkpt lat="44.62661" lon="-0.90293">
        <ele>30.4188232</ele>
        <time>2016-10-02T09:53:25Z</time>
      </trkpt>
      <trkpt lat="44.62622" lon="-0.90349">
        <ele>28.4962158</ele>
        <time>2016-10-02T09:53:32Z</time>
      </trkpt>
      <trkpt lat="44.62588" lon="-0.90401">
        <ele>29.4575195</ele>
        <time>2016-10-02T09:53:39Z</time>
      </trkpt>
      <trkpt lat="44.62557" lon="-0.9045">
        <ele>29.4575195</ele>
        <time>2016-10-02T09:53:46Z</time>
      </trkpt>
      <trkpt lat="44.62512" lon="-0.90519">
        <ele>29.4575195</ele>
        <time>2016-10-02T09:53:56Z</time>
      </trkpt>
      <trkpt lat="44.62459" lon="-0.90601">
        <ele>28.9769287</ele>
        <time>2016-10-02T09:54:08Z</time>
      </trkpt>
      <trkpt lat="44.62428" lon="-0.90649">
        <ele>28.9769287</ele>
        <time>2016-10-02T09:54:15Z</time>
      </trkpt>
      <trkpt lat="44.62392" lon="-0.90704">
        <ele>28.9769287</ele>
        <time>2016-10-02T09:54:23Z</time>
      </trkpt>
      <trkpt lat="44.62388" lon="-0.90711">
        <ele>28.9769287</ele>
        <time>2016-10-02T09:54:24Z</time>
      </trkpt>
      <trkpt lat="44.62384" lon="-0.90735">
        <ele>28.9769287</ele>
        <time>2016-10-02T09:54:28Z</time>
      </trkpt>
      <trkpt lat="44.62393" lon="-0.90778">
        <ele>28.4962158</ele>
        <time>2016-10-02T09:54:36Z</time>
      </trkpt>
      <trkpt lat="44.62398" lon="-0.90801">
        <ele>28.4962158</ele>
        <time>2016-10-02T09:54:40Z</time>
      </trkpt>
      <trkpt lat="44.6241" lon="-0.9086">
        <ele>27.5349121</ele>
        <time>2016-10-02T09:54:48Z</time>
      </trkpt>
      <trkpt lat="44.62414" lon="-0.90886">
        <ele>27.5349121</ele>
        <time>2016-10-02T09:54:51Z</time>
      </trkpt>
      <trkpt lat="44.62419" lon="-0.9091">
        <ele>27.0543213</ele>
        <time>2016-10-02T09:54:54Z</time>
      </trkpt>
      <trkpt lat="44.62428" lon="-0.90965">
        <ele>26.5736084</ele>
        <time>2016-10-02T09:55:01Z</time>
      </trkpt>
      <trkpt lat="44.62436" lon="-0.91013">
        <ele>26.5736084</ele>
        <time>2016-10-02T09:55:07Z</time>
      </trkpt>
      <trkpt lat="44.6244" lon="-0.91044">
        <ele>26.5736084</ele>
        <time>2016-10-02T09:55:11Z</time>
      </trkpt>
      <trkpt lat="44.62446" lon="-0.91084">
        <ele>27.0543213</ele>
        <time>2016-10-02T09:55:16Z</time>
      </trkpt>
      <trkpt lat="44.62454" lon="-0.91134">
        <ele>26.5736084</ele>
        <time>2016-10-02T09:55:23Z</time>
      </trkpt>
      <trkpt lat="44.6246" lon="-0.91161">
        <ele>25.6123047</ele>
        <time>2016-10-02T09:55:27Z</time>
      </trkpt>
      <trkpt lat="44.62468" lon="-0.91206">
        <ele>24.651001</ele>
        <time>2016-10-02T09:55:34Z</time>
      </trkpt>
      <trkpt lat="44.6247" lon="-0.91212">
        <ele>23.6895752</ele>
        <time>2016-10-02T09:55:35Z</time>
      </trkpt>
      <trkpt lat="44.62477" lon="-0.91255">
        <ele>22.2475586</ele>
        <time>2016-10-02T09:55:41Z</time>
      </trkpt>
      <trkpt lat="44.62486" lon="-0.91307">
        <ele>20.8056641</ele>
        <time>2016-10-02T09:55:48Z</time>
      </trkpt>
      <trkpt lat="44.6249" lon="-0.91328">
        <ele>20.3249512</ele>
        <time>2016-10-02T09:55:51Z</time>
      </trkpt>
      <trkpt lat="44.62493" lon="-0.9135">
        <ele>20.3249512</ele>
        <time>2016-10-02T09:55:54Z</time>
      </trkpt>
      <trkpt lat="44.62503" lon="-0.91397">
        <ele>21.286377</ele>
        <time>2016-10-02T09:56:00Z</time>
      </trkpt>
      <trkpt lat="44.62508" lon="-0.91433">
        <ele>20.8056641</ele>
        <time>2016-10-02T09:56:04Z</time>
      </trkpt>
      <trkpt lat="44.6252" lon="-0.91499">
        <ele>20.8056641</ele>
        <time>2016-10-02T09:56:12Z</time>
      </trkpt>
      <trkpt lat="44.6253" lon="-0.91554">
        <ele>20.3249512</ele>
        <time>2016-10-02T09:56:19Z</time>
      </trkpt>
      <trkpt lat="44.6254" lon="-0.91612">
        <ele>20.3249512</ele>
        <time>2016-10-02T09:56:27Z</time>
      </trkpt>
      <trkpt lat="44.6255" lon="-0.91678">
        <ele>20.8056641</ele>
        <time>2016-10-02T09:56:36Z</time>
      </trkpt>
      <trkpt lat="44.62561" lon="-0.91739">
        <ele>20.8056641</ele>
        <time>2016-10-02T09:56:44Z</time>
      </trkpt>
      <trkpt lat="44.62567" lon="-0.91771">
        <ele>21.286377</ele>
        <time>2016-10-02T09:56:48Z</time>
      </trkpt>
      <trkpt lat="44.62568" lon="-0.91788">
        <ele>20.8056641</ele>
        <time>2016-10-02T09:56:50Z</time>
      </trkpt>
      <trkpt lat="44.62566" lon="-0.9182">
        <ele>21.286377</ele>
        <time>2016-10-02T09:56:54Z</time>
      </trkpt>
      <trkpt lat="44.62559" lon="-0.91851">
        <ele>21.286377</ele>
        <time>2016-10-02T09:56:58Z</time>
      </trkpt>
      <trkpt lat="44.62543" lon="-0.91911">
        <ele>21.286377</ele>
        <time>2016-10-02T09:57:07Z</time>
      </trkpt>
      <trkpt lat="44.6253" lon="-0.91961">
        <ele>21.7669678</ele>
        <time>2016-10-02T09:57:15Z</time>
      </trkpt>
      <trkpt lat="44.62528" lon="-0.91975">
        <ele>21.7669678</ele>
        <time>2016-10-02T09:57:17Z</time>
      </trkpt>
      <trkpt lat="44.6252" lon="-0.92008">
        <ele>21.7669678</ele>
        <time>2016-10-02T09:57:22Z</time>
      </trkpt>
      <trkpt lat="44.62506" lon="-0.92062">
        <ele>21.286377</ele>
        <time>2016-10-02T09:57:30Z</time>
      </trkpt>
      <trkpt lat="44.6249" lon="-0.92127">
        <ele>21.286377</ele>
        <time>2016-10-02T09:57:39Z</time>
      </trkpt>
      <trkpt lat="44.62474" lon="-0.92193">
        <ele>20.3249512</ele>
        <time>2016-10-02T09:57:48Z</time>
      </trkpt>
      <trkpt lat="44.6246" lon="-0.92247">
        <ele>20.3249512</ele>
        <time>2016-10-02T09:57:55Z</time>
      </trkpt>
      <trkpt lat="44.62447" lon="-0.92303">
        <ele>22.2475586</ele>
        <time>2016-10-02T09:58:02Z</time>
      </trkpt>
      <trkpt lat="44.62432" lon="-0.92357">
        <ele>23.2089844</ele>
        <time>2016-10-02T09:58:09Z</time>
      </trkpt>
      <trkpt lat="44.62419" lon="-0.92408">
        <ele>23.2089844</ele>
        <time>2016-10-02T09:58:16Z</time>
      </trkpt>
      <trkpt lat="44.6241" lon="-0.92444">
        <ele>23.6895752</ele>
        <time>2016-10-02T09:58:21Z</time>
      </trkpt>
      <trkpt lat="44.62399" lon="-0.92493">
        <ele>23.6895752</ele>
        <time>2016-10-02T09:58:28Z</time>
      </trkpt>
      <trkpt lat="44.62396" lon="-0.92505">
        <ele>24.1702881</ele>
        <time>2016-10-02T09:58:30Z</time>
      </trkpt>
      <trkpt lat="44.62385" lon="-0.9255">
        <ele>23.2089844</ele>
        <time>2016-10-02T09:58:37Z</time>
      </trkpt>
      <trkpt lat="44.62375" lon="-0.92593">
        <ele>21.7669678</ele>
        <time>2016-10-02T09:58:43Z</time>
      </trkpt>
      <trkpt lat="44.62364" lon="-0.92638">
        <ele>20.8056641</ele>
        <time>2016-10-02T09:58:49Z</time>
      </trkpt>
      <trkpt lat="44.62353" lon="-0.92682">
        <ele>20.8056641</ele>
        <time>2016-10-02T09:58:55Z</time>
      </trkpt>
      <trkpt lat="44.62338" lon="-0.9274">
        <ele>19.8443604</ele>
        <time>2016-10-02T09:59:03Z</time>
      </trkpt>
      <trkpt lat="44.62324" lon="-0.92798">
        <ele>19.3637695</ele>
        <time>2016-10-02T09:59:11Z</time>
      </trkpt>
      <trkpt lat="44.6231" lon="-0.92853">
        <ele>18.8830566</ele>
        <time>2016-10-02T09:59:19Z</time>
      </trkpt>
      <trkpt lat="44.62303" lon="-0.92904">
        <ele>18.8830566</ele>
        <time>2016-10-02T09:59:26Z</time>
      </trkpt>
      <trkpt lat="44.62301" lon="-0.92955">
        <ele>18.8830566</ele>
        <time>2016-10-02T09:59:33Z</time>
      </trkpt>
      <trkpt lat="44.62299" lon="-0.9299">
        <ele>18.8830566</ele>
        <time>2016-10-02T09:59:38Z</time>
      </trkpt>
      <trkpt lat="44.62297" lon="-0.93017">
        <ele>19.3637695</ele>
        <time>2016-10-02T09:59:42Z</time>
      </trkpt>
      <trkpt lat="44.62291" lon="-0.93051">
        <ele>19.3637695</ele>
        <time>2016-10-02T09:59:48Z</time>
      </trkpt>
      <trkpt lat="44.62287" lon="-0.93056">
        <ele>19.3637695</ele>
        <time>2016-10-02T09:59:49Z</time>
      </trkpt>
      <trkpt lat="44.62279" lon="-0.93066">
        <ele>19.3637695</ele>
        <time>2016-10-02T09:59:51Z</time>
      </trkpt>
      <trkpt lat="44.62252" lon="-0.93096">
        <ele>18.8830566</ele>
        <time>2016-10-02T09:59:57Z</time>
      </trkpt>
      <trkpt lat="44.62215" lon="-0.93137">
        <ele>17.9217529</ele>
        <time>2016-10-02T10:00:05Z</time>
      </trkpt>
      <trkpt lat="44.62169" lon="-0.93188">
        <ele>17.4411621</ele>
        <time>2016-10-02T10:00:15Z</time>
      </trkpt>
      <trkpt lat="44.62125" lon="-0.93238">
        <ele>17.4411621</ele>
        <time>2016-10-02T10:00:25Z</time>
      </trkpt>
      <trkpt lat="44.62076" lon="-0.93293">
        <ele>16.9604492</ele>
        <time>2016-10-02T10:00:36Z</time>
      </trkpt>
      <trkpt lat="44.62025" lon="-0.9335">
        <ele>16.9604492</ele>
        <time>2016-10-02T10:00:48Z</time>
      </trkpt>
      <trkpt lat="44.61986" lon="-0.93394">
        <ele>16.4797363</ele>
        <time>2016-10-02T10:00:57Z</time>
      </trkpt>
      <trkpt lat="44.61957" lon="-0.93426">
        <ele>17.4411621</ele>
        <time>2016-10-02T10:01:04Z</time>
      </trkpt>
      <trkpt lat="44.61933" lon="-0.9345">
        <ele>16.9604492</ele>
        <time>2016-10-02T10:01:10Z</time>
      </trkpt>
      <trkpt lat="44.6193" lon="-0.93453">
        <ele>16.9604492</ele>
        <time>2016-10-02T10:01:11Z</time>
      </trkpt>
      <trkpt lat="44.61916" lon="-0.93453">
        <ele>16.4797363</ele>
        <time>2016-10-02T10:01:15Z</time>
      </trkpt>
      <trkpt lat="44.61912" lon="-0.93448">
        <ele>16.4797363</ele>
        <time>2016-10-02T10:01:16Z</time>
      </trkpt>
      <trkpt lat="44.61885" lon="-0.93407">
        <ele>14.5570068</ele>
        <time>2016-10-02T10:01:22Z</time>
      </trkpt>
      <trkpt lat="44.61846" lon="-0.93349">
        <ele>14.076416</ele>
        <time>2016-10-02T10:01:30Z</time>
      </trkpt>
      <trkpt lat="44.61806" lon="-0.93294">
        <ele>13.1151123</ele>
        <time>2016-10-02T10:01:38Z</time>
      </trkpt>
      <trkpt lat="44.61774" lon="-0.93259">
        <ele>12.1538086</ele>
        <time>2016-10-02T10:01:44Z</time>
      </trkpt>
      <trkpt lat="44.61746" lon="-0.93207">
        <ele>13.5958252</ele>
        <time>2016-10-02T10:01:51Z</time>
      </trkpt>
      <trkpt lat="44.61727" lon="-0.9317">
        <ele>12.1538086</ele>
        <time>2016-10-02T10:01:56Z</time>
      </trkpt>
      <trkpt lat="44.61713" lon="-0.9313">
        <ele>11.1925049</ele>
        <time>2016-10-02T10:02:01Z</time>
      </trkpt>
      <trkpt lat="44.61701" lon="-0.93063">
        <ele>10.711792</ele>
        <time>2016-10-02T10:02:09Z</time>
      </trkpt>
      <trkpt lat="44.61688" lon="-0.93005">
        <ele>10.711792</ele>
        <time>2016-10-02T10:02:16Z</time>
      </trkpt>
      <trkpt lat="44.61667" lon="-0.92931">
        <ele>9.2698975</ele>
        <time>2016-10-02T10:02:25Z</time>
      </trkpt>
      <trkpt lat="44.61648" lon="-0.92867">
        <ele>7.8278809</ele>
        <time>2016-10-02T10:02:33Z</time>
      </trkpt>
      <trkpt lat="44.6163" lon="-0.92821">
        <ele>8.3085938</ele>
        <time>2016-10-02T10:02:39Z</time>
      </trkpt>
      <trkpt lat="44.61601" lon="-0.9279">
        <ele>8.3085938</ele>
        <time>2016-10-02T10:02:45Z</time>
      </trkpt>
      <trkpt lat="44.61576" lon="-0.92783">
        <ele>9.7506104</ele>
        <time>2016-10-02T10:02:49Z</time>
      </trkpt>
      <trkpt lat="44.61536" lon="-0.92772">
        <ele>10.711792</ele>
        <time>2016-10-02T10:02:55Z</time>
      </trkpt>
      <trkpt lat="44.61524" lon="-0.92766">
        <ele>11.1925049</ele>
        <time>2016-10-02T10:02:57Z</time>
      </trkpt>
      <trkpt lat="44.61491" lon="-0.92731">
        <ele>12.6343994</ele>
        <time>2016-10-02T10:03:03Z</time>
      </trkpt>
      <trkpt lat="44.61459" lon="-0.92678">
        <ele>13.1151123</ele>
        <time>2016-10-02T10:03:10Z</time>
      </trkpt>
      <trkpt lat="44.61428" lon="-0.92629">
        <ele>12.6343994</ele>
        <time>2016-10-02T10:03:17Z</time>
      </trkpt>
      <trkpt lat="44.61392" lon="-0.92573">
        <ele>12.1538086</ele>
        <time>2016-10-02T10:03:25Z</time>
      </trkpt>
      <trkpt lat="44.61366" lon="-0.9256">
        <ele>12.1538086</ele>
        <time>2016-10-02T10:03:29Z</time>
      </trkpt>
      <trkpt lat="44.61353" lon="-0.92563">
        <ele>11.6732178</ele>
        <time>2016-10-02T10:03:31Z</time>
      </trkpt>
      <trkpt lat="44.61339" lon="-0.92567">
        <ele>11.1925049</ele>
        <time>2016-10-02T10:03:33Z</time>
      </trkpt>
      <trkpt lat="44.61324" lon="-0.92569">
        <ele>11.1925049</ele>
        <time>2016-10-02T10:03:35Z</time>
      </trkpt>
      <trkpt lat="44.61296" lon="-0.92559">
        <ele>11.1925049</ele>
        <time>2016-10-02T10:03:39Z</time>
      </trkpt>
      <trkpt lat="44.61252" lon="-0.92521">
        <ele>11.6732178</ele>
        <time>2016-10-02T10:03:47Z</time>
      </trkpt>
    </trkseg>
  </trk>
</gpx>